Darstellungsparameter: Aktuell verwendete Einstellungen:
Skalierung der Graphiken ... ?
xyx+y,   Skalierungsfaktor:      Skalierung: Modus: x, Faktor: 1
Darstellungszeitraum ... ?
Vom - - bis: - -   Zeitraum: 27.08.2018 - 26.02.2019
Min/Max/Avg-Anzeige ... ?
Zeige MMA aktuell
Zeige MMA Monat
Zeige MMA alles
Zeige --A aktuell
Zeige --A Monat
Zeige --A alles
Keine MMA-Anzeige
MMA:
Minimum Maximum Average (ber die Originaldaten)
MMA-Basis: 27.08.2018 - 26.02.2019
Quicknavigation für Darstellung... ?
Tage:      1T, 2T, 3T, 5T -1T -2T -3T -5T +1T +2T +3T +5T
Wochen: 1W, 2W, 3W -1W -2W -3W +1W +2W +3W
Monate: 1M, 3M, 6M -1M -3M -6M +1M +3M +6M
Jahre:    1J, 3J, 5J, 10J -1J -3J -5J -10J +1J +3J +5J +10J
Nutze für die Darstellung ... ?
Originaldaten oder Mittelwerte auf ...
Stundenbasis Tagesbasis Wochenbasis
Monatsbasis Jahresbasis      Datenbasis: Original-Daten
Darstellen als:
Statistik (Auto) Statistik J:M      Darstellung:
Zur Graphik,    zurück zur Übersicht aller Sensoren.
 
Tabellarische Datenbersicht: ?
 
Sensor: Nr:Datum:Temp:Feuchte:Taupunkt:
Aussen-T/F 1 27-08-2018 00:00:00 15.7 C 56 % 6.96 C
2 27-08-2018 00:05:00 15.8 C 56 % 7.05 C
3 27-08-2018 00:10:00 16 C 55 % 6.97 C
4 27-08-2018 00:15:00 16.1 C 56 % 7.33 C
5 27-08-2018 00:20:00 16.1 C 57 % 7.59 C
6 27-08-2018 00:25:00 16.1 C 56 % 7.33 C
7 27-08-2018 00:30:00 16 C 56 % 7.24 C
8 27-08-2018 00:35:00 15.9 C 56 % 7.14 C
9 27-08-2018 00:40:00 15.9 C 57 % 7.4 C
10 27-08-2018 00:45:00 15.9 C 57 % 7.4 C
11 27-08-2018 00:50:00 16 C 54 % 6.71 C
12 27-08-2018 00:55:00 16.1 C 58 % 7.84 C
13 27-08-2018 01:00:00 16.1 C 57 % 7.59 C
14 27-08-2018 01:05:00 16.1 C 57 % 7.59 C
15 27-08-2018 01:10:00 16.2 C 52 % 6.34 C
16 27-08-2018 01:15:00 16.6 C 50 % 6.15 C
17 27-08-2018 01:20:00 16.8 C 52 % 6.9 C
18 27-08-2018 01:25:00 16.9 C 53 % 7.27 C
19 27-08-2018 01:30:00 16.9 C 51 % 6.71 C
20 27-08-2018 01:35:00 16.9 C 50 % 6.42 C
21 27-08-2018 01:40:00 17 C 51 % 6.8 C
22 27-08-2018 01:45:00 17.1 C 53 % 7.45 C
23 27-08-2018 01:50:00 17.2 C 54 % 7.82 C
24 27-08-2018 01:55:00 17.1 C 52 % 7.18 C
25 27-08-2018 02:00:00 17.1 C 57 % 8.52 C
Sensor: Nr:Datum:Temp:Feuchte:Taupunkt:
Aussen-T/F 26 27-08-2018 02:05:00 16.9 C 62 % 9.58 C
27 27-08-2018 02:10:00 16.6 C 66 % 10.23 C
28 27-08-2018 02:15:00 16.3 C 66 % 9.94 C
29 27-08-2018 02:20:00 16 C 69 % 10.32 C
30 27-08-2018 02:25:00 15.7 C 71 % 10.46 C
31 27-08-2018 02:30:00 15.5 C 71 % 10.27 C
32 27-08-2018 02:35:00 15.3 C 71 % 10.08 C
33 27-08-2018 02:40:00 15.1 C 68 % 9.24 C
34 27-08-2018 02:45:00 15.2 C 67 % 9.12 C
35 27-08-2018 02:50:00 15.2 C 69 % 9.56 C
36 27-08-2018 02:55:00 15.3 C 68 % 9.43 C
37 27-08-2018 03:00:00 15.3 C 65 % 8.77 C
38 27-08-2018 03:05:00 15.4 C 66 % 9.09 C
39 27-08-2018 03:10:00 15.6 C 69 % 9.94 C
40 27-08-2018 03:15:00 15.6 C 69 % 9.94 C
41 27-08-2018 03:20:00 15.6 C 70 % 10.15 C
42 27-08-2018 03:25:00 15.5 C 66 % 9.18 C
43 27-08-2018 03:30:00 15.5 C 67 % 9.41 C
44 27-08-2018 03:35:00 15.5 C 66 % 9.18 C
45 27-08-2018 03:40:00 15.6 C 65 % 9.05 C
46 27-08-2018 03:45:00 15.6 C 65 % 9.05 C
47 27-08-2018 03:50:00 15.7 C 64 % 8.92 C
48 27-08-2018 03:55:00 15.8 C 65 % 9.24 C
49 27-08-2018 04:00:00 15.9 C 65 % 9.34 C
50 27-08-2018 04:05:00 16.1 C 59 % 8.09 C
Sensor: Nr:Datum:Temp:Feuchte:Taupunkt:
Aussen-T/F 51 27-08-2018 04:10:00 16.3 C 61 % 8.77 C
52 27-08-2018 04:15:00 16.4 C 62 % 9.11 C
53 27-08-2018 04:20:00 16.4 C 63 % 9.35 C
54 27-08-2018 04:25:00 16.3 C 64 % 9.48 C
55 27-08-2018 04:30:00 16.3 C 68 % 10.39 C
56 27-08-2018 04:35:00 16.1 C 67 % 9.98 C
57 27-08-2018 04:40:00 15.9 C 68 % 10.01 C
58 27-08-2018 04:45:00 15.7 C 69 % 10.03 C
59 27-08-2018 04:50:00 15.6 C 68 % 9.72 C
60 27-08-2018 04:55:00 15.5 C 68 % 9.63 C
61 27-08-2018 05:00:00 15.5 C 70 % 10.06 C
62 27-08-2018 05:05:00 15.4 C 69 % 9.75 C
63 27-08-2018 05:10:00 15.5 C 69 % 9.84 C
64 27-08-2018 05:15:00 15.5 C 68 % 9.63 C
65 27-08-2018 05:20:00 15.6 C 67 % 9.5 C
66 27-08-2018 05:25:00 15.6 C 67 % 9.5 C
67 27-08-2018 05:30:00 15.6 C 65 % 9.05 C
68 27-08-2018 05:35:00 15.7 C 63 % 8.68 C
69 27-08-2018 05:40:00 15.9 C 63 % 8.87 C
70 27-08-2018 05:45:00 16.1 C 62 % 8.82 C
71 27-08-2018 05:50:00 16.2 C 61 % 8.68 C
72 27-08-2018 05:55:00 16.2 C 63 % 9.16 C
73 27-08-2018 06:00:00 16.3 C 65 % 9.71 C
74 27-08-2018 06:05:00 16.3 C 70 % 10.82 C
75 27-08-2018 06:10:00 16.1 C 72 % 11.06 C
Sensor: Nr:Datum:Temp:Feuchte:Taupunkt:
Aussen-T/F 76 27-08-2018 06:15:00 15.8 C 74 % 11.18 C
77 27-08-2018 06:20:00 15.7 C 76 % 11.48 C
78 27-08-2018 06:25:00 15.4 C 77 % 11.39 C
79 27-08-2018 06:30:00 15.3 C 78 % 11.49 C
80 27-08-2018 06:35:00 15.1 C 78 % 11.3 C
81 27-08-2018 06:40:00 15.1 C 78 % 11.3 C
82 27-08-2018 06:45:00 15.1 C 79 % 11.49 C
83 27-08-2018 06:50:00 15.1 C 79 % 11.49 C
84 27-08-2018 06:55:00 15.2 C 78 % 11.39 C
85 27-08-2018 07:00:00 15.3 C 78 % 11.49 C
86 27-08-2018 07:05:00 15.4 C 78 % 11.59 C
87 27-08-2018 07:10:00 15.5 C 79 % 11.88 C
88 27-08-2018 07:15:00 15.6 C 78 % 11.78 C
89 27-08-2018 07:20:00 15.6 C 79 % 11.97 C
90 27-08-2018 07:25:00 15.6 C 80 % 12.16 C
91 27-08-2018 07:30:00 15.6 C 82 % 12.54 C
92 27-08-2018 07:35:00 15.6 C 83 % 12.72 C
93 27-08-2018 07:40:00 15.4 C 84 % 12.71 C
94 27-08-2018 07:45:00 15.3 C 84 % 12.61 C
95 27-08-2018 07:50:00 15.3 C 85 % 12.79 C
96 27-08-2018 07:55:00 15.2 C 86 % 12.88 C
97 27-08-2018 08:00:00 15.1 C 86 % 12.78 C
98 27-08-2018 08:05:00 15.1 C 86 % 12.78 C
99 27-08-2018 08:10:00 15 C 86 % 12.68 C
100 27-08-2018 08:15:00 15 C 85 % 12.5 C
Sensor: Nr:Datum:Temp:Feuchte:Taupunkt:
Aussen-T/F 101 27-08-2018 08:20:00 15 C 85 % 12.5 C
102 27-08-2018 08:25:00 15.1 C 85 % 12.6 C
103 27-08-2018 08:30:00 15.1 C 85 % 12.6 C
104 27-08-2018 08:35:00 15.1 C 85 % 12.6 C
105 27-08-2018 08:40:00 15.2 C 84 % 12.52 C
106 27-08-2018 08:45:00 15.2 C 85 % 12.7 C
107 27-08-2018 08:50:00 15.3 C 84 % 12.61 C
108 27-08-2018 08:55:00 15.3 C 84 % 12.61 C
109 27-08-2018 09:00:00 15.3 C 84 % 12.61 C
110 27-08-2018 09:05:00 15.4 C 84 % 12.71 C
111 27-08-2018 09:10:00 15.4 C 83 % 12.53 C
112 27-08-2018 09:15:00 15.5 C 83 % 12.63 C
113 27-08-2018 09:20:00 15.6 C 83 % 12.72 C
114 27-08-2018 09:25:00 15.6 C 83 % 12.72 C
115 27-08-2018 09:30:00 15.6 C 83 % 12.72 C
116 27-08-2018 09:35:00 15.7 C 83 % 12.82 C
117 27-08-2018 09:40:00 15.7 C 83 % 12.82 C
118 27-08-2018 09:45:00 15.7 C 82 % 12.64 C
119 27-08-2018 09:50:00 15.8 C 82 % 12.74 C
120 27-08-2018 09:55:00 15.8 C 82 % 12.74 C
121 27-08-2018 10:00:00 15.9 C 82 % 12.83 C
122 27-08-2018 10:05:00 15.9 C 82 % 12.83 C
123 27-08-2018 10:10:00 16.1 C 82 % 13.03 C
124 27-08-2018 10:15:00 16.1 C 81 % 12.84 C
125 27-08-2018 10:20:00 16.2 C 81 % 12.94 C
Sensor: Nr:Datum:Temp:Feuchte:Taupunkt:
Aussen-T/F 126 27-08-2018 10:25:00 16.2 C 81 % 12.94 C
127 27-08-2018 10:30:00 16.2 C 82 % 13.13 C
128 27-08-2018 10:35:00 16.2 C 81 % 12.94 C
129 27-08-2018 10:40:00 16.2 C 81 % 12.94 C
130 27-08-2018 10:45:00 16.2 C 81 % 12.94 C
131 27-08-2018 10:50:00 16.3 C 81 % 13.04 C
132 27-08-2018 10:55:00 16.3 C 81 % 13.04 C
133 27-08-2018 11:00:00 16.4 C 81 % 13.13 C
134 27-08-2018 11:05:00 16.5 C 81 % 13.23 C
135 27-08-2018 11:10:00 16.6 C 81 % 13.33 C
136 27-08-2018 11:15:00 16.7 C 80 % 13.23 C
137 27-08-2018 11:20:00 16.8 C 80 % 13.33 C
138 27-08-2018 11:25:00 16.9 C 80 % 13.43 C
139 27-08-2018 11:30:00 17.1 C 80 % 13.62 C
140 27-08-2018 11:35:00 17.1 C 80 % 13.62 C
141 27-08-2018 11:40:00 17.2 C 80 % 13.72 C
142 27-08-2018 11:45:00 17.4 C 79 % 13.72 C
143 27-08-2018 11:50:00 17.6 C 79 % 13.92 C
144 27-08-2018 11:55:00 17.7 C 79 % 14.01 C
145 27-08-2018 12:00:00 17.8 C 78 % 13.91 C
146 27-08-2018 12:05:00 17.9 C 78 % 14.01 C
147 27-08-2018 12:10:00 18.1 C 77 % 14.01 C
148 27-08-2018 12:15:00 18.1 C 77 % 14.01 C
149 27-08-2018 12:20:00 18.2 C 78 % 14.3 C
150 27-08-2018 12:25:00 18.3 C 77 % 14.2 C
Sensor: Nr:Datum:Temp:Feuchte:Taupunkt:
Aussen-T/F 151 27-08-2018 12:30:00 18.3 C 77 % 14.2 C
152 27-08-2018 12:35:00 18.3 C 77 % 14.2 C
153 27-08-2018 12:40:00 18.3 C 77 % 14.2 C
154 27-08-2018 12:45:00 18.4 C 76 % 14.1 C
155 27-08-2018 12:50:00 18.5 C 77 % 14.39 C
156 27-08-2018 12:55:00 18.7 C 77 % 14.59 C
157 27-08-2018 13:00:00 18.9 C 76 % 14.58 C
158 27-08-2018 13:05:00 19.3 C 75 % 14.76 C
159 27-08-2018 13:10:00 19.4 C 74 % 14.65 C
160 27-08-2018 13:15:00 19.4 C 74 % 14.65 C
161 27-08-2018 13:20:00 19.5 C 75 % 14.95 C
162 27-08-2018 13:25:00 19.5 C 74 % 14.74 C
163 27-08-2018 13:30:00 19.4 C 74 % 14.65 C
164 27-08-2018 13:35:00 19.6 C 74 % 14.84 C
165 27-08-2018 13:40:00 19.7 C 73 % 14.73 C
166 27-08-2018 13:45:00 19.8 C 73 % 14.82 C
167 27-08-2018 13:50:00 19.9 C 73 % 14.92 C
168 27-08-2018 13:55:00 20.1 C 72 % 14.9 C
169 27-08-2018 14:00:00 20.2 C 72 % 14.99 C
170 27-08-2018 14:05:00 20.1 C 72 % 14.9 C
171 27-08-2018 14:10:00 20.1 C 72 % 14.9 C
172 27-08-2018 14:15:00 20.2 C 72 % 14.99 C
173 27-08-2018 14:20:00 20.1 C 72 % 14.9 C
174 27-08-2018 14:25:00 20.1 C 72 % 14.9 C
175 27-08-2018 14:30:00 20.2 C 72 % 14.99 C
Sensor: Nr:Datum:Temp:Feuchte:Taupunkt:
Aussen-T/F 176 27-08-2018 14:35:00 20.3 C 72 % 15.09 C
177 27-08-2018 14:40:00 20.3 C 72 % 15.09 C
178 27-08-2018 14:45:00 20.2 C 72 % 14.99 C
179 27-08-2018 14:50:00 20.1 C 73 % 15.11 C
180 27-08-2018 14:55:00 20.3 C 72 % 15.09 C
181 27-08-2018 15:00:00 20.3 C 73 % 15.3 C
182 27-08-2018 15:05:00 20.4 C 73 % 15.4 C
183 27-08-2018 15:10:00 20.5 C 73 % 15.5 C
184 27-08-2018 15:15:00 20.6 C 73 % 15.59 C
185 27-08-2018 15:20:00 20.7 C 72 % 15.47 C
186 27-08-2018 15:25:00 20.8 C 72 % 15.57 C
187 27-08-2018 15:30:00 20.9 C 71 % 15.45 C
188 27-08-2018 15:35:00 21.1 C 71 % 15.64 C
189 27-08-2018 15:40:00 21.1 C 70 % 15.42 C
190 27-08-2018 15:45:00 21.1 C 70 % 15.42 C
191 27-08-2018 15:50:00 21.2 C 70 % 15.51 C
192 27-08-2018 15:55:00 21.1 C 70 % 15.42 C
193 27-08-2018 16:00:00 21.1 C 71 % 15.64 C
194 27-08-2018 16:05:00 21.1 C 70 % 15.42 C
195 27-08-2018 16:10:00 21.1 C 71 % 15.64 C
196 27-08-2018 16:15:00 21 C 71 % 15.54 C
197 27-08-2018 16:20:00 21.1 C 71 % 15.64 C
198 27-08-2018 16:25:00 21.2 C 71 % 15.73 C
199 27-08-2018 16:30:00 21.6 C 70 % 15.89 C
200 27-08-2018 16:35:00 22.2 C 68 % 16.01 C
Sensor: Nr:Datum:Temp:Feuchte:Taupunkt:
Aussen-T/F 201 27-08-2018 16:40:00 22.4 C 67 % 15.97 C
202 27-08-2018 16:45:00 22.3 C 67 % 15.88 C
203 27-08-2018 16:50:00 22.1 C 68 % 15.92 C
204 27-08-2018 16:55:00 22.2 C 68 % 16.01 C
205 27-08-2018 17:00:00 22.3 C 67 % 15.88 C
206 27-08-2018 17:05:00 22.5 C 68 % 16.3 C
207 27-08-2018 17:10:00 22.7 C 67 % 16.26 C
208 27-08-2018 17:15:00 22.5 C 66 % 15.83 C
209 27-08-2018 17:20:00 22.3 C 67 % 15.88 C
210 27-08-2018 17:25:00 22.3 C 68 % 16.11 C
211 27-08-2018 17:30:00 22.8 C 67 % 16.35 C
212 27-08-2018 17:35:00 23.1 C 65 % 16.16 C
213 27-08-2018 17:40:00 23.2 C 64 % 16.01 C
214 27-08-2018 17:45:00 23.3 C 64 % 16.11 C
215 27-08-2018 17:50:00 23.4 C 62 % 15.71 C
216 27-08-2018 17:55:00 23.4 C 63 % 15.96 C
217 27-08-2018 18:00:00 23.5 C 62 % 15.8 C
218 27-08-2018 18:05:00 23.5 C 63 % 16.05 C
219 27-08-2018 18:10:00 23.7 C 62 % 15.99 C
220 27-08-2018 18:15:00 23.7 C 63 % 16.24 C
221 27-08-2018 18:20:00 23.4 C 62 % 15.71 C
222 27-08-2018 18:25:00 23.2 C 64 % 16.01 C
223 27-08-2018 18:30:00 23.3 C 64 % 16.11 C
224 27-08-2018 18:35:00 23.4 C 63 % 15.96 C
225 27-08-2018 18:40:00 23.4 C 64 % 16.2 C
Sensor: Nr:Datum:Temp:Feuchte:Taupunkt:
Aussen-T/F 226 27-08-2018 18:45:00 23.3 C 63 % 15.86 C
227 27-08-2018 18:50:00 23.2 C 64 % 16.01 C
228 27-08-2018 18:55:00 23.1 C 64 % 15.92 C
229 27-08-2018 19:00:00 22.8 C 65 % 15.88 C
230 27-08-2018 19:05:00 22.6 C 66 % 15.93 C
231 27-08-2018 19:10:00 22.4 C 66 % 15.74 C
232 27-08-2018 19:15:00 22.2 C 67 % 15.78 C
233 27-08-2018 19:20:00 22 C 68 % 15.82 C
234 27-08-2018 19:25:00 21.8 C 68 % 15.63 C
235 27-08-2018 19:30:00 21.7 C 69 % 15.77 C
236 27-08-2018 19:35:00 21.6 C 69 % 15.67 C
237 27-08-2018 19:40:00 21.4 C 69 % 15.48 C
238 27-08-2018 19:45:00 21.3 C 69 % 15.38 C
239 27-08-2018 19:50:00 21.2 C 70 % 15.51 C
240 27-08-2018 19:55:00 21.2 C 71 % 15.73 C
241 27-08-2018 20:00:00 21.1 C 72 % 15.86 C
242 27-08-2018 20:05:00 20.9 C 71 % 15.45 C
243 27-08-2018 20:10:00 20.8 C 72 % 15.57 C
244 27-08-2018 20:15:00 20.7 C 72 % 15.47 C
245 27-08-2018 20:20:00 20.6 C 71 % 15.16 C
246 27-08-2018 20:25:00 20.4 C 70 % 14.75 C
247 27-08-2018 20:30:00 20.4 C 68 % 14.3 C
248 27-08-2018 20:35:00 20.4 C 68 % 14.3 C
249 27-08-2018 20:40:00 20.3 C 67 % 13.97 C
250 27-08-2018 20:45:00 20.3 C 65 % 13.51 C
Sensor: Nr:Datum:Temp:Feuchte:Taupunkt:
Aussen-T/F 251 27-08-2018 20:50:00 20.2 C 65 % 13.41 C
252 27-08-2018 20:55:00 20.2 C 65 % 13.41 C
253 27-08-2018 21:00:00 20.2 C 61 % 12.44 C
254 27-08-2018 21:05:00 20.2 C 61 % 12.44 C
255 27-08-2018 21:10:00 20.2 C 64 % 13.18 C
256 27-08-2018 21:15:00 20.1 C 66 % 13.55 C
257 27-08-2018 21:20:00 19.9 C 62 % 12.41 C
258 27-08-2018 21:25:00 19.8 C 64 % 12.8 C
259 27-08-2018 21:30:00 19.7 C 63 % 12.46 C
260 27-08-2018 21:35:00 19.5 C 62 % 12.03 C
261 27-08-2018 21:40:00 19.4 C 63 % 12.18 C
262 27-08-2018 21:45:00 19.2 C 62 % 11.75 C
263 27-08-2018 21:50:00 19.1 C 63 % 11.9 C
264 27-08-2018 21:55:00 19 C 61 % 11.31 C
265 27-08-2018 22:00:00 18.9 C 61 % 11.22 C
266 27-08-2018 22:05:00 18.8 C 61 % 11.13 C
267 27-08-2018 22:10:00 18.8 C 62 % 11.37 C
268 27-08-2018 22:15:00 18.7 C 61 % 11.03 C
269 27-08-2018 22:20:00 18.7 C 61 % 11.03 C
270 27-08-2018 22:25:00 18.7 C 60 % 10.78 C
271 27-08-2018 22:30:00 18.7 C 60 % 10.78 C
272 27-08-2018 22:35:00 18.8 C 61 % 11.13 C
273 27-08-2018 22:40:00 18.7 C 60 % 10.78 C
274 27-08-2018 22:45:00 18.7 C 62 % 11.28 C
275 27-08-2018 22:50:00 18.6 C 63 % 11.42 C
Sensor: Nr:Datum:Temp:Feuchte:Taupunkt:
Aussen-T/F 276 27-08-2018 22:55:00 18.4 C 64 % 11.47 C
277 27-08-2018 23:00:00 18.3 C 65 % 11.61 C
278 27-08-2018 23:05:00 18.1 C 66 % 11.65 C
279 27-08-2018 23:10:00 17.7 C 67 % 11.5 C
280 27-08-2018 23:15:00 17.4 C 69 % 11.66 C
281 27-08-2018 23:20:00 17.1 C 70 % 11.59 C
282 27-08-2018 23:25:00 16.8 C 71 % 11.52 C
283 27-08-2018 23:30:00 16.6 C 72 % 11.54 C
284 27-08-2018 23:35:00 16.4 C 73 % 11.55 C
285 27-08-2018 23:40:00 16.3 C 73 % 11.46 C
286 27-08-2018 23:45:00 16.2 C 74 % 11.56 C
287 27-08-2018 23:50:00 16 C 74 % 11.37 C
288 27-08-2018 23:55:00 15.8 C 75 % 11.38 C
289 28-08-2018 00:00:00 15.7 C 76 % 11.48 C
290 28-08-2018 00:05:00 15.7 C 76 % 11.48 C
291 28-08-2018 00:10:00 15.8 C 77 % 11.78 C
292 28-08-2018 00:15:00 15.8 C 77 % 11.78 C
293 28-08-2018 00:20:00 15.8 C 77 % 11.78 C
294 28-08-2018 00:25:00 15.9 C 77 % 11.88 C
295 28-08-2018 00:30:00 15.9 C 77 % 11.88 C
296 28-08-2018 00:35:00 15.9 C 77 % 11.88 C
297 28-08-2018 00:40:00 15.9 C 77 % 11.88 C
298 28-08-2018 00:45:00 15.9 C 77 % 11.88 C
299 28-08-2018 00:50:00 15.9 C 77 % 11.88 C
300 28-08-2018 00:55:00 15.8 C 77 % 11.78 C
Sensor: Nr:Datum:Temp:Feuchte:Taupunkt:
Aussen-T/F 301 28-08-2018 01:00:00 15.8 C 77 % 11.78 C
302 28-08-2018 01:05:00 15.8 C 77 % 11.78 C
303 28-08-2018 01:10:00 15.7 C 77 % 11.68 C
304 28-08-2018 01:15:00 15.8 C 77 % 11.78 C
305 28-08-2018 01:20:00 15.8 C 77 % 11.78 C
306 28-08-2018 01:25:00 15.8 C 78 % 11.97 C
307 28-08-2018 01:30:00 15.8 C 77 % 11.78 C
308 28-08-2018 01:35:00 15.8 C 77 % 11.78 C
309 28-08-2018 01:40:00 15.7 C 77 % 11.68 C
310 28-08-2018 01:45:00 15.7 C 77 % 11.68 C
311 28-08-2018 01:50:00 15.7 C 77 % 11.68 C
312 28-08-2018 01:55:00 15.7 C 77 % 11.68 C
313 28-08-2018 02:00:00 15.7 C 78 % 11.88 C
314 28-08-2018 02:05:00 15.7 C 78 % 11.88 C
315 28-08-2018 02:10:00 15.6 C 78 % 11.78 C
316 28-08-2018 02:15:00 15.6 C 78 % 11.78 C
317 28-08-2018 02:20:00 15.6 C 78 % 11.78 C
318 28-08-2018 02:25:00 15.6 C 78 % 11.78 C
319 28-08-2018 02:30:00 15.6 C 77 % 11.59 C
320 28-08-2018 02:35:00 15.5 C 78 % 11.68 C
321 28-08-2018 02:40:00 15.5 C 77 % 11.49 C
322 28-08-2018 02:45:00 15.5 C 78 % 11.68 C
323 28-08-2018 02:50:00 15.4 C 78 % 11.59 C
324 28-08-2018 02:55:00 15.3 C 77 % 11.3 C
325 28-08-2018 03:00:00 15.1 C 78 % 11.3 C
Sensor: Nr:Datum:Temp:Feuchte:Taupunkt:
Aussen-T/F 326 28-08-2018 03:05:00 14.8 C 78 % 11 C
327 28-08-2018 03:10:00 14.6 C 79 % 11 C
328 28-08-2018 03:15:00 14.4 C 80 % 11 C
329 28-08-2018 03:20:00 14.2 C 80 % 10.8 C
330 28-08-2018 03:25:00 14 C 81 % 10.79 C
331 28-08-2018 03:30:00 13.8 C 81 % 10.6 C
332 28-08-2018 03:35:00 13.6 C 81 % 10.4 C
333 28-08-2018 03:40:00 13.4 C 82 % 10.39 C
334 28-08-2018 03:45:00 13.3 C 83 % 10.48 C
335 28-08-2018 03:50:00 13.2 C 83 % 10.38 C
336 28-08-2018 03:55:00 13.1 C 84 % 10.46 C
337 28-08-2018 04:00:00 13 C 84 % 10.36 C
338 28-08-2018 04:05:00 12.9 C 84 % 10.26 C
339 28-08-2018 04:10:00 12.8 C 84 % 10.17 C
340 28-08-2018 04:15:00 12.7 C 85 % 10.25 C
341 28-08-2018 04:20:00 12.6 C 85 % 10.15 C
342 28-08-2018 04:25:00 12.4 C 85 % 9.95 C
343 28-08-2018 04:30:00 12.3 C 85 % 9.85 C
344 28-08-2018 04:35:00 12.3 C 86 % 10.03 C
345 28-08-2018 04:40:00 12.2 C 86 % 9.93 C
346 28-08-2018 04:45:00 12.1 C 86 % 9.83 C
347 28-08-2018 04:50:00 12.1 C 87 % 10 C
348 28-08-2018 04:55:00 12.1 C 87 % 10 C
349 28-08-2018 05:00:00 12.1 C 87 % 10 C
350 28-08-2018 05:05:00 12.2 C 88 % 10.27 C
Sensor: Nr:Datum:Temp:Feuchte:Taupunkt:
Aussen-T/F 351 28-08-2018 05:10:00 12.2 C 88 % 10.27 C
352 28-08-2018 05:15:00 12.3 C 88 % 10.37 C
353 28-08-2018 05:20:00 12.3 C 88 % 10.37 C
354 28-08-2018 05:25:00 12.4 C 88 % 10.47 C
355 28-08-2018 05:30:00 12.5 C 87 % 10.4 C
356 28-08-2018 05:35:00 12.6 C 87 % 10.5 C
357 28-08-2018 05:40:00 12.7 C 87 % 10.59 C
358 28-08-2018 05:45:00 12.7 C 87 % 10.59 C
359 28-08-2018 05:50:00 12.7 C 87 % 10.59 C
360 28-08-2018 05:55:00 12.7 C 87 % 10.59 C
361 28-08-2018 06:00:00 12.8 C 86 % 10.52 C
362 28-08-2018 06:05:00 12.8 C 86 % 10.52 C
363 28-08-2018 06:10:00 12.8 C 86 % 10.52 C
364 28-08-2018 06:15:00 12.8 C 86 % 10.52 C
365 28-08-2018 06:20:00 12.8 C 86 % 10.52 C
366 28-08-2018 06:25:00 12.8 C 86 % 10.52 C
367 28-08-2018 06:30:00 12.8 C 86 % 10.52 C
368 28-08-2018 06:35:00 12.8 C 86 % 10.52 C
369 28-08-2018 06:40:00 12.8 C 86 % 10.52 C
370 28-08-2018 06:45:00 12.8 C 86 % 10.52 C
371 28-08-2018 06:50:00 12.8 C 86 % 10.52 C
372 28-08-2018 06:55:00 12.8 C 86 % 10.52 C
373 28-08-2018 07:00:00 12.9 C 86 % 10.62 C
374 28-08-2018 07:05:00 12.9 C 86 % 10.62 C
375 28-08-2018 07:10:00 12.9 C 86 % 10.62 C
Sensor: Nr:Datum:Temp:Feuchte:Taupunkt:
Aussen-T/F 376 28-08-2018 07:15:00 12.9 C 86 % 10.62 C
377 28-08-2018 07:20:00 13 C 86 % 10.72 C
378 28-08-2018 07:25:00 13 C 86 % 10.72 C
379 28-08-2018 07:30:00 13.1 C 86 % 10.81 C
380 28-08-2018 07:35:00 13.1 C 86 % 10.81 C
381 28-08-2018 07:40:00 13.2 C 86 % 10.91 C
382 28-08-2018 07:45:00 13.2 C 86 % 10.91 C
383 28-08-2018 07:50:00 13.3 C 86 % 11.01 C
384 28-08-2018 07:55:00 13.3 C 85 % 10.83 C
385 28-08-2018 08:00:00 13.4 C 84 % 10.75 C
386 28-08-2018 08:05:00 13.6 C 84 % 10.95 C
387 28-08-2018 08:10:00 13.6 C 84 % 10.95 C
388 28-08-2018 08:15:00 13.7 C 83 % 10.87 C
389 28-08-2018 08:20:00 13.7 C 83 % 10.87 C
390 28-08-2018 08:25:00 13.7 C 83 % 10.87 C
391 28-08-2018 08:30:00 13.7 C 84 % 11.05 C
392 28-08-2018 08:35:00 13.8 C 84 % 11.15 C
393 28-08-2018 08:40:00 13.8 C 84 % 11.15 C
394 28-08-2018 08:45:00 13.8 C 83 % 10.97 C
395 28-08-2018 08:50:00 13.8 C 83 % 10.97 C
396 28-08-2018 08:55:00 13.9 C 83 % 11.06 C
397 28-08-2018 09:00:00 13.9 C 83 % 11.06 C
398 28-08-2018 09:05:00 14 C 83 % 11.16 C
399 28-08-2018 09:10:00 14.1 C 83 % 11.26 C
400 28-08-2018 09:15:00 14.2 C 83 % 11.36 C
Sensor: Nr:Datum:Temp:Feuchte:Taupunkt:
Aussen-T/F 401 28-08-2018 09:20:00 14.2 C 83 % 11.36 C
402 28-08-2018 09:25:00 14.3 C 83 % 11.45 C
403 28-08-2018 09:30:00 14.3 C 83 % 11.45 C
404 28-08-2018 09:35:00 14.4 C 83 % 11.55 C
405 28-08-2018 09:40:00 14.6 C 84 % 11.93 C
406 28-08-2018 09:45:00 14.6 C 84 % 11.93 C
407 28-08-2018 09:50:00 14.7 C 84 % 12.03 C
408 28-08-2018 09:55:00 14.8 C 84 % 12.12 C
409 28-08-2018 10:00:00 14.8 C 82 % 11.76 C
410 28-08-2018 10:05:00 14.9 C 83 % 12.04 C
411 28-08-2018 10:10:00 15.1 C 83 % 12.24 C
412 28-08-2018 10:15:00 15.3 C 81 % 12.06 C
413 28-08-2018 10:20:00 15.4 C 81 % 12.16 C
414 28-08-2018 10:25:00 15.8 C 80 % 12.36 C
415 28-08-2018 10:30:00 16.1 C 79 % 12.46 C
416 28-08-2018 10:35:00 16.5 C 78 % 12.65 C
417 28-08-2018 10:40:00 17 C 77 % 12.94 C
418 28-08-2018 10:45:00 17.3 C 75 % 12.83 C
419 28-08-2018 10:50:00 17.5 C 74 % 12.82 C
420 28-08-2018 10:55:00 17.8 C 73 % 12.9 C
421 28-08-2018 11:00:00 18 C 71 % 12.67 C
422 28-08-2018 11:05:00 18.2 C 70 % 12.64 C
423 28-08-2018 11:10:00 18.4 C 69 % 12.61 C
424 28-08-2018 11:15:00 18.5 C 69 % 12.71 C
425 28-08-2018 11:20:00 18.7 C 66 % 12.22 C
Sensor: Nr:Datum:Temp:Feuchte:Taupunkt:
Aussen-T/F 426 28-08-2018 11:25:00 18.8 C 67 % 12.55 C
427 28-08-2018 11:30:00 18.9 C 67 % 12.64 C
428 28-08-2018 11:35:00 19 C 66 % 12.51 C
429 28-08-2018 11:40:00 19.1 C 65 % 12.37 C
430 28-08-2018 11:45:00 19.2 C 65 % 12.47 C
431 28-08-2018 11:50:00 19.3 C 64 % 12.32 C
432 28-08-2018 11:55:00 19.3 C 64 % 12.32 C
433 28-08-2018 12:00:00 19.3 C 63 % 12.09 C
434 28-08-2018 12:05:00 19.5 C 63 % 12.27 C
435 28-08-2018 12:10:00 19.6 C 62 % 12.13 C
436 28-08-2018 12:15:00 19.6 C 62 % 12.13 C
437 28-08-2018 12:20:00 19.7 C 62 % 12.22 C
438 28-08-2018 12:25:00 19.8 C 61 % 12.07 C
439 28-08-2018 12:30:00 19.9 C 60 % 11.91 C
440 28-08-2018 12:35:00 19.9 C 61 % 12.16 C
441 28-08-2018 12:40:00 20 C 60 % 12 C
442 28-08-2018 12:45:00 20.1 C 60 % 12.1 C
443 28-08-2018 12:50:00 20.3 C 59 % 12.03 C
444 28-08-2018 12:55:00 20.4 C 59 % 12.12 C
445 28-08-2018 13:00:00 20.4 C 59 % 12.12 C
446 28-08-2018 13:05:00 20.5 C 59 % 12.22 C
447 28-08-2018 13:10:00 20.6 C 58 % 12.05 C
448 28-08-2018 13:15:00 20.7 C 56 % 11.61 C
449 28-08-2018 13:20:00 20.7 C 56 % 11.61 C
450 28-08-2018 13:25:00 20.8 C 57 % 11.97 C
Sensor: Nr:Datum:Temp:Feuchte:Taupunkt:
Aussen-T/F 451 28-08-2018 13:30:00 20.9 C 56 % 11.8 C
452 28-08-2018 13:35:00 21 C 56 % 11.89 C
453 28-08-2018 13:40:00 21.1 C 56 % 11.99 C
454 28-08-2018 13:45:00 21.4 C 55 % 11.99 C
455 28-08-2018 13:50:00 21.7 C 54 % 11.99 C
456 28-08-2018 13:55:00 21.9 C 54 % 12.18 C
457 28-08-2018 14:00:00 22.1 C 53 % 12.08 C
458 28-08-2018 14:05:00 22.3 C 53 % 12.26 C
459 28-08-2018 14:10:00 22.4 C 52 % 12.07 C
460 28-08-2018 14:15:00 22.4 C 52 % 12.07 C
461 28-08-2018 14:20:00 22.5 C 52 % 12.16 C
462 28-08-2018 14:25:00 22.5 C 52 % 12.16 C
463 28-08-2018 14:30:00 22.6 C 53 % 12.54 C
464 28-08-2018 14:35:00 22.7 C 51 % 12.05 C
465 28-08-2018 14:40:00 22.8 C 50 % 11.84 C
466 28-08-2018 14:45:00 23 C 50 % 12.02 C
467 28-08-2018 14:50:00 23.2 C 50 % 12.21 C
468 28-08-2018 14:55:00 23.3 C 50 % 12.3 C
469 28-08-2018 15:00:00 23.3 C 49 % 11.99 C
470 28-08-2018 15:05:00 23.6 C 49 % 12.27 C
471 28-08-2018 15:10:00 23.7 C 48 % 12.04 C
472 28-08-2018 15:15:00 23.7 C 49 % 12.36 C
473 28-08-2018 15:20:00 23.6 C 48 % 11.95 C
474 28-08-2018 15:25:00 23.6 C 49 % 12.27 C
475 28-08-2018 15:30:00 23.8 C 48 % 12.14 C
Sensor: Nr:Datum:Temp:Feuchte:Taupunkt:
Aussen-T/F 476 28-08-2018 15:35:00 23.8 C 48 % 12.14 C
477 28-08-2018 15:40:00 23.8 C 48 % 12.14 C
478 28-08-2018 15:45:00 23.9 C 48 % 12.23 C
479 28-08-2018 15:50:00 23.9 C 48 % 12.23 C
480 28-08-2018 15:55:00 24 C 47 % 12 C
481 28-08-2018 16:00:00 24.1 C 46 % 11.76 C
482 28-08-2018 16:05:00 24.1 C 47 % 12.09 C
483 28-08-2018 16:10:00 24.2 C 46 % 11.85 C
484 28-08-2018 16:15:00 24.2 C 46 % 11.85 C
485 28-08-2018 16:20:00 24.3 C 47 % 12.27 C
486 28-08-2018 16:25:00 24.8 C 47 % 12.73 C
487 28-08-2018 16:30:00 25.3 C 44 % 12.18 C
488 28-08-2018 16:35:00 25.7 C 43 % 12.19 C
489 28-08-2018 16:40:00 26.1 C 42 % 12.19 C
490 28-08-2018 16:45:00 26.2 C 42 % 12.28 C
491 28-08-2018 16:50:00 26.3 C 43 % 12.73 C
492 28-08-2018 16:55:00 26.4 C 41 % 12.09 C
493 28-08-2018 17:00:00 26.6 C 41 % 12.27 C
494 28-08-2018 17:05:00 26.7 C 41 % 12.36 C
495 28-08-2018 17:10:00 26.8 C 40 % 12.07 C
496 28-08-2018 17:15:00 26.8 C 40 % 12.07 C
497 28-08-2018 17:20:00 26.3 C 41 % 12 C
498 28-08-2018 17:25:00 26.1 C 43 % 12.55 C
499 28-08-2018 17:30:00 26.2 C 42 % 12.28 C
500 28-08-2018 17:35:00 26.3 C 41 % 12 C
Sensor: Nr:Datum:Temp:Feuchte:Taupunkt:
Aussen-T/F 501 28-08-2018 17:40:00 26.6 C 41 % 12.27 C
502 28-08-2018 17:45:00 26.5 C 41 % 12.18 C
503 28-08-2018 17:50:00 26.3 C 41 % 12 C
504 28-08-2018 17:55:00 25.9 C 43 % 12.37 C
505 28-08-2018 18:00:00 25.9 C 43 % 12.37 C
506 28-08-2018 18:05:00 26 C 41 % 11.73 C
507 28-08-2018 18:10:00 26.1 C 42 % 12.19 C
508 28-08-2018 18:15:00 26 C 42 % 12.1 C
509 28-08-2018 18:20:00 25.9 C 42 % 12.01 C
510 28-08-2018 18:25:00 25.9 C 41 % 11.64 C
511 28-08-2018 18:30:00 25.9 C 42 % 12.01 C
512 28-08-2018 18:35:00 26.1 C 42 % 12.19 C
513 28-08-2018 18:40:00 26.3 C 43 % 12.73 C
514 28-08-2018 18:45:00 26.5 C 41 % 12.18 C
515 28-08-2018 18:50:00 26.7 C 41 % 12.36 C
516 28-08-2018 18:55:00 26.7 C 43 % 13.09 C
517 28-08-2018 19:00:00 26.6 C 42 % 12.64 C
518 28-08-2018 19:05:00 26.3 C 41 % 12 C
519 28-08-2018 19:10:00 26.3 C 44 % 13.08 C
520 28-08-2018 19:15:00 26.1 C 43 % 12.55 C
521 28-08-2018 19:20:00 25.9 C 45 % 13.06 C
522 28-08-2018 19:25:00 25.6 C 47 % 13.45 C
523 28-08-2018 19:30:00 25.1 C 48 % 13.32 C
524 28-08-2018 19:35:00 24.7 C 49 % 13.27 C
525 28-08-2018 19:40:00 24.3 C 50 % 13.22 C
Sensor: Nr:Datum:Temp:Feuchte:Taupunkt:
Aussen-T/F 526 28-08-2018 19:45:00 23.8 C 51 % 13.06 C
527 28-08-2018 19:50:00 23.4 C 52 % 12.99 C
528 28-08-2018 19:55:00 22.9 C 53 % 12.82 C
529 28-08-2018 20:00:00 22.5 C 55 % 13.01 C
530 28-08-2018 20:05:00 22 C 56 % 12.82 C
531 28-08-2018 20:10:00 21.5 C 57 % 12.63 C
532 28-08-2018 20:15:00 21.1 C 58 % 12.52 C
533 28-08-2018 20:20:00 20.6 C 59 % 12.31 C
534 28-08-2018 20:25:00 20.1 C 60 % 12.1 C
535 28-08-2018 20:30:00 19.7 C 61 % 11.97 C
536 28-08-2018 20:35:00 19.3 C 61 % 11.6 C
537 28-08-2018 20:40:00 19 C 62 % 11.56 C
538 28-08-2018 20:45:00 18.8 C 62 % 11.37 C
539 28-08-2018 20:50:00 18.6 C 63 % 11.42 C
540 28-08-2018 20:55:00 18.5 C 63 % 11.33 C
541 28-08-2018 21:00:00 18.3 C 63 % 11.14 C
542 28-08-2018 21:05:00 18.3 C 64 % 11.38 C
543 28-08-2018 21:10:00 18.2 C 64 % 11.28 C
544 28-08-2018 21:15:00 18.1 C 65 % 11.42 C
545 28-08-2018 21:20:00 18 C 64 % 11.09 C
546 28-08-2018 21:25:00 17.9 C 64 % 11 C
547 28-08-2018 21:30:00 17.8 C 64 % 10.9 C
548 28-08-2018 21:35:00 17.8 C 65 % 11.14 C
549 28-08-2018 21:40:00 17.7 C 65 % 11.04 C
550 28-08-2018 21:45:00 17.6 C 65 % 10.95 C
Sensor: Nr:Datum:Temp:Feuchte:Taupunkt:
Aussen-T/F 551 28-08-2018 21:50:00 17.5 C 65 % 10.85 C
552 28-08-2018 21:55:00 17.3 C 66 % 10.89 C
553 28-08-2018 22:00:00 17.2 C 66 % 10.8 C
554 28-08-2018 22:05:00 17.1 C 66 % 10.7 C
555 28-08-2018 22:10:00 16.9 C 67 % 10.74 C
556 28-08-2018 22:15:00 16.8 C 67 % 10.64 C
557 28-08-2018 22:20:00 16.7 C 67 % 10.55 C
558 28-08-2018 22:25:00 16.6 C 67 % 10.45 C
559 28-08-2018 22:30:00 16.6 C 68 % 10.67 C
560 28-08-2018 22:35:00 16.4 C 68 % 10.48 C
561 28-08-2018 22:40:00 16.3 C 68 % 10.39 C
562 28-08-2018 22:45:00 16.3 C 68 % 10.39 C
563 28-08-2018 22:50:00 16.3 C 68 % 10.39 C
564 28-08-2018 22:55:00 16.2 C 68 % 10.29 C
565 28-08-2018 23:00:00 16.2 C 69 % 10.51 C
566 28-08-2018 23:05:00 16.1 C 69 % 10.42 C
567 28-08-2018 23:10:00 15.9 C 69 % 10.23 C
568 28-08-2018 23:15:00 15.8 C 70 % 10.34 C
569 28-08-2018 23:20:00 15.8 C 70 % 10.34 C
570 28-08-2018 23:25:00 15.7 C 71 % 10.46 C
571 28-08-2018 23:30:00 15.6 C 71 % 10.37 C
572 28-08-2018 23:35:00 15.4 C 71 % 10.17 C
573 28-08-2018 23:40:00 15.4 C 72 % 10.38 C
574 28-08-2018 23:45:00 15.3 C 72 % 10.29 C
575 28-08-2018 23:50:00 15.2 C 72 % 10.19 C
Sensor: Nr:Datum:Temp:Feuchte:Taupunkt:
Aussen-T/F 576 28-08-2018 23:55:00 15.1 C 73 % 10.3 C
577 29-08-2018 00:00:00 15 C 73 % 10.2 C
578 29-08-2018 00:05:00 14.9 C 73 % 10.11 C
579 29-08-2018 00:10:00 14.9 C 73 % 10.11 C
580 29-08-2018 00:15:00 14.8 C 74 % 10.22 C
581 29-08-2018 00:20:00 14.7 C 74 % 10.12 C
582 29-08-2018 00:25:00 14.7 C 74 % 10.12 C
583 29-08-2018 00:30:00 14.6 C 76 % 10.42 C
584 29-08-2018 00:35:00 14.5 C 75 % 10.13 C
585 29-08-2018 00:40:00 14.4 C 75 % 10.03 C
586 29-08-2018 00:45:00 14.3 C 76 % 10.13 C
587 29-08-2018 00:50:00 14.2 C 76 % 10.03 C
588 29-08-2018 00:55:00 14.1 C 76 % 9.94 C
589 29-08-2018 01:00:00 13.9 C 77 % 9.94 C
590 29-08-2018 01:05:00 13.9 C 77 % 9.94 C
591 29-08-2018 01:10:00 14 C 78 % 10.23 C
592 29-08-2018 01:15:00 14 C 77 % 10.04 C
593 29-08-2018 01:20:00 13.8 C 78 % 10.03 C
594 29-08-2018 01:25:00 13.8 C 79 % 10.22 C
595 29-08-2018 01:30:00 13.7 C 78 % 9.94 C
596 29-08-2018 01:35:00 13.5 C 79 % 9.93 C
597 29-08-2018 01:40:00 13.3 C 79 % 9.74 C
598 29-08-2018 01:45:00 13.2 C 80 % 9.83 C
599 29-08-2018 01:50:00 13.2 C 80 % 9.83 C
600 29-08-2018 01:55:00 13.1 C 80 % 9.73 C
Sensor: Nr:Datum:Temp:Feuchte:Taupunkt:
Aussen-T/F 601 29-08-2018 02:00:00 12.9 C 81 % 9.72 C
602 29-08-2018 02:05:00 12.9 C 81 % 9.72 C
603 29-08-2018 02:10:00 12.8 C 82 % 9.81 C
604 29-08-2018 02:15:00 12.8 C 82 % 9.81 C
605 29-08-2018 02:20:00 12.8 C 82 % 9.81 C
606 29-08-2018 02:25:00 12.7 C 82 % 9.71 C
607 29-08-2018 02:30:00 12.6 C 82 % 9.61 C
608 29-08-2018 02:35:00 12.4 C 82 % 9.42 C
609 29-08-2018 02:40:00 12.4 C 83 % 9.6 C
610 29-08-2018 02:45:00 12.3 C 83 % 9.5 C
611 29-08-2018 02:50:00 12.2 C 83 % 9.4 C
612 29-08-2018 02:55:00 12.1 C 83 % 9.3 C
613 29-08-2018 03:00:00 11.9 C 83 % 9.11 C
614 29-08-2018 03:05:00 11.8 C 84 % 9.19 C
615 29-08-2018 03:10:00 11.7 C 84 % 9.09 C
616 29-08-2018 03:15:00 11.7 C 85 % 9.27 C
617 29-08-2018 03:20:00 11.7 C 85 % 9.27 C
618 29-08-2018 03:25:00 11.6 C 85 % 9.17 C
619 29-08-2018 03:30:00 11.6 C 85 % 9.17 C
620 29-08-2018 03:35:00 11.6 C 86 % 9.34 C
621 29-08-2018 03:40:00 11.4 C 85 % 8.97 C
622 29-08-2018 03:45:00 11.4 C 86 % 9.14 C
623 29-08-2018 03:50:00 11.3 C 86 % 9.05 C
624 29-08-2018 03:55:00 11.3 C 86 % 9.05 C
625 29-08-2018 04:00:00 11.3 C 87 % 9.22 C
Sensor: Nr:Datum:Temp:Feuchte:Taupunkt:
Aussen-T/F 626 29-08-2018 04:05:00 11.3 C 86 % 9.05 C
627 29-08-2018 04:10:00 11.3 C 87 % 9.22 C
628 29-08-2018 04:15:00 11.3 C 87 % 9.22 C
629 29-08-2018 04:20:00 11.3 C 87 % 9.22 C
630 29-08-2018 04:25:00 11.2 C 87 % 9.12 C
631 29-08-2018 04:30:00 11.2 C 87 % 9.12 C
632 29-08-2018 04:35:00 11.2 C 87 % 9.12 C
633 29-08-2018 04:40:00 11.2 C 88 % 9.29 C
634 29-08-2018 04:45:00 11.1 C 87 % 9.02 C
635 29-08-2018 04:50:00 11.1 C 87 % 9.02 C
636 29-08-2018 04:55:00 11.1 C 87 % 9.02 C
637 29-08-2018 05:00:00 11 C 87 % 8.92 C
638 29-08-2018 05:05:00 10.9 C 87 % 8.82 C
639 29-08-2018 05:10:00 10.9 C 87 % 8.82 C
640 29-08-2018 05:15:00 10.8 C 88 % 8.89 C
641 29-08-2018 05:20:00 10.8 C 87 % 8.73 C
642 29-08-2018 05:25:00 10.7 C 88 % 8.8 C
643 29-08-2018 05:30:00 10.7 C 88 % 8.8 C
644 29-08-2018 05:35:00 10.6 C 88 % 8.7 C
645 29-08-2018 05:40:00 10.6 C 88 % 8.7 C
646 29-08-2018 05:45:00 10.6 C 88 % 8.7 C
647 29-08-2018 05:50:00 10.6 C 89 % 8.86 C
648 29-08-2018 05:55:00 10.5 C 88 % 8.6 C
649 29-08-2018 06:00:00 10.4 C 88 % 8.5 C
650 29-08-2018 06:05:00 10.4 C 89 % 8.67 C
Sensor: Nr:Datum:Temp:Feuchte:Taupunkt:
Aussen-T/F 651 29-08-2018 06:10:00 10.3 C 89 % 8.57 C
652 29-08-2018 06:15:00 10.3 C 89 % 8.57 C
653 29-08-2018 06:20:00 10.3 C 89 % 8.57 C
654 29-08-2018 06:25:00 10.2 C 89 % 8.47 C
655 29-08-2018 06:30:00 10.2 C 89 % 8.47 C
656 29-08-2018 06:35:00 10.2 C 89 % 8.47 C
657 29-08-2018 06:40:00 10.2 C 89 % 8.47 C
658 29-08-2018 06:45:00 10.1 C 89 % 8.37 C
659 29-08-2018 06:50:00 10.1 C 90 % 8.54 C
660 29-08-2018 06:55:00 10.1 C 90 % 8.54 C
661 29-08-2018 07:00:00 10.1 C 90 % 8.54 C
662 29-08-2018 07:05:00 10.2 C 90 % 8.64 C
663 29-08-2018 07:10:00 10.2 C 90 % 8.64 C
664 29-08-2018 07:15:00 10.3 C 91 % 8.9 C
665 29-08-2018 07:20:00 10.4 C 91 % 9 C
666 29-08-2018 07:25:00 10.4 C 90 % 8.83 C
667 29-08-2018 07:30:00 10.4 C 90 % 8.83 C
668 29-08-2018 07:35:00 10.4 C 90 % 8.83 C
669 29-08-2018 07:40:00 10.5 C 90 % 8.93 C
670 29-08-2018 07:45:00 10.5 C 90 % 8.93 C
671 29-08-2018 07:50:00 10.6 C 90 % 9.03 C
672 29-08-2018 07:55:00 10.6 C 91 % 9.19 C
673 29-08-2018 08:00:00 10.7 C 91 % 9.29 C
674 29-08-2018 08:05:00 10.7 C 91 % 9.29 C
675 29-08-2018 08:10:00 10.8 C 90 % 9.23 C
Sensor: Nr:Datum:Temp:Feuchte:Taupunkt:
Aussen-T/F 676 29-08-2018 08:15:00 10.8 C 90 % 9.23 C
677 29-08-2018 08:20:00 10.9 C 90 % 9.33 C
678 29-08-2018 08:25:00 10.9 C 90 % 9.33 C
679 29-08-2018 08:30:00 11 C 90 % 9.42 C
680 29-08-2018 08:35:00 11.1 C 90 % 9.52 C
681 29-08-2018 08:40:00 11.2 C 90 % 9.62 C
682 29-08-2018 08:45:00 11.3 C 90 % 9.72 C
683 29-08-2018 08:50:00 11.4 C 90 % 9.82 C
684 29-08-2018 08:55:00 11.5 C 90 % 9.92 C
685 29-08-2018 09:00:00 11.6 C 90 % 10.02 C
686 29-08-2018 09:05:00 11.7 C 90 % 10.12 C
687 29-08-2018 09:10:00 11.7 C 90 % 10.12 C
688 29-08-2018 09:15:00 11.8 C 90 % 10.21 C
689 29-08-2018 09:20:00 11.9 C 90 % 10.31 C
690 29-08-2018 09:25:00 12.1 C 90 % 10.51 C
691 29-08-2018 09:30:00 12.2 C 89 % 10.44 C
692 29-08-2018 09:35:00 12.3 C 90 % 10.71 C
693 29-08-2018 09:40:00 12.5 C 90 % 10.91 C
694 29-08-2018 09:45:00 12.7 C 90 % 11.1 C
695 29-08-2018 09:50:00 12.8 C 89 % 11.03 C
696 29-08-2018 09:55:00 13.1 C 89 % 11.33 C
697 29-08-2018 10:00:00 13.3 C 89 % 11.53 C
698 29-08-2018 10:05:00 13.6 C 89 % 11.82 C
699 29-08-2018 10:10:00 13.8 C 88 % 11.85 C
700 29-08-2018 10:15:00 14.1 C 87 % 11.97 C
Sensor: Nr:Datum:Temp:Feuchte:Taupunkt:
Aussen-T/F 701 29-08-2018 10:20:00 14.4 C 87 % 12.27 C
702 29-08-2018 10:25:00 14.7 C 86 % 12.38 C
703 29-08-2018 10:30:00 15 C 86 % 12.68 C
704 29-08-2018 10:35:00 15.3 C 84 % 12.61 C
705 29-08-2018 10:40:00 15.7 C 84 % 13.01 C
706 29-08-2018 10:45:00 15.9 C 83 % 13.02 C
707 29-08-2018 10:50:00 16.3 C 81 % 13.04 C
708 29-08-2018 10:55:00 16.5 C 80 % 13.04 C
709 29-08-2018 11:00:00 16.7 C 78 % 12.85 C
710 29-08-2018 11:05:00 17.1 C 78 % 13.24 C
711 29-08-2018 11:10:00 17.4 C 77 % 13.33 C
712 29-08-2018 11:15:00 17.7 C 75 % 13.22 C
713 29-08-2018 11:20:00 18.1 C 74 % 13.4 C
714 29-08-2018 11:25:00 18.4 C 72 % 13.26 C
715 29-08-2018 11:30:00 18.7 C 72 % 13.55 C
716 29-08-2018 11:35:00 19.1 C 70 % 13.5 C
717 29-08-2018 11:40:00 19.4 C 66 % 12.89 C
718 29-08-2018 11:45:00 19.8 C 68 % 13.73 C
719 29-08-2018 11:50:00 20.2 C 66 % 13.65 C
720 29-08-2018 11:55:00 20.7 C 63 % 13.41 C
721 29-08-2018 12:00:00 21.1 C 62 % 13.54 C
722 29-08-2018 12:05:00 21.6 C 61 % 13.76 C
723 29-08-2018 12:10:00 21.9 C 61 % 14.04 C
724 29-08-2018 12:15:00 22.2 C 58 % 13.55 C
725 29-08-2018 12:20:00 22.6 C 56 % 13.38 C
Sensor: Nr:Datum:Temp:Feuchte:Taupunkt:
Aussen-T/F 726 29-08-2018 12:25:00 22.9 C 58 % 14.2 C
727 29-08-2018 12:30:00 23.2 C 55 % 13.66 C
728 29-08-2018 12:35:00 23.5 C 55 % 13.94 C
729 29-08-2018 12:40:00 23.7 C 54 % 13.84 C
730 29-08-2018 12:45:00 24.1 C 54 % 14.21 C
731 29-08-2018 12:50:00 24.4 C 53 % 14.2 C
732 29-08-2018 12:55:00 24.7 C 52 % 14.19 C
733 29-08-2018 13:00:00 24.9 C 52 % 14.37 C
734 29-08-2018 13:05:00 25.1 C 50 % 13.95 C
735 29-08-2018 13:10:00 25.3 C 50 % 14.13 C
736 29-08-2018 13:15:00 25.6 C 50 % 14.41 C
737 29-08-2018 13:20:00 25.7 C 50 % 14.5 C
738 29-08-2018 13:25:00 25.8 C 50 % 14.59 C
739 29-08-2018 13:30:00 25.9 C 50 % 14.68 C
740 29-08-2018 13:35:00 25.9 C 49 % 14.37 C
741 29-08-2018 13:40:00 26.1 C 51 % 15.17 C
742 29-08-2018 13:45:00 26.1 C 49 % 14.55 C
743 29-08-2018 13:50:00 26.2 C 48 % 14.32 C
744 29-08-2018 13:55:00 26.2 C 50 % 14.96 C
745 29-08-2018 14:00:00 26.2 C 51 % 15.27 C
746 29-08-2018 14:05:00 26.3 C 50 % 15.05 C
747 29-08-2018 14:10:00 26.3 C 48 % 14.42 C
748 29-08-2018 14:15:00 26.5 C 47 % 14.27 C
749 29-08-2018 14:20:00 26.7 C 47 % 14.45 C
750 29-08-2018 14:25:00 26.8 C 47 % 14.55 C
Sensor: Nr:Datum:Temp:Feuchte:Taupunkt:
Aussen-T/F 751 29-08-2018 14:30:00 27 C 46 % 14.39 C
752 29-08-2018 14:35:00 27.2 C 46 % 14.58 C
753 29-08-2018 14:40:00 27.3 C 46 % 14.67 C
754 29-08-2018 14:45:00 27.4 C 45 % 14.42 C
755 29-08-2018 14:50:00 27.7 C 45 % 14.69 C
756 29-08-2018 14:55:00 28.1 C 44 % 14.7 C
757 29-08-2018 15:00:00 28.2 C 43 % 14.44 C
758 29-08-2018 15:05:00 28.2 C 44 % 14.79 C
759 29-08-2018 15:10:00 28.1 C 47 % 15.73 C
760 29-08-2018 15:15:00 27.9 C 44 % 14.52 C
761 29-08-2018 15:20:00 27.9 C 48 % 15.87 C
762 29-08-2018 15:25:00 27.8 C 45 % 14.78 C
763 29-08-2018 15:30:00 27.7 C 47 % 15.36 C
764 29-08-2018 15:35:00 27.6 C 49 % 15.92 C
765 29-08-2018 15:40:00 27.3 C 50 % 15.97 C
766 29-08-2018 15:45:00 26.9 C 49 % 15.28 C
767 29-08-2018 15:50:00 26.6 C 50 % 15.32 C
768 29-08-2018 15:55:00 26.2 C 53 % 15.87 C
769 29-08-2018 16:00:00 25.2 C 63 % 17.65 C
770 29-08-2018 16:05:00 23.9 C 71 % 18.32 C
771 29-08-2018 16:10:00 22.8 C 75 % 18.14 C
772 29-08-2018 16:15:00 22.1 C 79 % 18.29 C
773 29-08-2018 16:20:00 21.6 C 82 % 18.39 C
774 29-08-2018 16:25:00 21.3 C 84 % 18.49 C
775 29-08-2018 16:30:00 21.2 C 84 % 18.39 C
Sensor: Nr:Datum:Temp:Feuchte:Taupunkt:
Aussen-T/F 776 29-08-2018 16:35:00 20.9 C 85 % 18.28 C
777 29-08-2018 16:40:00 20.8 C 86 % 18.37 C
778 29-08-2018 16:45:00 20.7 C 87 % 18.46 C
779 29-08-2018 16:50:00 20.6 C 87 % 18.36 C
780 29-08-2018 16:55:00 20.4 C 88 % 18.34 C
781 29-08-2018 17:00:00 20.3 C 88 % 18.25 C
782 29-08-2018 17:05:00 20.3 C 88 % 18.25 C
783 29-08-2018 17:10:00 20.2 C 88 % 18.15 C
784 29-08-2018 17:15:00 20.1 C 88 % 18.05 C
785 29-08-2018 17:20:00 20.1 C 89 % 18.23 C
786 29-08-2018 17:25:00 20 C 89 % 18.13 C
787 29-08-2018 17:30:00 20 C 89 % 18.13 C
788 29-08-2018 17:35:00 19.9 C 89 % 18.03 C
789 29-08-2018 17:40:00 19.9 C 90 % 18.21 C
790 29-08-2018 17:45:00 20 C 90 % 18.31 C
791 29-08-2018 17:50:00 20.1 C 90 % 18.41 C
792 29-08-2018 17:55:00 20.2 C 91 % 18.68 C
793 29-08-2018 18:00:00 20.4 C 91 % 18.88 C
794 29-08-2018 18:05:00 20.8 C 92 % 19.45 C
795 29-08-2018 18:10:00 21.5 C 91 % 19.97 C
796 29-08-2018 18:15:00 21.9 C 88 % 19.82 C
797 29-08-2018 18:20:00 22.4 C 86 % 19.94 C
798 29-08-2018 18:25:00 22.8 C 83 % 19.76 C
799 29-08-2018 18:30:00 23 C 84 % 20.15 C
800 29-08-2018 18:35:00 23.1 C 83 % 20.05 C
Sensor: Nr:Datum:Temp:Feuchte:Taupunkt:
Aussen-T/F 801 29-08-2018 18:40:00 22.9 C 82 % 19.66 C
802 29-08-2018 18:45:00 22.6 C 81 % 19.17 C
803 29-08-2018 18:50:00 22.2 C 82 % 18.98 C
804 29-08-2018 18:55:00 21.9 C 82 % 18.69 C
805 29-08-2018 19:00:00 21.6 C 83 % 18.59 C
806 29-08-2018 19:05:00 21.2 C 84 % 18.39 C
807 29-08-2018 19:10:00 20.9 C 85 % 18.28 C
808 29-08-2018 19:15:00 20.7 C 86 % 18.27 C
809 29-08-2018 19:20:00 20.5 C 86 % 18.08 C
810 29-08-2018 19:25:00 20.3 C 87 % 18.06 C
811 29-08-2018 19:30:00 20.2 C 87 % 17.97 C
812 29-08-2018 19:35:00 20 C 87 % 17.77 C
813 29-08-2018 19:40:00 19.9 C 88 % 17.85 C
814 29-08-2018 19:45:00 19.8 C 88 % 17.75 C
815 29-08-2018 19:50:00 19.7 C 89 % 17.84 C
816 29-08-2018 19:55:00 19.6 C 89 % 17.74 C
817 29-08-2018 20:00:00 19.6 C 89 % 17.74 C
818 29-08-2018 20:05:00 19.5 C 89 % 17.64 C
819 29-08-2018 20:10:00 19.4 C 90 % 17.72 C
820 29-08-2018 20:15:00 19.4 C 90 % 17.72 C
821 29-08-2018 20:20:00 19.3 C 90 % 17.62 C
822 29-08-2018 20:25:00 19.3 C 90 % 17.62 C
823 29-08-2018 20:30:00 19.3 C 90 % 17.62 C
824 29-08-2018 20:35:00 19.3 C 91 % 17.79 C
825 29-08-2018 20:40:00 19.3 C 91 % 17.79 C
Sensor: Nr:Datum:Temp:Feuchte:Taupunkt:
Aussen-T/F 826 29-08-2018 20:45:00 19.3 C 92 % 17.97 C
827 29-08-2018 20:50:00 19.3 C 92 % 17.97 C
828 29-08-2018 20:55:00 19 C 91 % 17.5 C
829 29-08-2018 21:00:00 18.7 C 91 % 17.2 C
830 29-08-2018 21:05:00 18.6 C 91 % 17.1 C
831 29-08-2018 21:10:00 18.4 C 91 % 16.9 C
832 29-08-2018 21:15:00 18.3 C 92 % 16.98 C
833 29-08-2018 21:20:00 18.2 C 92 % 16.88 C
834 29-08-2018 21:25:00 18.2 C 92 % 16.88 C
835 29-08-2018 21:30:00 18.1 C 92 % 16.78 C
836 29-08-2018 21:35:00 18 C 92 % 16.68 C
837 29-08-2018 21:40:00 17.9 C 92 % 16.58 C
838 29-08-2018 21:45:00 17.9 C 92 % 16.58 C
839 29-08-2018 21:50:00 17.9 C 93 % 16.75 C
840 29-08-2018 21:55:00 17.8 C 93 % 16.65 C
841 29-08-2018 22:00:00 17.8 C 93 % 16.65 C
842 29-08-2018 22:05:00 17.8 C 93 % 16.65 C
843 29-08-2018 22:10:00 17.8 C 93 % 16.65 C
844 29-08-2018 22:15:00 17.7 C 93 % 16.55 C
845 29-08-2018 22:20:00 17.7 C 93 % 16.55 C
846 29-08-2018 22:25:00 17.7 C 93 % 16.55 C
847 29-08-2018 22:30:00 17.7 C 94 % 16.72 C
848 29-08-2018 22:35:00 17.7 C 93 % 16.55 C
849 29-08-2018 22:40:00 17.7 C 94 % 16.72 C
850 29-08-2018 22:45:00 17.7 C 94 % 16.72 C
Sensor: Nr:Datum:Temp:Feuchte:Taupunkt:
Aussen-T/F 851 29-08-2018 22:50:00 17.6 C 94 % 16.62 C
852 29-08-2018 22:55:00 17.6 C 94 % 16.62 C
853 29-08-2018 23:00:00 17.6 C 94 % 16.62 C
854 29-08-2018 23:05:00 17.5 C 94 % 16.52 C
855 29-08-2018 23:10:00 17.4 C 94 % 16.42 C
856 29-08-2018 23:15:00 17.3 C 94 % 16.33 C
857 29-08-2018 23:20:00 17.3 C 94 % 16.33 C
858 29-08-2018 23:25:00 17.2 C 94 % 16.23 C
859 29-08-2018 23:30:00 17.2 C 94 % 16.23 C
860 29-08-2018 23:35:00 17.2 C 94 % 16.23 C
861 29-08-2018 23:40:00 17.2 C 94 % 16.23 C
862 29-08-2018 23:45:00 17.2 C 94 % 16.23 C
863 29-08-2018 23:50:00 17.2 C 94 % 16.23 C
864 29-08-2018 23:55:00 17.2 C 94 % 16.23 C
865 30-08-2018 00:00:00 17.2 C 94 % 16.23 C
866 30-08-2018 00:05:00 17.2 C 94 % 16.23 C
867 30-08-2018 00:10:00 17.2 C 94 % 16.23 C
868 30-08-2018 00:15:00 17.2 C 95 % 16.39 C
869 30-08-2018 00:20:00 17.3 C 95 % 16.49 C
870 30-08-2018 00:25:00 17.3 C 95 % 16.49 C
871 30-08-2018 00:30:00 17.2 C 95 % 16.39 C
872 30-08-2018 00:35:00 17.2 C 95 % 16.39 C
873 30-08-2018 00:40:00 17.2 C 95 % 16.39 C
874 30-08-2018 00:45:00 17.1 C 95 % 16.29 C
875 30-08-2018 00:50:00 17.1 C 94 % 16.13 C
Sensor: Nr:Datum:Temp:Feuchte:Taupunkt:
Aussen-T/F 876 30-08-2018 00:55:00 16.9 C 94 % 15.93 C
877 30-08-2018 01:00:00 16.9 C 94 % 15.93 C
878 30-08-2018 01:05:00 16.9 C 95 % 16.09 C
879 30-08-2018 01:10:00 16.8 C 95 % 15.99 C
880 30-08-2018 01:15:00 16.7 C 95 % 15.9 C
881 30-08-2018 01:20:00 16.7 C 94 % 15.73 C
882 30-08-2018 01:25:00 16.6 C 94 % 15.63 C
883 30-08-2018 01:30:00 16.6 C 94 % 15.63 C
884 30-08-2018 01:35:00 16.4 C 94 % 15.43 C
885 30-08-2018 01:40:00 16.3 C 94 % 15.33 C
886 30-08-2018 01:45:00 16.2 C 93 % 15.07 C
887 30-08-2018 01:50:00 16.1 C 93 % 14.97 C
888 30-08-2018 01:55:00 16 C 93 % 14.87 C
889 30-08-2018 02:00:00 16 C 93 % 14.87 C
890 30-08-2018 02:05:00 15.9 C 92 % 14.6 C
891 30-08-2018 02:10:00 16 C 92 % 14.7 C
892 30-08-2018 02:15:00 16 C 92 % 14.7 C
893 30-08-2018 02:20:00 16 C 92 % 14.7 C
894 30-08-2018 02:25:00 15.9 C 92 % 14.6 C
895 30-08-2018 02:30:00 15.9 C 91 % 14.43 C
896 30-08-2018 02:35:00 15.9 C 92 % 14.6 C
897 30-08-2018 02:40:00 15.9 C 92 % 14.6 C
898 30-08-2018 02:45:00 15.9 C 92 % 14.6 C
899 30-08-2018 02:50:00 15.9 C 92 % 14.6 C
900 30-08-2018 02:55:00 15.9 C 92 % 14.6 C
Sensor: Nr:Datum:Temp:Feuchte:Taupunkt:
Aussen-T/F 901 30-08-2018 03:00:00 15.9 C 91 % 14.43 C
902 30-08-2018 03:05:00 15.9 C 91 % 14.43 C
903 30-08-2018 03:10:00 15.9 C 91 % 14.43 C
904 30-08-2018 03:15:00 15.9 C 91 % 14.43 C
905 30-08-2018 03:20:00 15.9 C 91 % 14.43 C
906 30-08-2018 03:25:00 15.9 C 91 % 14.43 C
907 30-08-2018 03:30:00 15.9 C 91 % 14.43 C
908 30-08-2018 03:35:00 15.9 C 91 % 14.43 C
909 30-08-2018 03:40:00 15.8 C 91 % 14.33 C
910 30-08-2018 03:45:00 15.8 C 91 % 14.33 C
911 30-08-2018 03:50:00 15.8 C 91 % 14.33 C
912 30-08-2018 03:55:00 15.7 C 91 % 14.24 C
913 30-08-2018 04:00:00 15.7 C 90 % 14.06 C
914 30-08-2018 04:05:00 15.6 C 90 % 13.97 C
915 30-08-2018 04:10:00 15.6 C 90 % 13.97 C
916 30-08-2018 04:15:00 15.6 C 90 % 13.97 C
917 30-08-2018 04:20:00 15.6 C 90 % 13.97 C
918 30-08-2018 04:25:00 15.6 C 90 % 13.97 C
919 30-08-2018 04:30:00 15.6 C 90 % 13.97 C
920 30-08-2018 04:35:00 15.6 C 90 % 13.97 C
921 30-08-2018 04:40:00 15.6 C 90 % 13.97 C
922 30-08-2018 04:45:00 15.6 C 90 % 13.97 C
923 30-08-2018 04:50:00 15.6 C 90 % 13.97 C
924 30-08-2018 04:55:00 15.6 C 90 % 13.97 C
925 30-08-2018 05:00:00 15.5 C 90 % 13.87 C
Sensor: Nr:Datum:Temp:Feuchte:Taupunkt:
Aussen-T/F 926 30-08-2018 05:05:00 15.5 C 90 % 13.87 C
927 30-08-2018 05:10:00 15.5 C 90 % 13.87 C
928 30-08-2018 05:15:00 15.4 C 90 % 13.77 C
929 30-08-2018 05:20:00 15.4 C 90 % 13.77 C
930 30-08-2018 05:25:00 15.4 C 90 % 13.77 C
931 30-08-2018 05:30:00 15.4 C 90 % 13.77 C
932 30-08-2018 05:35:00 15.4 C 89 % 13.6 C
933 30-08-2018 05:40:00 15.3 C 89 % 13.5 C
934 30-08-2018 05:45:00 15.3 C 89 % 13.5 C
935 30-08-2018 05:50:00 15.3 C 89 % 13.5 C
936 30-08-2018 05:55:00 15.3 C 89 % 13.5 C
937 30-08-2018 06:00:00 15.2 C 90 % 13.57 C
938 30-08-2018 06:05:00 15.2 C 90 % 13.57 C
939 30-08-2018 06:10:00 15.2 C 90 % 13.57 C
940 30-08-2018 06:15:00 15.2 C 90 % 13.57 C
941 30-08-2018 06:20:00 15.1 C 90 % 13.47 C
942 30-08-2018 06:25:00 15.1 C 90 % 13.47 C
943 30-08-2018 06:30:00 15.2 C 90 % 13.57 C
944 30-08-2018 06:35:00 15.1 C 90 % 13.47 C
945 30-08-2018 06:40:00 15.1 C 90 % 13.47 C
946 30-08-2018 06:45:00 15.1 C 90 % 13.47 C
947 30-08-2018 06:50:00 15.1 C 90 % 13.47 C
948 30-08-2018 06:55:00 15.1 C 90 % 13.47 C
949 30-08-2018 07:00:00 15.1 C 90 % 13.47 C
950 30-08-2018 07:05:00 15.1 C 90 % 13.47 C
Sensor: Nr:Datum:Temp:Feuchte:Taupunkt:
Aussen-T/F 951 30-08-2018 07:10:00 15.1 C 90 % 13.47 C
952 30-08-2018 07:15:00 15.1 C 90 % 13.47 C
953 30-08-2018 07:20:00 15.1 C 90 % 13.47 C
954 30-08-2018 07:25:00 15.1 C 90 % 13.47 C
955 30-08-2018 07:30:00 15.1 C 90 % 13.47 C
956 30-08-2018 07:35:00 15.1 C 90 % 13.47 C
957 30-08-2018 07:40:00 15.1 C 90 % 13.47 C
958 30-08-2018 07:45:00 15.1 C 89 % 13.3 C
959 30-08-2018 07:50:00 15.2 C 89 % 13.4 C
960 30-08-2018 07:55:00 15.2 C 89 % 13.4 C
961 30-08-2018 08:00:00 15.3 C 89 % 13.5 C
962 30-08-2018 08:05:00 15.3 C 89 % 13.5 C
963 30-08-2018 08:10:00 15.3 C 89 % 13.5 C
964 30-08-2018 08:15:00 15.4 C 89 % 13.6 C
965 30-08-2018 08:20:00 15.4 C 89 % 13.6 C
966 30-08-2018 08:25:00 15.5 C 88 % 13.52 C
967 30-08-2018 08:30:00 15.6 C 88 % 13.62 C
968 30-08-2018 08:35:00 15.6 C 88 % 13.62 C
969 30-08-2018 08:40:00 15.7 C 88 % 13.72 C
970 30-08-2018 08:45:00 15.8 C 89 % 13.99 C
971 30-08-2018 08:50:00 15.9 C 88 % 13.92 C
972 30-08-2018 08:55:00 16 C 88 % 14.01 C
973 30-08-2018 09:00:00 16 C 87 % 13.84 C
974 30-08-2018 09:05:00 16.1 C 87 % 13.94 C
975 30-08-2018 09:10:00 16.1 C 87 % 13.94 C
Sensor: Nr:Datum:Temp:Feuchte:Taupunkt:
Aussen-T/F 976 30-08-2018 09:15:00 16.1 C 86 % 13.76 C
977 30-08-2018 09:20:00 16.2 C 86 % 13.86 C
978 30-08-2018 09:25:00 16.2 C 86 % 13.86 C
979 30-08-2018 09:30:00 16.2 C 86 % 13.86 C
980 30-08-2018 09:35:00 16.2 C 86 % 13.86 C
981 30-08-2018 09:40:00 16.2 C 86 % 13.86 C
982 30-08-2018 09:45:00 16.2 C 86 % 13.86 C
983 30-08-2018 09:50:00 16.2 C 86 % 13.86 C
984 30-08-2018 09:55:00 16.3 C 86 % 13.95 C
985 30-08-2018 10:00:00 16.3 C 85 % 13.77 C
986 30-08-2018 10:05:00 16.4 C 84 % 13.69 C
987 30-08-2018 10:10:00 16.5 C 85 % 13.97 C
988 30-08-2018 10:15:00 16.7 C 84 % 13.98 C
989 30-08-2018 10:20:00 16.8 C 82 % 13.71 C
990 30-08-2018 10:25:00 16.9 C 82 % 13.81 C
991 30-08-2018 10:30:00 17.1 C 81 % 13.82 C
992 30-08-2018 10:35:00 17.2 C 81 % 13.91 C
993 30-08-2018 10:40:00 17.3 C 81 % 14.01 C
994 30-08-2018 10:45:00 17.3 C 80 % 13.82 C
995 30-08-2018 10:50:00 17.3 C 80 % 13.82 C
996 30-08-2018 10:55:00 17.3 C 80 % 13.82 C
997 30-08-2018 11:00:00 17.4 C 80 % 13.92 C
998 30-08-2018 11:05:00 17.5 C 80 % 14.01 C
999 30-08-2018 11:10:00 17.6 C 79 % 13.92 C
1000 30-08-2018 11:15:00 17.6 C 80 % 14.11 C
Sensor: Nr:Datum:Temp:Feuchte:Taupunkt:
Aussen-T/F 1001 30-08-2018 11:20:00 17.7 C 79 % 14.01 C
1002 30-08-2018 11:25:00 17.8 C 79 % 14.11 C
1003 30-08-2018 11:30:00 17.8 C 78 % 13.91 C
1004 30-08-2018 11:35:00 17.8 C 78 % 13.91 C
1005 30-08-2018 11:40:00 17.7 C 76 % 13.42 C
1006 30-08-2018 11:45:00 17.7 C 76 % 13.42 C
1007 30-08-2018 11:50:00 17.8 C 76 % 13.52 C
1008 30-08-2018 11:55:00 17.9 C 75 % 13.41 C
1009 30-08-2018 12:00:00 18 C 76 % 13.71 C
1010 30-08-2018 12:05:00 18.1 C 75 % 13.6 C
1011 30-08-2018 12:10:00 18.2 C 76 % 13.9 C
1012 30-08-2018 12:15:00 18.3 C 76 % 14 C
1013 30-08-2018 12:20:00 18.4 C 75 % 13.89 C
1014 30-08-2018 12:25:00 18.5 C 74 % 13.78 C
1015 30-08-2018 12:30:00 18.6 C 74 % 13.88 C
1016 30-08-2018 12:35:00 18.8 C 73 % 13.86 C
1017 30-08-2018 12:40:00 18.9 C 73 % 13.96 C
1018 30-08-2018 12:45:00 19.1 C 72 % 13.94 C
1019 30-08-2018 12:50:00 19.1 C 71 % 13.72 C
1020 30-08-2018 12:55:00 19.2 C 70 % 13.6 C
1021 30-08-2018 13:00:00 19.1 C 69 % 13.28 C
1022 30-08-2018 13:05:00 19.1 C 68 % 13.06 C
1023 30-08-2018 13:10:00 18.9 C 67 % 12.64 C
1024 30-08-2018 13:15:00 18.9 C 67 % 12.64 C
1025 30-08-2018 13:20:00 19.1 C 67 % 12.83 C
Sensor: Nr:Datum:Temp:Feuchte:Taupunkt:
Aussen-T/F 1026 30-08-2018 13:25:00 19.3 C 63 % 12.09 C
1027 30-08-2018 13:30:00 19.4 C 61 % 11.69 C
1028 30-08-2018 13:35:00 19.5 C 62 % 12.03 C
1029 30-08-2018 13:40:00 19.4 C 63 % 12.18 C
1030 30-08-2018 13:45:00 19.5 C 64 % 12.51 C
1031 30-08-2018 13:50:00 19.6 C 65 % 12.84 C
1032 30-08-2018 13:55:00 19.6 C 59 % 11.37 C
1033 30-08-2018 14:00:00 19.4 C 59 % 11.19 C
1034 30-08-2018 14:05:00 19.4 C 60 % 11.44 C
1035 30-08-2018 14:10:00 19.4 C 63 % 12.18 C
1036 30-08-2018 14:15:00 19.6 C 63 % 12.37 C
1037 30-08-2018 14:20:00 19.6 C 62 % 12.13 C
1038 30-08-2018 14:25:00 19.6 C 65 % 12.84 C
1039 30-08-2018 14:30:00 19.7 C 62 % 12.22 C
1040 30-08-2018 14:35:00 19.8 C 63 % 12.56 C
1041 30-08-2018 14:40:00 20 C 60 % 12 C
1042 30-08-2018 14:45:00 20.1 C 60 % 12.1 C
1043 30-08-2018 14:50:00 20.2 C 58 % 11.68 C
1044 30-08-2018 14:55:00 20.5 C 57 % 11.7 C
1045 30-08-2018 15:00:00 20.6 C 56 % 11.52 C
1046 30-08-2018 15:05:00 20.7 C 55 % 11.34 C
1047 30-08-2018 15:10:00 20.7 C 53 % 10.78 C
1048 30-08-2018 15:15:00 20.6 C 54 % 10.97 C
1049 30-08-2018 15:20:00 20.6 C 54 % 10.97 C
1050 30-08-2018 15:25:00 20.5 C 54 % 10.88 C
Sensor: Nr:Datum:Temp:Feuchte:Taupunkt:
Aussen-T/F 1051 30-08-2018 15:30:00 20.4 C 53 % 10.51 C
1052 30-08-2018 15:35:00 20.4 C 54 % 10.79 C
1053 30-08-2018 15:40:00 20.6 C 53 % 10.69 C
1054 30-08-2018 15:45:00 20.6 C 53 % 10.69 C
1055 30-08-2018 15:50:00 20.4 C 53 % 10.51 C
1056 30-08-2018 15:55:00 20.3 C 54 % 10.69 C
1057 30-08-2018 16:00:00 20.3 C 56 % 11.24 C
1058 30-08-2018 16:05:00 20.3 C 54 % 10.69 C
1059 30-08-2018 16:10:00 20.4 C 54 % 10.79 C
1060 30-08-2018 16:15:00 20.4 C 53 % 10.51 C
1061 30-08-2018 16:20:00 20.6 C 53 % 10.69 C
1062 30-08-2018 16:25:00 20.8 C 52 % 10.59 C
1063 30-08-2018 16:30:00 21.2 C 50 % 10.37 C
1064 30-08-2018 16:35:00 21.3 C 50 % 10.46 C
1065 30-08-2018 16:40:00 21.5 C 50 % 10.65 C
1066 30-08-2018 16:45:00 21.4 C 49 % 10.25 C
1067 30-08-2018 16:50:00 21.6 C 50 % 10.74 C
1068 30-08-2018 16:55:00 21.6 C 48 % 10.13 C
1069 30-08-2018 17:00:00 21.4 C 49 % 10.25 C
1070 30-08-2018 17:05:00 21.6 C 50 % 10.74 C
1071 30-08-2018 17:10:00 21.8 C 47 % 9.99 C
1072 30-08-2018 17:15:00 21.9 C 48 % 10.4 C
1073 30-08-2018 17:20:00 21.9 C 47 % 10.09 C
1074 30-08-2018 17:25:00 21.9 C 48 % 10.4 C
1075 30-08-2018 17:30:00 21.9 C 47 % 10.09 C
Sensor: Nr:Datum:Temp:Feuchte:Taupunkt:
Aussen-T/F 1076 30-08-2018 17:35:00 21.8 C 48 % 10.31 C
1077 30-08-2018 17:40:00 22.1 C 47 % 10.27 C
1078 30-08-2018 17:45:00 22.2 C 47 % 10.36 C
1079 30-08-2018 17:50:00 22.2 C 46 % 10.04 C
1080 30-08-2018 17:55:00 22.2 C 47 % 10.36 C
1081 30-08-2018 18:00:00 21.9 C 46 % 9.77 C
1082 30-08-2018 18:05:00 21.7 C 46 % 9.58 C
1083 30-08-2018 18:10:00 21.4 C 47 % 9.63 C
1084 30-08-2018 18:15:00 21.4 C 46 % 9.31 C
1085 30-08-2018 18:20:00 21.3 C 46 % 9.22 C
1086 30-08-2018 18:25:00 21.3 C 46 % 9.22 C
1087 30-08-2018 18:30:00 21.3 C 47 % 9.54 C
1088 30-08-2018 18:35:00 21.4 C 46 % 9.31 C
1089 30-08-2018 18:40:00 21.3 C 46 % 9.22 C
1090 30-08-2018 18:45:00 21.2 C 46 % 9.13 C
1091 30-08-2018 18:50:00 21 C 48 % 9.58 C
1092 30-08-2018 18:55:00 20.9 C 50 % 10.1 C
1093 30-08-2018 19:00:00 20.9 C 49 % 9.79 C
1094 30-08-2018 19:05:00 20.8 C 46 % 8.77 C
1095 30-08-2018 19:10:00 20.6 C 48 % 9.21 C
1096 30-08-2018 19:15:00 20.4 C 47 % 8.72 C
1097 30-08-2018 19:20:00 20.2 C 48 % 8.85 C
1098 30-08-2018 19:25:00 20.1 C 48 % 8.76 C
1099 30-08-2018 19:30:00 19.9 C 49 % 8.88 C
1100 30-08-2018 19:35:00 19.7 C 49 % 8.7 C
Sensor: Nr:Datum:Temp:Feuchte:Taupunkt:
Aussen-T/F 1101 30-08-2018 19:40:00 19.6 C 49 % 8.6 C
1102 30-08-2018 19:45:00 19.4 C 49 % 8.42 C
1103 30-08-2018 19:50:00 19.3 C 49 % 8.33 C
1104 30-08-2018 19:55:00 19.2 C 50 % 8.53 C
1105 30-08-2018 20:00:00 19 C 52 % 8.93 C
1106 30-08-2018 20:05:00 18.7 C 55 % 9.48 C
1107 30-08-2018 20:10:00 18.3 C 58 % 9.9 C
1108 30-08-2018 20:15:00 17.9 C 59 % 9.78 C
1109 30-08-2018 20:20:00 17.5 C 58 % 9.15 C
1110 30-08-2018 20:25:00 17.2 C 62 % 9.86 C
1111 30-08-2018 20:30:00 16.8 C 64 % 9.96 C
1112 30-08-2018 20:35:00 16.6 C 64 % 9.77 C
1113 30-08-2018 20:40:00 16.3 C 65 % 9.71 C
1114 30-08-2018 20:45:00 15.9 C 65 % 9.34 C
1115 30-08-2018 20:50:00 15.7 C 66 % 9.37 C
1116 30-08-2018 20:55:00 15.5 C 67 % 9.41 C
1117 30-08-2018 21:00:00 15.3 C 67 % 9.21 C
1118 30-08-2018 21:05:00 15.3 C 68 % 9.43 C
1119 30-08-2018 21:10:00 15.2 C 68 % 9.34 C
1120 30-08-2018 21:15:00 15.1 C 69 % 9.46 C
1121 30-08-2018 21:20:00 15 C 70 % 9.58 C
1122 30-08-2018 21:25:00 14.9 C 70 % 9.48 C
1123 30-08-2018 21:30:00 14.8 C 70 % 9.39 C
1124 30-08-2018 21:35:00 14.8 C 71 % 9.6 C
1125 30-08-2018 21:40:00 14.7 C 71 % 9.5 C
Sensor: Nr:Datum:Temp:Feuchte:Taupunkt:
Aussen-T/F 1126 30-08-2018 21:45:00 14.6 C 71 % 9.41 C
1127 30-08-2018 21:50:00 14.6 C 71 % 9.41 C
1128 30-08-2018 21:55:00 14.5 C 73 % 9.72 C
1129 30-08-2018 22:00:00 14.4 C 74 % 9.83 C
1130 30-08-2018 22:05:00 14.3 C 73 % 9.53 C
1131 30-08-2018 22:10:00 14.2 C 74 % 9.64 C
1132 30-08-2018 22:15:00 14.1 C 75 % 9.74 C
1133 30-08-2018 22:20:00 13.9 C 75 % 9.55 C
1134 30-08-2018 22:25:00 13.7 C 76 % 9.55 C
1135 30-08-2018 22:30:00 13.5 C 77 % 9.55 C
1136 30-08-2018 22:35:00 13.3 C 78 % 9.55 C
1137 30-08-2018 22:40:00 13.2 C 78 % 9.45 C
1138 30-08-2018 22:45:00 13 C 79 % 9.45 C
1139 30-08-2018 22:50:00 12.8 C 79 % 9.25 C
1140 30-08-2018 22:55:00 12.7 C 79 % 9.16 C
1141 30-08-2018 23:00:00 12.7 C 80 % 9.34 C
1142 30-08-2018 23:05:00 12.6 C 80 % 9.25 C
1143 30-08-2018 23:10:00 12.6 C 81 % 9.43 C
1144 30-08-2018 23:15:00 12.5 C 80 % 9.15 C
1145 30-08-2018 23:20:00 12.4 C 81 % 9.23 C
1146 30-08-2018 23:25:00 12.3 C 81 % 9.14 C
1147 30-08-2018 23:30:00 12.3 C 81 % 9.14 C
1148 30-08-2018 23:35:00 12.2 C 82 % 9.22 C
1149 30-08-2018 23:40:00 12.2 C 82 % 9.22 C
1150 30-08-2018 23:45:00 12.2 C 82 % 9.22 C
Sensor: Nr:Datum:Temp:Feuchte:Taupunkt:
Aussen-T/F 1151 30-08-2018 23:50:00 12.2 C 82 % 9.22 C
1152 30-08-2018 23:55:00 12.2 C 82 % 9.22 C
1153 31-08-2018 00:00:00 12.1 C 82 % 9.12 C
1154 31-08-2018 00:05:00 12.1 C 83 % 9.3 C
1155 31-08-2018 00:10:00 12.1 C 83 % 9.3 C
1156 31-08-2018 00:15:00 12.1 C 83 % 9.3 C
1157 31-08-2018 00:20:00 12.1 C 84 % 9.48 C
1158 31-08-2018 00:25:00 12.1 C 84 % 9.48 C
1159 31-08-2018 00:30:00 12 C 84 % 9.38 C
1160 31-08-2018 00:35:00 12 C 83 % 9.21 C
1161 31-08-2018 00:40:00 11.9 C 83 % 9.11 C
1162 31-08-2018 00:45:00 11.9 C 84 % 9.29 C
1163 31-08-2018 00:50:00 11.8 C 84 % 9.19 C
1164 31-08-2018 00:55:00 11.7 C 84 % 9.09 C
1165 31-08-2018 01:00:00 11.7 C 84 % 9.09 C
1166 31-08-2018 01:05:00 11.6 C 84 % 8.99 C
1167 31-08-2018 01:10:00 11.6 C 85 % 9.17 C
1168 31-08-2018 01:15:00 11.5 C 85 % 9.07 C
1169 31-08-2018 01:20:00 11.5 C 85 % 9.07 C
1170 31-08-2018 01:25:00 11.4 C 85 % 8.97 C
1171 31-08-2018 01:30:00 11.4 C 85 % 8.97 C
1172 31-08-2018 01:35:00 11.3 C 86 % 9.05 C
1173 31-08-2018 01:40:00 11.3 C 86 % 9.05 C
1174 31-08-2018 01:45:00 11.3 C 86 % 9.05 C
1175 31-08-2018 01:50:00 11.3 C 86 % 9.05 C
Sensor: Nr:Datum:Temp:Feuchte:Taupunkt:
Aussen-T/F 1176 31-08-2018 01:55:00 11.3 C 86 % 9.05 C
1177 31-08-2018 02:00:00 11.3 C 87 % 9.22 C
1178 31-08-2018 02:05:00 11.3 C 87 % 9.22 C
1179 31-08-2018 02:10:00 11.4 C 87 % 9.32 C
1180 31-08-2018 02:15:00 11.4 C 87 % 9.32 C
1181 31-08-2018 02:20:00 11.4 C 87 % 9.32 C
1182 31-08-2018 02:25:00 11.4 C 87 % 9.32 C
1183 31-08-2018 02:30:00 11.4 C 87 % 9.32 C
1184 31-08-2018 02:35:00 11.4 C 87 % 9.32 C
1185 31-08-2018 02:40:00 11.4 C 87 % 9.32 C
1186 31-08-2018 02:45:00 11.4 C 87 % 9.32 C
1187 31-08-2018 02:50:00 11.4 C 87 % 9.32 C
1188 31-08-2018 02:55:00 11.4 C 87 % 9.32 C
1189 31-08-2018 03:00:00 11.4 C 87 % 9.32 C
1190 31-08-2018 03:05:00 11.3 C 87 % 9.22 C
1191 31-08-2018 03:10:00 11.3 C 87 % 9.22 C
1192 31-08-2018 03:15:00 11.3 C 88 % 9.39 C
1193 31-08-2018 03:20:00 11.3 C 88 % 9.39 C
1194 31-08-2018 03:25:00 11.2 C 88 % 9.29 C
1195 31-08-2018 03:30:00 11.2 C 88 % 9.29 C
1196 31-08-2018 03:35:00 11.2 C 88 % 9.29 C
1197 31-08-2018 03:40:00 11.2 C 88 % 9.29 C
1198 31-08-2018 03:45:00 11.2 C 88 % 9.29 C
1199 31-08-2018 03:50:00 11.2 C 88 % 9.29 C
1200 31-08-2018 03:55:00 11.2 C 88 % 9.29 C
Sensor: Nr:Datum:Temp:Feuchte:Taupunkt:
Aussen-T/F 1201 31-08-2018 04:00:00 11.2 C 88 % 9.29 C
1202 31-08-2018 04:05:00 11.2 C 88 % 9.29 C
1203 31-08-2018 04:10:00 11.2 C 88 % 9.29 C
1204 31-08-2018 04:15:00 11.2 C 88 % 9.29 C
1205 31-08-2018 04:20:00 11.2 C 89 % 9.46 C
1206 31-08-2018 04:25:00 11.2 C 89 % 9.46 C
1207 31-08-2018 04:30:00 11.2 C 89 % 9.46 C
1208 31-08-2018 04:35:00 11.2 C 89 % 9.46 C
1209 31-08-2018 04:40:00 11.2 C 89 % 9.46 C
1210 31-08-2018 04:45:00 11.1 C 89 % 9.36 C
1211 31-08-2018 04:50:00 11.1 C 89 % 9.36 C
1212 31-08-2018 04:55:00 11.1 C 89 % 9.36 C
1213 31-08-2018 05:00:00 11.1 C 89 % 9.36 C
1214 31-08-2018 05:05:00 11 C 89 % 9.26 C
1215 31-08-2018 05:10:00 11 C 89 % 9.26 C
1216 31-08-2018 05:15:00 11 C 89 % 9.26 C
1217 31-08-2018 05:20:00 11 C 90 % 9.42 C
1218 31-08-2018 05:25:00 11 C 90 % 9.42 C
1219 31-08-2018 05:30:00 11 C 90 % 9.42 C
1220 31-08-2018 05:35:00 11 C 90 % 9.42 C
1221 31-08-2018 05:40:00 11 C 90 % 9.42 C
1222 31-08-2018 05:45:00 11.1 C 90 % 9.52 C
1223 31-08-2018 05:50:00 11.1 C 90 % 9.52 C
1224 31-08-2018 05:55:00 11.1 C 90 % 9.52 C
1225 31-08-2018 06:00:00 11.2 C 90 % 9.62 C
Sensor: Nr:Datum:Temp:Feuchte:Taupunkt:
Aussen-T/F 1226 31-08-2018 06:05:00 11.2 C 90 % 9.62 C
1227 31-08-2018 06:10:00 11.2 C 90 % 9.62 C
1228 31-08-2018 06:15:00 11.3 C 90 % 9.72 C
1229 31-08-2018 06:20:00 11.3 C 90 % 9.72 C
1230 31-08-2018 06:25:00 11.3 C 90 % 9.72 C
1231 31-08-2018 06:30:00 11.3 C 90 % 9.72 C
1232 31-08-2018 06:35:00 11.3 C 90 % 9.72 C
1233 31-08-2018 06:40:00 11.3 C 90 % 9.72 C
1234 31-08-2018 06:45:00 11.3 C 90 % 9.72 C
1235 31-08-2018 06:50:00 11.3 C 90 % 9.72 C
1236 31-08-2018 06:55:00 11.3 C 90 % 9.72 C
1237 31-08-2018 07:00:00 11.3 C 90 % 9.72 C
1238 31-08-2018 07:05:00 11.3 C 90 % 9.72 C
1239 31-08-2018 07:10:00 11.3 C 90 % 9.72 C
1240 31-08-2018 07:15:00 11.3 C 90 % 9.72 C
1241 31-08-2018 07:20:00 11.4 C 90 % 9.82 C
1242 31-08-2018 07:25:00 11.4 C 91 % 9.98 C
1243 31-08-2018 07:30:00 11.4 C 91 % 9.98 C
1244 31-08-2018 07:35:00 11.6 C 90 % 10.02 C
1245 31-08-2018 07:40:00 11.6 C 91 % 10.18 C
1246 31-08-2018 07:45:00 11.7 C 90 % 10.12 C
1247 31-08-2018 07:50:00 11.7 C 91 % 10.28 C
1248 31-08-2018 07:55:00 11.8 C 91 % 10.38 C
1249 31-08-2018 08:00:00 11.9 C 91 % 10.48 C
1250 31-08-2018 08:05:00 12 C 90 % 10.41 C
Sensor: Nr:Datum:Temp:Feuchte:Taupunkt:
Aussen-T/F 1251 31-08-2018 08:10:00 12.1 C 91 % 10.68 C
1252 31-08-2018 08:15:00 12.2 C 90 % 10.61 C
1253 31-08-2018 08:20:00 12.2 C 90 % 10.61 C
1254 31-08-2018 08:25:00 12.3 C 90 % 10.71 C
1255 31-08-2018 08:30:00 12.3 C 90 % 10.71 C
1256 31-08-2018 08:35:00 12.4 C 90 % 10.81 C
1257 31-08-2018 08:40:00 12.4 C 88 % 10.47 C
1258 31-08-2018 08:45:00 12.6 C 88 % 10.67 C
1259 31-08-2018 08:50:00 12.6 C 87 % 10.5 C
1260 31-08-2018 08:55:00 12.7 C 87 % 10.59 C
1261 31-08-2018 09:00:00 12.8 C 87 % 10.69 C
1262 31-08-2018 09:05:00 12.9 C 87 % 10.79 C
1263 31-08-2018 09:10:00 13 C 87 % 10.89 C
1264 31-08-2018 09:15:00 13.1 C 86 % 10.81 C
1265 31-08-2018 09:20:00 13.2 C 86 % 10.91 C
1266 31-08-2018 09:25:00 13.3 C 85 % 10.83 C
1267 31-08-2018 09:30:00 13.4 C 85 % 10.93 C
1268 31-08-2018 09:35:00 13.5 C 84 % 10.85 C
1269 31-08-2018 09:40:00 13.6 C 85 % 11.13 C
1270 31-08-2018 09:45:00 13.7 C 85 % 11.23 C
1271 31-08-2018 09:50:00 13.9 C 85 % 11.42 C
1272 31-08-2018 09:55:00 14 C 84 % 11.34 C
1273 31-08-2018 10:00:00 14.1 C 83 % 11.26 C
1274 31-08-2018 10:05:00 14.2 C 83 % 11.36 C
1275 31-08-2018 10:10:00 14.3 C 84 % 11.64 C
Sensor: Nr:Datum:Temp:Feuchte:Taupunkt:
Aussen-T/F 1276 31-08-2018 10:15:00 14.4 C 83 % 11.55 C
1277 31-08-2018 10:20:00 14.6 C 83 % 11.75 C
1278 31-08-2018 10:25:00 14.8 C 82 % 11.76 C
1279 31-08-2018 10:30:00 14.9 C 81 % 11.67 C
1280 31-08-2018 10:35:00 15.1 C 82 % 12.05 C
1281 31-08-2018 10:40:00 15.2 C 80 % 11.78 C
1282 31-08-2018 10:45:00 15.3 C 80 % 11.87 C
1283 31-08-2018 10:50:00 15.4 C 80 % 11.97 C
1284 31-08-2018 10:55:00 15.6 C 79 % 11.97 C
1285 31-08-2018 11:00:00 15.7 C 78 % 11.88 C
1286 31-08-2018 11:05:00 15.8 C 78 % 11.97 C
1287 31-08-2018 11:10:00 15.9 C 78 % 12.07 C
1288 31-08-2018 11:15:00 15.9 C 77 % 11.88 C
1289 31-08-2018 11:20:00 16.1 C 78 % 12.27 C
1290 31-08-2018 11:25:00 16.1 C 76 % 11.87 C
1291 31-08-2018 11:30:00 16.3 C 77 % 12.26 C
1292 31-08-2018 11:35:00 16.4 C 76 % 12.16 C
1293 31-08-2018 11:40:00 16.6 C 74 % 11.95 C
1294 31-08-2018 11:45:00 16.7 C 74 % 12.05 C
1295 31-08-2018 11:50:00 16.7 C 72 % 11.63 C
1296 31-08-2018 11:55:00 16.7 C 73 % 11.84 C
1297 31-08-2018 12:00:00 16.7 C 72 % 11.63 C
1298 31-08-2018 12:05:00 16.9 C 73 % 12.03 C
1299 31-08-2018 12:10:00 17.2 C 72 % 12.11 C
1300 31-08-2018 12:15:00 17.3 C 71 % 12 C
Sensor: Nr:Datum:Temp:Feuchte:Taupunkt:
Aussen-T/F 1301 31-08-2018 12:20:00 17.5 C 69 % 11.75 C
1302 31-08-2018 12:25:00 17.7 C 69 % 11.95 C
1303 31-08-2018 12:30:00 17.7 C 67 % 11.5 C
1304 31-08-2018 12:35:00 17.7 C 67 % 11.5 C
1305 31-08-2018 12:40:00 17.8 C 66 % 11.37 C
1306 31-08-2018 12:45:00 17.8 C 65 % 11.14 C
1307 31-08-2018 12:50:00 17.9 C 65 % 11.23 C
1308 31-08-2018 12:55:00 18 C 64 % 11.09 C
1309 31-08-2018 13:00:00 18.1 C 65 % 11.42 C
1310 31-08-2018 13:05:00 18.2 C 63 % 11.05 C
1311 31-08-2018 13:10:00 18.3 C 63 % 11.14 C
1312 31-08-2018 13:15:00 18.4 C 63 % 11.23 C
1313 31-08-2018 13:20:00 18.5 C 61 % 10.84 C
1314 31-08-2018 13:25:00 18.5 C 63 % 11.33 C
1315 31-08-2018 13:30:00 18.6 C 61 % 10.94 C
1316 31-08-2018 13:35:00 18.7 C 60 % 10.78 C
1317 31-08-2018 13:40:00 18.7 C 59 % 10.53 C
1318 31-08-2018 13:45:00 18.8 C 59 % 10.63 C
1319 31-08-2018 13:50:00 18.8 C 59 % 10.63 C
1320 31-08-2018 13:55:00 19 C 58 % 10.56 C
1321 31-08-2018 14:00:00 19.1 C 58 % 10.65 C
1322 31-08-2018 14:05:00 19.2 C 59 % 11 C
1323 31-08-2018 14:10:00 19.3 C 58 % 10.84 C
1324 31-08-2018 14:15:00 19.3 C 55 % 10.04 C
1325 31-08-2018 14:20:00 19.4 C 55 % 10.13 C
Sensor: Nr:Datum:Temp:Feuchte:Taupunkt:
Aussen-T/F 1326 31-08-2018 14:25:00 19.4 C 55 % 10.13 C
1327 31-08-2018 14:30:00 19.4 C 54 % 9.86 C
1328 31-08-2018 14:35:00 19.4 C 54 % 9.86 C
1329 31-08-2018 14:40:00 19.3 C 54 % 9.77 C
1330 31-08-2018 14:45:00 19.3 C 55 % 10.04 C
1331 31-08-2018 14:50:00 19.4 C 54 % 9.86 C
1332 31-08-2018 14:55:00 19.4 C 55 % 10.13 C
1333 31-08-2018 15:00:00 19.4 C 55 % 10.13 C
1334 31-08-2018 15:05:00 19.6 C 55 % 10.32 C
1335 31-08-2018 15:10:00 19.7 C 53 % 9.86 C
1336 31-08-2018 15:15:00 19.7 C 53 % 9.86 C
1337 31-08-2018 15:20:00 19.8 C 52 % 9.67 C
1338 31-08-2018 15:25:00 19.9 C 52 % 9.76 C
1339 31-08-2018 15:30:00 19.8 C 52 % 9.67 C
1340 31-08-2018 15:35:00 19.7 C 53 % 9.86 C
1341 31-08-2018 15:40:00 19.7 C 52 % 9.58 C
1342 31-08-2018 15:45:00 19.6 C 52 % 9.48 C
1343 31-08-2018 15:50:00 19.4 C 52 % 9.3 C
1344 31-08-2018 15:55:00 19.4 C 53 % 9.58 C
1345 31-08-2018 16:00:00 19.6 C 52 % 9.48 C
1346 31-08-2018 16:05:00 19.7 C 52 % 9.58 C
1347 31-08-2018 16:10:00 19.9 C 51 % 9.47 C
1348 31-08-2018 16:15:00 20.1 C 51 % 9.66 C
1349 31-08-2018 16:20:00 20 C 51 % 9.56 C
1350 31-08-2018 16:25:00 20 C 50 % 9.27 C
Sensor: Nr:Datum:Temp:Feuchte:Taupunkt:
Aussen-T/F 1351 31-08-2018 16:30:00 20 C 50 % 9.27 C
1352 31-08-2018 16:35:00 20.2 C 49 % 9.15 C
1353 31-08-2018 16:40:00 20.3 C 48 % 8.94 C
1354 31-08-2018 16:45:00 20.3 C 48 % 8.94 C
1355 31-08-2018 16:50:00 20.5 C 48 % 9.12 C
1356 31-08-2018 16:55:00 20.7 C 48 % 9.3 C
1357 31-08-2018 17:00:00 20.9 C 47 % 9.17 C
1358 31-08-2018 17:05:00 20.8 C 47 % 9.08 C
1359 31-08-2018 17:10:00 20.6 C 47 % 8.9 C
1360 31-08-2018 17:15:00 20.3 C 48 % 8.94 C
1361 31-08-2018 17:20:00 20.2 C 50 % 9.45 C
1362 31-08-2018 17:25:00 20.2 C 49 % 9.15 C
1363 31-08-2018 17:30:00 20.3 C 47 % 8.63 C
1364 31-08-2018 17:35:00 20.3 C 49 % 9.24 C
1365 31-08-2018 17:40:00 20.7 C 48 % 9.3 C
1366 31-08-2018 17:45:00 20.8 C 47 % 9.08 C
1367 31-08-2018 17:50:00 20.9 C 47 % 9.17 C
1368 31-08-2018 17:55:00 20.9 C 47 % 9.17 C
1369 31-08-2018 18:00:00 20.9 C 46 % 8.86 C
1370 31-08-2018 18:05:00 20.9 C 46 % 8.86 C
1371 31-08-2018 18:10:00 20.9 C 45 % 8.53 C
1372 31-08-2018 18:15:00 20.9 C 45 % 8.53 C
1373 31-08-2018 18:20:00 20.9 C 44 % 8.2 C
1374 31-08-2018 18:25:00 20.9 C 44 % 8.2 C
1375 31-08-2018 18:30:00 20.8 C 44 % 8.11 C
Sensor: Nr:Datum:Temp:Feuchte:Taupunkt:
Aussen-T/F 1376 31-08-2018 18:35:00 20.9 C 43 % 7.86 C
1377 31-08-2018 18:40:00 20.9 C 43 % 7.86 C
1378 31-08-2018 18:45:00 20.9 C 42 % 7.52 C
1379 31-08-2018 18:50:00 20.8 C 43 % 7.77 C
1380 31-08-2018 18:55:00 20.6 C 43 % 7.59 C
1381 31-08-2018 19:00:00 20.4 C 43 % 7.41 C
1382 31-08-2018 19:05:00 20.2 C 43 % 7.23 C
1383 31-08-2018 19:10:00 20.1 C 45 % 7.81 C
1384 31-08-2018 19:15:00 19.9 C 44 % 7.3 C
1385 31-08-2018 19:20:00 19.7 C 45 % 7.44 C
1386 31-08-2018 19:25:00 19.6 C 44 % 7.03 C
1387 31-08-2018 19:30:00 19.4 C 45 % 7.17 C
1388 31-08-2018 19:35:00 19.3 C 45 % 7.08 C
1389 31-08-2018 19:40:00 19.2 C 46 % 7.31 C
1390 31-08-2018 19:45:00 19.1 C 51 % 8.73 C
1391 31-08-2018 19:50:00 18.8 C 51 % 8.46 C
1392 31-08-2018 19:55:00 18.3 C 52 % 8.28 C
1393 31-08-2018 20:00:00 17.8 C 54 % 8.38 C
1394 31-08-2018 20:05:00 17.3 C 56 % 8.45 C
1395 31-08-2018 20:10:00 16.8 C 58 % 8.5 C
1396 31-08-2018 20:15:00 16.5 C 59 % 8.47 C
1397 31-08-2018 20:20:00 16.2 C 60 % 8.43 C
1398 31-08-2018 20:25:00 15.9 C 59 % 7.91 C
1399 31-08-2018 20:30:00 15.9 C 61 % 8.4 C
1400 31-08-2018 20:35:00 15.8 C 62 % 8.54 C
Sensor: Nr:Datum:Temp:Feuchte:Taupunkt:
Aussen-T/F 1401 31-08-2018 20:40:00 15.7 C 62 % 8.45 C
1402 31-08-2018 20:45:00 15.5 C 62 % 8.26 C
1403 31-08-2018 20:50:00 15.3 C 63 % 8.31 C
1404 31-08-2018 20:55:00 15.2 C 64 % 8.44 C
1405 31-08-2018 21:00:00 15 C 65 % 8.48 C
1406 31-08-2018 21:05:00 14.8 C 67 % 8.74 C
1407 31-08-2018 21:10:00 14.7 C 67 % 8.64 C
1408 31-08-2018 21:15:00 14.6 C 67 % 8.55 C
1409 31-08-2018 21:20:00 14.5 C 67 % 8.45 C
1410 31-08-2018 21:25:00 14.4 C 67 % 8.36 C
1411 31-08-2018 21:30:00 14.3 C 68 % 8.48 C
1412 31-08-2018 21:35:00 14.2 C 69 % 8.6 C
1413 31-08-2018 21:40:00 14.1 C 69 % 8.5 C
1414 31-08-2018 21:45:00 14.1 C 70 % 8.72 C
1415 31-08-2018 21:50:00 13.9 C 70 % 8.53 C
1416 31-08-2018 21:55:00 13.9 C 71 % 8.73 C
1417 31-08-2018 22:00:00 13.8 C 71 % 8.64 C
1418 31-08-2018 22:05:00 13.8 C 71 % 8.64 C
1419 31-08-2018 22:10:00 13.8 C 71 % 8.64 C
1420 31-08-2018 22:15:00 13.8 C 72 % 8.85 C
1421 31-08-2018 22:20:00 13.7 C 72 % 8.75 C
1422 31-08-2018 22:25:00 13.7 C 73 % 8.95 C
1423 31-08-2018 22:30:00 13.7 C 73 % 8.95 C
1424 31-08-2018 22:35:00 13.6 C 73 % 8.86 C
1425 31-08-2018 22:40:00 13.5 C 73 % 8.76 C
Sensor: Nr:Datum:Temp:Feuchte:Taupunkt:
Aussen-T/F 1426 31-08-2018 22:45:00 13.5 C 73 % 8.76 C
1427 31-08-2018 22:50:00 13.6 C 73 % 8.86 C
1428 31-08-2018 22:55:00 13.6 C 72 % 8.65 C
1429 31-08-2018 23:00:00 13.6 C 73 % 8.86 C
1430 31-08-2018 23:05:00 13.6 C 73 % 8.86 C
1431 31-08-2018 23:10:00 13.6 C 73 % 8.86 C
1432 31-08-2018 23:15:00 13.5 C 74 % 8.96 C
1433 31-08-2018 23:20:00 13.4 C 74 % 8.87 C
1434 31-08-2018 23:25:00 13.3 C 75 % 8.97 C
1435 31-08-2018 23:30:00 13.3 C 75 % 8.97 C
1436 31-08-2018 23:35:00 13.2 C 75 % 8.87 C
1437 31-08-2018 23:40:00 13.1 C 75 % 8.77 C
1438 31-08-2018 23:45:00 13 C 76 % 8.87 C
1439 31-08-2018 23:50:00 12.9 C 76 % 8.78 C
1440 31-08-2018 23:55:00 12.8 C 76 % 8.68 C
1441 01-09-2018 00:00:00 12.7 C 76 % 8.58 C
1442 01-09-2018 00:05:00 12.6 C 77 % 8.68 C
1443 01-09-2018 00:10:00 12.4 C 77 % 8.49 C
1444 01-09-2018 00:15:00 12.3 C 78 % 8.58 C
1445 01-09-2018 00:20:00 12.2 C 78 % 8.48 C
1446 01-09-2018 00:25:00 12.1 C 78 % 8.38 C
1447 01-09-2018 00:30:00 11.9 C 79 % 8.38 C
1448 01-09-2018 00:35:00 11.8 C 80 % 8.47 C
1449 01-09-2018 00:40:00 11.8 C 80 % 8.47 C
1450 01-09-2018 00:45:00 11.7 C 80 % 8.37 C
Sensor: Nr:Datum:Temp:Feuchte:Taupunkt:
Aussen-T/F 1451 01-09-2018 00:50:00 11.6 C 81 % 8.45 C
1452 01-09-2018 00:55:00 11.6 C 81 % 8.45 C
1453 01-09-2018 01:00:00 11.5 C 81 % 8.36 C
1454 01-09-2018 01:05:00 11.5 C 81 % 8.36 C
1455 01-09-2018 01:10:00 11.4 C 81 % 8.26 C
1456 01-09-2018 01:15:00 11.3 C 81 % 8.16 C
1457 01-09-2018 01:20:00 11.1 C 82 % 8.15 C
1458 01-09-2018 01:25:00 11.1 C 83 % 8.33 C
1459 01-09-2018 01:30:00 10.9 C 83 % 8.13 C
1460 01-09-2018 01:35:00 10.8 C 83 % 8.03 C
1461 01-09-2018 01:40:00 10.7 C 83 % 7.93 C
1462 01-09-2018 01:45:00 10.6 C 83 % 7.84 C
1463 01-09-2018 01:50:00 10.5 C 84 % 7.91 C
1464 01-09-2018 01:55:00 10.4 C 84 % 7.82 C
1465 01-09-2018 02:00:00 10.3 C 85 % 7.89 C
1466 01-09-2018 02:05:00 10.3 C 85 % 7.89 C
1467 01-09-2018 02:10:00 10.2 C 85 % 7.79 C
1468 01-09-2018 02:15:00 10.1 C 85 % 7.7 C
1469 01-09-2018 02:20:00 10.1 C 86 % 7.87 C
1470 01-09-2018 02:25:00 10.1 C 86 % 7.87 C
1471 01-09-2018 02:30:00 9.9 C 86 % 7.67 C
1472 01-09-2018 02:35:00 9.8 C 86 % 7.57 C
1473 01-09-2018 02:40:00 9.8 C 86 % 7.57 C
1474 01-09-2018 02:45:00 9.8 C 87 % 7.74 C
1475 01-09-2018 02:50:00 9.7 C 87 % 7.64 C
Sensor: Nr:Datum:Temp:Feuchte:Taupunkt:
Aussen-T/F 1476 01-09-2018 02:55:00 9.6 C 87 % 7.55 C
1477 01-09-2018 03:00:00 9.6 C 87 % 7.55 C
1478 01-09-2018 03:05:00 9.4 C 87 % 7.35 C
1479 01-09-2018 03:10:00 9.4 C 87 % 7.35 C
1480 01-09-2018 03:15:00 9.3 C 88 % 7.42 C
1481 01-09-2018 03:20:00 9.3 C 88 % 7.42 C
1482 01-09-2018 03:25:00 9.3 C 88 % 7.42 C
1483 01-09-2018 03:30:00 9.2 C 88 % 7.32 C
1484 01-09-2018 03:35:00 9.2 C 88 % 7.32 C
1485 01-09-2018 03:40:00 9.1 C 89 % 7.39 C
1486 01-09-2018 03:45:00 9.1 C 89 % 7.39 C
1487 01-09-2018 03:50:00 9.1 C 89 % 7.39 C
1488 01-09-2018 03:55:00 9 C 89 % 7.29 C
1489 01-09-2018 04:00:00 8.9 C 90 % 7.35 C
1490 01-09-2018 04:05:00 8.9 C 89 % 7.19 C
1491 01-09-2018 04:10:00 8.9 C 90 % 7.35 C
1492 01-09-2018 04:15:00 8.8 C 90 % 7.25 C
1493 01-09-2018 04:20:00 8.8 C 90 % 7.25 C
1494 01-09-2018 04:25:00 8.8 C 90 % 7.25 C
1495 01-09-2018 04:30:00 8.8 C 90 % 7.25 C
1496 01-09-2018 04:35:00 8.7 C 90 % 7.15 C
1497 01-09-2018 04:40:00 8.6 C 90 % 7.06 C
1498 01-09-2018 04:45:00 8.6 C 91 % 7.22 C
1499 01-09-2018 04:50:00 8.6 C 91 % 7.22 C
1500 01-09-2018 04:55:00 8.6 C 91 % 7.22 C
Sensor: Nr:Datum:Temp:Feuchte:Taupunkt:
Aussen-T/F 1501 01-09-2018 05:00:00 8.5 C 91 % 7.12 C
1502 01-09-2018 05:05:00 8.4 C 91 % 7.02 C
1503 01-09-2018 05:10:00 8.4 C 91 % 7.02 C
1504 01-09-2018 05:15:00 8.4 C 91 % 7.02 C
1505 01-09-2018 05:20:00 8.3 C 91 % 6.92 C
1506 01-09-2018 05:25:00 8.4 C 91 % 7.02 C
1507 01-09-2018 05:30:00 8.3 C 91 % 6.92 C
1508 01-09-2018 05:35:00 8.3 C 92 % 7.08 C
1509 01-09-2018 05:40:00 8.3 C 91 % 6.92 C
1510 01-09-2018 05:45:00 8.3 C 92 % 7.08 C
1511 01-09-2018 05:50:00 8.2 C 91 % 6.82 C
1512 01-09-2018 05:55:00 8.1 C 91 % 6.72 C
1513 01-09-2018 06:00:00 8.1 C 92 % 6.88 C
1514 01-09-2018 06:05:00 8.1 C 92 % 6.88 C
1515 01-09-2018 06:10:00 8.1 C 92 % 6.88 C
1516 01-09-2018 06:15:00 8 C 92 % 6.78 C
1517 01-09-2018 06:20:00 7.9 C 92 % 6.68 C
1518 01-09-2018 06:25:00 7.9 C 92 % 6.68 C
1519 01-09-2018 06:30:00 7.9 C 92 % 6.68 C
1520 01-09-2018 06:35:00 7.8 C 92 % 6.58 C
1521 01-09-2018 06:40:00 7.8 C 92 % 6.58 C
1522 01-09-2018 06:45:00 7.8 C 93 % 6.74 C
1523 01-09-2018 06:50:00 7.9 C 93 % 6.84 C
1524 01-09-2018 06:55:00 7.8 C 93 % 6.74 C
1525 01-09-2018 07:00:00 7.8 C 93 % 6.74 C
Sensor: Nr:Datum:Temp:Feuchte:Taupunkt:
Aussen-T/F 1526 01-09-2018 07:05:00 7.8 C 93 % 6.74 C
1527 01-09-2018 07:10:00 7.8 C 93 % 6.74 C
1528 01-09-2018 07:15:00 7.8 C 93 % 6.74 C
1529 01-09-2018 07:20:00 7.8 C 93 % 6.74 C
1530 01-09-2018 07:25:00 7.8 C 93 % 6.74 C
1531 01-09-2018 07:30:00 7.8 C 93 % 6.74 C
1532 01-09-2018 07:35:00 7.8 C 93 % 6.74 C
1533 01-09-2018 07:40:00 7.9 C 93 % 6.84 C
1534 01-09-2018 07:45:00 7.9 C 93 % 6.84 C
1535 01-09-2018 07:50:00 8 C 93 % 6.94 C
1536 01-09-2018 07:55:00 8 C 93 % 6.94 C
1537 01-09-2018 08:00:00 8.1 C 93 % 7.04 C
1538 01-09-2018 08:05:00 8.1 C 93 % 7.04 C
1539 01-09-2018 08:10:00 8.2 C 93 % 7.14 C
1540 01-09-2018 08:15:00 8.2 C 93 % 7.14 C
1541 01-09-2018 08:20:00 8.3 C 93 % 7.24 C
1542 01-09-2018 08:25:00 8.3 C 93 % 7.24 C
1543 01-09-2018 08:30:00 8.4 C 94 % 7.49 C
1544 01-09-2018 08:35:00 8.5 C 94 % 7.59 C
1545 01-09-2018 08:40:00 8.6 C 94 % 7.69 C
1546 01-09-2018 08:45:00 8.7 C 94 % 7.79 C
1547 01-09-2018 08:50:00 8.8 C 94 % 7.89 C
1548 01-09-2018 08:55:00 8.9 C 94 % 7.99 C
1549 01-09-2018 09:00:00 9 C 94 % 8.09 C
1550 01-09-2018 09:05:00 9.1 C 94 % 8.19 C
Sensor: Nr:Datum:Temp:Feuchte:Taupunkt:
Aussen-T/F 1551 01-09-2018 09:10:00 9.2 C 94 % 8.29 C
1552 01-09-2018 09:15:00 9.3 C 94 % 8.39 C
1553 01-09-2018 09:20:00 9.5 C 94 % 8.58 C
1554 01-09-2018 09:25:00 9.6 C 94 % 8.68 C
1555 01-09-2018 09:30:00 9.8 C 94 % 8.88 C
1556 01-09-2018 09:35:00 9.9 C 94 % 8.98 C
1557 01-09-2018 09:40:00 10.1 C 94 % 9.18 C
1558 01-09-2018 09:45:00 10.3 C 94 % 9.38 C
1559 01-09-2018 09:50:00 10.4 C 94 % 9.48 C
1560 01-09-2018 09:55:00 10.6 C 93 % 9.52 C
1561 01-09-2018 10:00:00 10.8 C 93 % 9.71 C
1562 01-09-2018 10:05:00 10.9 C 93 % 9.81 C
1563 01-09-2018 10:10:00 11.1 C 93 % 10.01 C
1564 01-09-2018 10:15:00 11.3 C 92 % 10.05 C
1565 01-09-2018 10:20:00 11.5 C 91 % 10.08 C
1566 01-09-2018 10:25:00 11.7 C 90 % 10.12 C
1567 01-09-2018 10:30:00 11.9 C 90 % 10.31 C
1568 01-09-2018 10:35:00 12.2 C 89 % 10.44 C
1569 01-09-2018 10:40:00 12.3 C 88 % 10.37 C
1570 01-09-2018 10:45:00 12.6 C 86 % 10.32 C
1571 01-09-2018 10:50:00 12.9 C 85 % 10.44 C
1572 01-09-2018 10:55:00 13.1 C 83 % 10.28 C
1573 01-09-2018 11:00:00 13.3 C 82 % 10.3 C
1574 01-09-2018 11:05:00 13.7 C 80 % 10.32 C
1575 01-09-2018 11:10:00 14 C 80 % 10.61 C
Sensor: Nr:Datum:Temp:Feuchte:Taupunkt:
Aussen-T/F 1576 01-09-2018 11:15:00 14.2 C 79 % 10.61 C
1577 01-09-2018 11:20:00 14.4 C 76 % 10.23 C
1578 01-09-2018 11:25:00 14.7 C 76 % 10.52 C
1579 01-09-2018 11:30:00 14.8 C 74 % 10.22 C
1580 01-09-2018 11:35:00 15.1 C 73 % 10.3 C
1581 01-09-2018 11:40:00 15.3 C 73 % 10.49 C
1582 01-09-2018 11:45:00 15.6 C 71 % 10.37 C
1583 01-09-2018 11:50:00 15.8 C 69 % 10.13 C
1584 01-09-2018 11:55:00 15.9 C 69 % 10.23 C
1585 01-09-2018 12:00:00 16.1 C 69 % 10.42 C
1586 01-09-2018 12:05:00 16.3 C 68 % 10.39 C
1587 01-09-2018 12:10:00 16.4 C 66 % 10.04 C
1588 01-09-2018 12:15:00 16.6 C 66 % 10.23 C
1589 01-09-2018 12:20:00 16.9 C 67 % 10.74 C
1590 01-09-2018 12:25:00 17.2 C 64 % 10.34 C
1591 01-09-2018 12:30:00 17.4 C 65 % 10.76 C
1592 01-09-2018 12:35:00 17.6 C 63 % 10.48 C
1593 01-09-2018 12:40:00 17.8 C 62 % 10.43 C
1594 01-09-2018 12:45:00 17.9 C 61 % 10.28 C
1595 01-09-2018 12:50:00 18.1 C 60 % 10.22 C
1596 01-09-2018 12:55:00 18.2 C 59 % 10.06 C
1597 01-09-2018 13:00:00 18.4 C 58 % 9.99 C
1598 01-09-2018 13:05:00 18.6 C 59 % 10.44 C
1599 01-09-2018 13:10:00 18.7 C 56 % 9.75 C
1600 01-09-2018 13:15:00 18.8 C 55 % 9.58 C
Sensor: Nr:Datum:Temp:Feuchte:Taupunkt:
Aussen-T/F 1601 01-09-2018 13:20:00 18.7 C 53 % 8.93 C
1602 01-09-2018 13:25:00 18.6 C 52 % 8.56 C
1603 01-09-2018 13:30:00 18.5 C 53 % 8.75 C
1604 01-09-2018 13:35:00 18.4 C 55 % 9.2 C
1605 01-09-2018 13:40:00 18.4 C 51 % 8.09 C
1606 01-09-2018 13:45:00 18.6 C 52 % 8.56 C
1607 01-09-2018 13:50:00 18.9 C 50 % 8.26 C
1608 01-09-2018 13:55:00 19.2 C 48 % 7.93 C
1609 01-09-2018 14:00:00 19.4 C 47 % 7.81 C
1610 01-09-2018 14:05:00 19.7 C 46 % 7.77 C
1611 01-09-2018 14:10:00 19.8 C 45 % 7.53 C
1612 01-09-2018 14:15:00 19.7 C 44 % 7.12 C
1613 01-09-2018 14:20:00 19.7 C 43 % 6.78 C
1614 01-09-2018 14:25:00 19.9 C 43 % 6.96 C
1615 01-09-2018 14:30:00 20.2 C 42 % 6.89 C
1616 01-09-2018 14:35:00 20.2 C 41 % 6.54 C
1617 01-09-2018 14:40:00 20.3 C 41 % 6.63 C
1618 01-09-2018 14:45:00 20.3 C 42 % 6.98 C
1619 01-09-2018 14:50:00 20.5 C 41 % 6.81 C
1620 01-09-2018 14:55:00 20.7 C 42 % 7.34 C
1621 01-09-2018 15:00:00 20.8 C 41 % 7.08 C
1622 01-09-2018 15:05:00 20.7 C 42 % 7.34 C
1623 01-09-2018 15:10:00 20.6 C 42 % 7.25 C
1624 01-09-2018 15:15:00 20.6 C 42 % 7.25 C
1625 01-09-2018 15:20:00 20.7 C 40 % 6.63 C
Sensor: Nr:Datum:Temp:Feuchte:Taupunkt:
Aussen-T/F 1626 01-09-2018 15:25:00 20.7 C 41 % 6.99 C
1627 01-09-2018 15:30:00 20.7 C 41 % 6.99 C
1628 01-09-2018 15:35:00 20.8 C 40 % 6.72 C
1629 01-09-2018 15:40:00 20.9 C 39 % 6.44 C
1630 01-09-2018 15:45:00 20.9 C 39 % 6.44 C
1631 01-09-2018 15:50:00 20.8 C 40 % 6.72 C
1632 01-09-2018 15:55:00 20.7 C 40 % 6.63 C
1633 01-09-2018 16:00:00 20.6 C 41 % 6.9 C
1634 01-09-2018 16:05:00 20.6 C 42 % 7.25 C
1635 01-09-2018 16:10:00 20.7 C 40 % 6.63 C
1636 01-09-2018 16:15:00 21 C 40 % 6.9 C
1637 01-09-2018 16:20:00 21.2 C 39 % 6.71 C
1638 01-09-2018 16:25:00 21.1 C 39 % 6.62 C
1639 01-09-2018 16:30:00 20.9 C 39 % 6.44 C
1640 01-09-2018 16:35:00 20.9 C 39 % 6.44 C
1641 01-09-2018 16:40:00 21.4 C 39 % 6.89 C
1642 01-09-2018 16:45:00 21.9 C 37 % 6.56 C
1643 01-09-2018 16:50:00 22.2 C 37 % 6.83 C
1644 01-09-2018 16:55:00 22.2 C 36 % 6.43 C
1645 01-09-2018 17:00:00 22.2 C 38 % 7.22 C
1646 01-09-2018 17:05:00 22.4 C 36 % 6.61 C
1647 01-09-2018 17:10:00 22.3 C 36 % 6.52 C
1648 01-09-2018 17:15:00 22.3 C 36 % 6.52 C
1649 01-09-2018 17:20:00 22.3 C 37 % 6.92 C
1650 01-09-2018 17:25:00 22.4 C 36 % 6.61 C
Sensor: Nr:Datum:Temp:Feuchte:Taupunkt:
Aussen-T/F 1651 01-09-2018 17:30:00 22.4 C 36 % 6.61 C
1652 01-09-2018 17:35:00 22.4 C 37 % 7.01 C
1653 01-09-2018 17:40:00 22.6 C 35 % 6.38 C
1654 01-09-2018 17:45:00 22.8 C 42 % 9.23 C
1655 01-09-2018 17:50:00 22.3 C 37 % 6.92 C
1656 01-09-2018 17:55:00 22.1 C 37 % 6.74 C
1657 01-09-2018 18:00:00 22.2 C 37 % 6.83 C
1658 01-09-2018 18:05:00 22.4 C 36 % 6.61 C
1659 01-09-2018 18:10:00 22.5 C 35 % 6.29 C
1660 01-09-2018 18:15:00 22.4 C 36 % 6.61 C
1661 01-09-2018 18:20:00 22.5 C 35 % 6.29 C
1662 01-09-2018 18:25:00 22.2 C 37 % 6.83 C
1663 01-09-2018 18:30:00 22.3 C 37 % 6.92 C
1664 01-09-2018 18:35:00 22.3 C 37 % 6.92 C
1665 01-09-2018 18:40:00 22.4 C 37 % 7.01 C
1666 01-09-2018 18:45:00 22.6 C 36 % 6.78 C
1667 01-09-2018 18:50:00 22.4 C 37 % 7.01 C
1668 01-09-2018 18:55:00 22.3 C 38 % 7.31 C
1669 01-09-2018 19:00:00 22.3 C 38 % 7.31 C
1670 01-09-2018 19:05:00 22.3 C 37 % 6.92 C
1671 01-09-2018 19:10:00 22.1 C 36 % 6.34 C
1672 01-09-2018 19:15:00 21.7 C 38 % 6.77 C
1673 01-09-2018 19:20:00 21.4 C 38 % 6.51 C
1674 01-09-2018 19:25:00 21.3 C 39 % 6.8 C
1675 01-09-2018 19:30:00 21.1 C 39 % 6.62 C
Sensor: Nr:Datum:Temp:Feuchte:Taupunkt:
Aussen-T/F 1676 01-09-2018 19:35:00 20.9 C 40 % 6.81 C
1677 01-09-2018 19:40:00 20.8 C 40 % 6.72 C
1678 01-09-2018 19:45:00 20.6 C 41 % 6.9 C
1679 01-09-2018 19:50:00 20.4 C 41 % 6.72 C
1680 01-09-2018 19:55:00 20.3 C 45 % 7.99 C
1681 01-09-2018 20:00:00 19.9 C 45 % 7.63 C
1682 01-09-2018 20:05:00 19.5 C 45 % 7.26 C
1683 01-09-2018 20:10:00 19.1 C 46 % 7.22 C
1684 01-09-2018 20:15:00 18.8 C 48 % 7.57 C
1685 01-09-2018 20:20:00 18.3 C 50 % 7.71 C
1686 01-09-2018 20:25:00 17.8 C 52 % 7.82 C
1687 01-09-2018 20:30:00 17.3 C 53 % 7.64 C
1688 01-09-2018 20:35:00 16.8 C 56 % 7.98 C
1689 01-09-2018 20:40:00 16.4 C 57 % 7.87 C
1690 01-09-2018 20:45:00 16.2 C 58 % 7.94 C
1691 01-09-2018 20:50:00 15.9 C 57 % 7.4 C
1692 01-09-2018 20:55:00 15.8 C 58 % 7.56 C
1693 01-09-2018 21:00:00 15.7 C 59 % 7.72 C
1694 01-09-2018 21:05:00 15.5 C 59 % 7.53 C
1695 01-09-2018 21:10:00 15.4 C 61 % 7.93 C
1696 01-09-2018 21:15:00 15.3 C 60 % 7.59 C
1697 01-09-2018 21:20:00 15.2 C 61 % 7.74 C
1698 01-09-2018 21:25:00 15.2 C 61 % 7.74 C
1699 01-09-2018 21:30:00 15.1 C 61 % 7.64 C
1700 01-09-2018 21:35:00 15.1 C 61 % 7.64 C
Sensor: Nr:Datum:Temp:Feuchte:Taupunkt:
Aussen-T/F 1701 01-09-2018 21:40:00 15 C 62 % 7.79 C
1702 01-09-2018 21:45:00 14.9 C 63 % 7.93 C
1703 01-09-2018 21:50:00 14.8 C 63 % 7.83 C
1704 01-09-2018 21:55:00 14.7 C 63 % 7.74 C
1705 01-09-2018 22:00:00 14.5 C 64 % 7.78 C
1706 01-09-2018 22:05:00 14.3 C 64 % 7.59 C
1707 01-09-2018 22:10:00 14.3 C 65 % 7.82 C
1708 01-09-2018 22:15:00 14.2 C 66 % 7.95 C
1709 01-09-2018 22:20:00 14.1 C 66 % 7.85 C
1710 01-09-2018 22:25:00 13.9 C 67 % 7.88 C
1711 01-09-2018 22:30:00 13.8 C 67 % 7.79 C
1712 01-09-2018 22:35:00 13.8 C 68 % 8 C
1713 01-09-2018 22:40:00 13.7 C 67 % 7.69 C
1714 01-09-2018 22:45:00 13.7 C 68 % 7.91 C
1715 01-09-2018 22:50:00 13.7 C 69 % 8.12 C
1716 01-09-2018 22:55:00 13.6 C 68 % 7.81 C
1717 01-09-2018 23:00:00 13.5 C 68 % 7.72 C
1718 01-09-2018 23:05:00 13.4 C 69 % 7.84 C
1719 01-09-2018 23:10:00 13.3 C 70 % 7.95 C
1720 01-09-2018 23:15:00 13.3 C 70 % 7.95 C
1721 01-09-2018 23:20:00 13.2 C 70 % 7.86 C
1722 01-09-2018 23:25:00 13.1 C 71 % 7.97 C
1723 01-09-2018 23:30:00 12.8 C 71 % 7.68 C
1724 01-09-2018 23:35:00 12.7 C 72 % 7.79 C
1725 01-09-2018 23:40:00 12.5 C 73 % 7.8 C
Sensor: Nr:Datum:Temp:Feuchte:Taupunkt:
Aussen-T/F 1726 01-09-2018 23:45:00 12.4 C 73 % 7.7 C
1727 01-09-2018 23:50:00 12.3 C 74 % 7.8 C
1728 01-09-2018 23:55:00 12.1 C 74 % 7.61 C
1729 02-09-2018 00:00:00 12 C 74 % 7.52 C
1730 02-09-2018 00:05:00 11.8 C 75 % 7.52 C
1731 02-09-2018 00:10:00 11.8 C 75 % 7.52 C
1732 02-09-2018 00:15:00 11.7 C 76 % 7.62 C
1733 02-09-2018 00:20:00 11.6 C 76 % 7.52 C
1734 02-09-2018 00:25:00 11.4 C 77 % 7.52 C
1735 02-09-2018 00:30:00 11.3 C 77 % 7.42 C
1736 02-09-2018 00:35:00 11.1 C 78 % 7.41 C
1737 02-09-2018 00:40:00 11 C 79 % 7.5 C
1738 02-09-2018 00:45:00 10.8 C 79 % 7.31 C
1739 02-09-2018 00:50:00 10.8 C 79 % 7.31 C
1740 02-09-2018 00:55:00 10.7 C 80 % 7.4 C
1741 02-09-2018 01:00:00 10.6 C 80 % 7.3 C
1742 02-09-2018 01:05:00 10.5 C 81 % 7.38 C
1743 02-09-2018 01:10:00 10.4 C 81 % 7.28 C
1744 02-09-2018 01:15:00 10.3 C 81 % 7.19 C
1745 02-09-2018 01:20:00 10.3 C 81 % 7.19 C
1746 02-09-2018 01:25:00 10.2 C 82 % 7.27 C
1747 02-09-2018 01:30:00 10.2 C 82 % 7.27 C
1748 02-09-2018 01:35:00 10.1 C 82 % 7.17 C
1749 02-09-2018 01:40:00 10.1 C 82 % 7.17 C
1750 02-09-2018 01:45:00 10 C 82 % 7.07 C
Sensor: Nr:Datum:Temp:Feuchte:Taupunkt:
Aussen-T/F 1751 02-09-2018 01:50:00 9.9 C 83 % 7.15 C
1752 02-09-2018 01:55:00 9.8 C 84 % 7.23 C
1753 02-09-2018 02:00:00 9.8 C 84 % 7.23 C
1754 02-09-2018 02:05:00 9.7 C 84 % 7.13 C
1755 02-09-2018 02:10:00 9.7 C 84 % 7.13 C
1756 02-09-2018 02:15:00 9.6 C 84 % 7.03 C
1757 02-09-2018 02:20:00 9.5 C 85 % 7.11 C
1758 02-09-2018 02:25:00 9.4 C 85 % 7.01 C
1759 02-09-2018 02:30:00 9.3 C 85 % 6.91 C
1760 02-09-2018 02:35:00 9.3 C 85 % 6.91 C
1761 02-09-2018 02:40:00 9.3 C 86 % 7.08 C
1762 02-09-2018 02:45:00 9.2 C 86 % 6.98 C
1763 02-09-2018 02:50:00 9.2 C 86 % 6.98 C
1764 02-09-2018 02:55:00 9.2 C 86 % 6.98 C
1765 02-09-2018 03:00:00 9.1 C 86 % 6.89 C
1766 02-09-2018 03:05:00 9.1 C 87 % 7.05 C
1767 02-09-2018 03:10:00 9.1 C 87 % 7.05 C
1768 02-09-2018 03:15:00 9.1 C 87 % 7.05 C
1769 02-09-2018 03:20:00 9 C 87 % 6.96 C
1770 02-09-2018 03:25:00 9 C 87 % 6.96 C
1771 02-09-2018 03:30:00 8.9 C 87 % 6.86 C
1772 02-09-2018 03:35:00 8.9 C 87 % 6.86 C
1773 02-09-2018 03:40:00 8.9 C 88 % 7.02 C
1774 02-09-2018 03:45:00 8.9 C 87 % 6.86 C
1775 02-09-2018 03:50:00 8.8 C 88 % 6.93 C
Sensor: Nr:Datum:Temp:Feuchte:Taupunkt:
Aussen-T/F 1776 02-09-2018 03:55:00 8.8 C 87 % 6.76 C
1777 02-09-2018 04:00:00 8.7 C 87 % 6.66 C
1778 02-09-2018 04:05:00 8.7 C 88 % 6.83 C
1779 02-09-2018 04:10:00 8.6 C 88 % 6.73 C
1780 02-09-2018 04:15:00 8.6 C 88 % 6.73 C
1781 02-09-2018 04:20:00 8.6 C 88 % 6.73 C
1782 02-09-2018 04:25:00 8.6 C 88 % 6.73 C
1783 02-09-2018 04:30:00 8.6 C 88 % 6.73 C
1784 02-09-2018 04:35:00 8.5 C 89 % 6.79 C
1785 02-09-2018 04:40:00 8.4 C 89 % 6.7 C
1786 02-09-2018 04:45:00 8.4 C 89 % 6.7 C
1787 02-09-2018 04:50:00 8.3 C 89 % 6.6 C
1788 02-09-2018 04:55:00 8.3 C 89 % 6.6 C
1789 02-09-2018 05:00:00 8.3 C 89 % 6.6 C
1790 02-09-2018 05:05:00 8.2 C 89 % 6.5 C
1791 02-09-2018 05:10:00 8.2 C 90 % 6.66 C
1792 02-09-2018 05:15:00 8.2 C 90 % 6.66 C
1793 02-09-2018 05:20:00 8.2 C 90 % 6.66 C
1794 02-09-2018 05:25:00 8.2 C 90 % 6.66 C
1795 02-09-2018 05:30:00 8.2 C 90 % 6.66 C
1796 02-09-2018 05:35:00 8.1 C 90 % 6.56 C
1797 02-09-2018 05:40:00 8.1 C 90 % 6.56 C
1798 02-09-2018 05:45:00 8.1 C 90 % 6.56 C
1799 02-09-2018 05:50:00 8.1 C 91 % 6.72 C
1800 02-09-2018 05:55:00 8.1 C 91 % 6.72 C
Sensor: Nr:Datum:Temp:Feuchte:Taupunkt:
Aussen-T/F 1801 02-09-2018 06:00:00 8 C 91 % 6.62 C
1802 02-09-2018 06:05:00 8 C 91 % 6.62 C
1803 02-09-2018 06:10:00 7.9 C 91 % 6.52 C
1804 02-09-2018 06:15:00 7.9 C 91 % 6.52 C
1805 02-09-2018 06:20:00 7.9 C 91 % 6.52 C
1806 02-09-2018 06:25:00 7.9 C 91 % 6.52 C
1807 02-09-2018 06:30:00 8 C 92 % 6.78 C
1808 02-09-2018 06:35:00 8.1 C 91 % 6.72 C
1809 02-09-2018 06:40:00 8 C 91 % 6.62 C
1810 02-09-2018 06:45:00 8 C 91 % 6.62 C
1811 02-09-2018 06:50:00 7.9 C 91 % 6.52 C
1812 02-09-2018 06:55:00 7.9 C 91 % 6.52 C
1813 02-09-2018 07:00:00 7.9 C 91 % 6.52 C
1814 02-09-2018 07:05:00 7.9 C 92 % 6.68 C
1815 02-09-2018 07:10:00 7.9 C 92 % 6.68 C
1816 02-09-2018 07:15:00 7.9 C 92 % 6.68 C
1817 02-09-2018 07:20:00 7.9 C 92 % 6.68 C
1818 02-09-2018 07:25:00 7.9 C 92 % 6.68 C
1819 02-09-2018 07:30:00 8.1 C 92 % 6.88 C
1820 02-09-2018 07:35:00 8.1 C 92 % 6.88 C
1821 02-09-2018 07:40:00 8.1 C 92 % 6.88 C
1822 02-09-2018 07:45:00 8.2 C 92 % 6.98 C
1823 02-09-2018 07:50:00 8.2 C 92 % 6.98 C
1824 02-09-2018 07:55:00 8.2 C 92 % 6.98 C
1825 02-09-2018 08:00:00 8.3 C 92 % 7.08 C
Sensor: Nr:Datum:Temp:Feuchte:Taupunkt:
Aussen-T/F 1826 02-09-2018 08:05:00 8.3 C 92 % 7.08 C
1827 02-09-2018 08:10:00 8.3 C 92 % 7.08 C
1828 02-09-2018 08:15:00 8.4 C 92 % 7.18 C
1829 02-09-2018 08:20:00 8.4 C 92 % 7.18 C
1830 02-09-2018 08:25:00 8.6 C 92 % 7.38 C
1831 02-09-2018 08:30:00 8.6 C 92 % 7.38 C
1832 02-09-2018 08:35:00 8.7 C 92 % 7.47 C
1833 02-09-2018 08:40:00 8.8 C 92 % 7.57 C
1834 02-09-2018 08:45:00 8.9 C 92 % 7.67 C
1835 02-09-2018 08:50:00 9 C 92 % 7.77 C
1836 02-09-2018 08:55:00 9.1 C 92 % 7.87 C
1837 02-09-2018 09:00:00 9.2 C 92 % 7.97 C
1838 02-09-2018 09:05:00 9.3 C 92 % 8.07 C
1839 02-09-2018 09:10:00 9.3 C 92 % 8.07 C
1840 02-09-2018 09:15:00 9.4 C 92 % 8.17 C
1841 02-09-2018 09:20:00 9.6 C 92 % 8.37 C
1842 02-09-2018 09:25:00 9.7 C 92 % 8.46 C
1843 02-09-2018 09:30:00 9.8 C 92 % 8.56 C
1844 02-09-2018 09:35:00 10.1 C 93 % 9.02 C
1845 02-09-2018 09:40:00 10.3 C 93 % 9.22 C
1846 02-09-2018 09:45:00 10.5 C 93 % 9.42 C
1847 02-09-2018 09:50:00 10.7 C 93 % 9.62 C
1848 02-09-2018 09:55:00 10.9 C 93 % 9.81 C
1849 02-09-2018 10:00:00 11.2 C 92 % 9.95 C
1850 02-09-2018 10:05:00 11.5 C 91 % 10.08 C
Sensor: Nr:Datum:Temp:Feuchte:Taupunkt:
Aussen-T/F 1851 02-09-2018 10:10:00 11.8 C 91 % 10.38 C
1852 02-09-2018 10:15:00 12 C 90 % 10.41 C
1853 02-09-2018 10:20:00 12.3 C 89 % 10.54 C
1854 02-09-2018 10:25:00 12.7 C 88 % 10.77 C
1855 02-09-2018 10:30:00 13.1 C 87 % 10.99 C
1856 02-09-2018 10:35:00 13.5 C 85 % 11.03 C
1857 02-09-2018 10:40:00 14 C 83 % 11.16 C
1858 02-09-2018 10:45:00 14.3 C 81 % 11.09 C
1859 02-09-2018 10:50:00 14.7 C 82 % 11.66 C
1860 02-09-2018 10:55:00 15.2 C 79 % 11.59 C
1861 02-09-2018 11:00:00 15.6 C 78 % 11.78 C
1862 02-09-2018 11:05:00 15.9 C 77 % 11.88 C
1863 02-09-2018 11:10:00 16.3 C 75 % 11.86 C
1864 02-09-2018 11:15:00 16.6 C 73 % 11.74 C
1865 02-09-2018 11:20:00 16.8 C 73 % 11.94 C
1866 02-09-2018 11:25:00 16.9 C 71 % 11.61 C
1867 02-09-2018 11:30:00 17.1 C 72 % 12.02 C
1868 02-09-2018 11:35:00 17.2 C 71 % 11.9 C
1869 02-09-2018 11:40:00 17.3 C 69 % 11.56 C
1870 02-09-2018 11:45:00 17.4 C 70 % 11.88 C
1871 02-09-2018 11:50:00 17.6 C 68 % 11.63 C
1872 02-09-2018 11:55:00 17.7 C 68 % 11.72 C
1873 02-09-2018 12:00:00 17.8 C 68 % 11.82 C
1874 02-09-2018 12:05:00 17.9 C 68 % 11.91 C
1875 02-09-2018 12:10:00 18 C 67 % 11.79 C
Sensor: Nr:Datum:Temp:Feuchte:Taupunkt:
Aussen-T/F 1876 02-09-2018 12:15:00 18.1 C 67 % 11.88 C
1877 02-09-2018 12:20:00 18.2 C 68 % 12.2 C
1878 02-09-2018 12:25:00 18.4 C 68 % 12.39 C
1879 02-09-2018 12:30:00 18.7 C 67 % 12.45 C
1880 02-09-2018 12:35:00 18.8 C 67 % 12.55 C
1881 02-09-2018 12:40:00 19 C 66 % 12.51 C
1882 02-09-2018 12:45:00 19.2 C 64 % 12.23 C
1883 02-09-2018 12:50:00 19.3 C 64 % 12.32 C
1884 02-09-2018 12:55:00 19.4 C 66 % 12.89 C
1885 02-09-2018 13:00:00 19.4 C 63 % 12.18 C
1886 02-09-2018 13:05:00 19.4 C 62 % 11.94 C
1887 02-09-2018 13:10:00 19.4 C 62 % 11.94 C
1888 02-09-2018 13:15:00 19.4 C 62 % 11.94 C
1889 02-09-2018 13:20:00 19.4 C 62 % 11.94 C
1890 02-09-2018 13:25:00 19.5 C 63 % 12.27 C
1891 02-09-2018 13:30:00 19.5 C 62 % 12.03 C
1892 02-09-2018 13:35:00 19.4 C 62 % 11.94 C
1893 02-09-2018 13:40:00 19.4 C 61 % 11.69 C
1894 02-09-2018 13:45:00 19.4 C 61 % 11.69 C
1895 02-09-2018 13:50:00 19.4 C 61 % 11.69 C
1896 02-09-2018 13:55:00 19.4 C 61 % 11.69 C
1897 02-09-2018 14:00:00 19.4 C 62 % 11.94 C
1898 02-09-2018 14:05:00 19.4 C 63 % 12.18 C
1899 02-09-2018 14:10:00 19.4 C 63 % 12.18 C
1900 02-09-2018 14:15:00 19.3 C 63 % 12.09 C
Sensor: Nr:Datum:Temp:Feuchte:Taupunkt:
Aussen-T/F 1901 02-09-2018 14:20:00 19.3 C 64 % 12.32 C
1902 02-09-2018 14:25:00 19.3 C 63 % 12.09 C
1903 02-09-2018 14:30:00 19.3 C 65 % 12.56 C
1904 02-09-2018 14:35:00 19.3 C 64 % 12.32 C
1905 02-09-2018 14:40:00 19.3 C 64 % 12.32 C
1906 02-09-2018 14:45:00 19.3 C 63 % 12.09 C
1907 02-09-2018 14:50:00 19.2 C 63 % 11.99 C
1908 02-09-2018 14:55:00 19.3 C 63 % 12.09 C
1909 02-09-2018 15:00:00 19.3 C 65 % 12.56 C
1910 02-09-2018 15:05:00 19.2 C 64 % 12.23 C
1911 02-09-2018 15:10:00 19.2 C 62 % 11.75 C
1912 02-09-2018 15:15:00 19.2 C 62 % 11.75 C
1913 02-09-2018 15:20:00 19.3 C 64 % 12.32 C
1914 02-09-2018 15:25:00 19.3 C 67 % 13.02 C
1915 02-09-2018 15:30:00 19.3 C 68 % 13.25 C
1916 02-09-2018 15:35:00 19.3 C 66 % 12.79 C
1917 02-09-2018 15:40:00 19.3 C 68 % 13.25 C
1918 02-09-2018 15:45:00 19.3 C 68 % 13.25 C
1919 02-09-2018 15:50:00 19.4 C 60 % 11.44 C
1920 02-09-2018 15:55:00 19.6 C 58 % 11.12 C
1921 02-09-2018 16:00:00 19.6 C 58 % 11.12 C
1922 02-09-2018 16:05:00 19.7 C 59 % 11.47 C
1923 02-09-2018 16:10:00 19.7 C 60 % 11.72 C
1924 02-09-2018 16:15:00 19.7 C 60 % 11.72 C
1925 02-09-2018 16:20:00 19.8 C 63 % 12.56 C
Sensor: Nr:Datum:Temp:Feuchte:Taupunkt:
Aussen-T/F 1926 02-09-2018 16:25:00 19.7 C 63 % 12.46 C
1927 02-09-2018 16:30:00 19.7 C 64 % 12.7 C
1928 02-09-2018 16:35:00 19.7 C 65 % 12.94 C
1929 02-09-2018 16:40:00 19.7 C 65 % 12.94 C
1930 02-09-2018 16:45:00 19.6 C 65 % 12.84 C
1931 02-09-2018 16:50:00 19.6 C 63 % 12.37 C
1932 02-09-2018 16:55:00 19.4 C 64 % 12.42 C
1933 02-09-2018 17:00:00 19.3 C 64 % 12.32 C
1934 02-09-2018 17:05:00 19.3 C 65 % 12.56 C
1935 02-09-2018 17:10:00 19.2 C 63 % 11.99 C
1936 02-09-2018 17:15:00 19.2 C 62 % 11.75 C
1937 02-09-2018 17:20:00 19.2 C 64 % 12.23 C
1938 02-09-2018 17:25:00 19.3 C 62 % 11.84 C
1939 02-09-2018 17:30:00 19.3 C 65 % 12.56 C
1940 02-09-2018 17:35:00 19.4 C 65 % 12.66 C
1941 02-09-2018 17:40:00 19.4 C 66 % 12.89 C
1942 02-09-2018 17:45:00 19.4 C 64 % 12.42 C
1943 02-09-2018 17:50:00 19.4 C 62 % 11.94 C
1944 02-09-2018 17:55:00 19.3 C 62 % 11.84 C
1945 02-09-2018 18:00:00 19.3 C 65 % 12.56 C
1946 02-09-2018 18:05:00 19.2 C 66 % 12.7 C
1947 02-09-2018 18:10:00 19.1 C 65 % 12.37 C
1948 02-09-2018 18:15:00 19 C 66 % 12.51 C
1949 02-09-2018 18:20:00 18.9 C 65 % 12.18 C
1950 02-09-2018 18:25:00 18.8 C 66 % 12.32 C
Sensor: Nr:Datum:Temp:Feuchte:Taupunkt:
Aussen-T/F 1951 02-09-2018 18:30:00 18.7 C 66 % 12.22 C
1952 02-09-2018 18:35:00 18.5 C 65 % 11.8 C
1953 02-09-2018 18:40:00 18.4 C 66 % 11.94 C
1954 02-09-2018 18:45:00 18.3 C 67 % 12.07 C
1955 02-09-2018 18:50:00 18.2 C 67 % 11.98 C
1956 02-09-2018 18:55:00 18.2 C 67 % 11.98 C
1957 02-09-2018 19:00:00 18.1 C 67 % 11.88 C
1958 02-09-2018 19:05:00 18 C 68 % 12.01 C
1959 02-09-2018 19:10:00 17.9 C 67 % 11.69 C
1960 02-09-2018 19:15:00 17.8 C 67 % 11.6 C
1961 02-09-2018 19:20:00 17.8 C 68 % 11.82 C
1962 02-09-2018 19:25:00 17.7 C 68 % 11.72 C
1963 02-09-2018 19:30:00 17.7 C 68 % 11.72 C
1964 02-09-2018 19:35:00 17.6 C 68 % 11.63 C
1965 02-09-2018 19:40:00 17.6 C 68 % 11.63 C
1966 02-09-2018 19:45:00 17.5 C 69 % 11.75 C
1967 02-09-2018 19:50:00 17.4 C 69 % 11.66 C
1968 02-09-2018 19:55:00 17.4 C 70 % 11.88 C
1969 02-09-2018 20:00:00 17.3 C 69 % 11.56 C
1970 02-09-2018 20:05:00 17.3 C 69 % 11.56 C
1971 02-09-2018 20:10:00 17.2 C 68 % 11.25 C
1972 02-09-2018 20:15:00 17.2 C 68 % 11.25 C
1973 02-09-2018 20:20:00 17.2 C 69 % 11.47 C
1974 02-09-2018 20:25:00 17.2 C 69 % 11.47 C
1975 02-09-2018 20:30:00 17.2 C 69 % 11.47 C
Sensor: Nr:Datum:Temp:Feuchte:Taupunkt:
Aussen-T/F 1976 02-09-2018 20:35:00 17.2 C 69 % 11.47 C
1977 02-09-2018 20:40:00 17.2 C 69 % 11.47 C
1978 02-09-2018 20:45:00 17.2 C 70 % 11.68 C
1979 02-09-2018 20:50:00 17.2 C 68 % 11.25 C
1980 02-09-2018 20:55:00 17.3 C 69 % 11.56 C
1981 02-09-2018 21:00:00 17.3 C 68 % 11.34 C
1982 02-09-2018 21:05:00 17.5 C 68 % 11.53 C
1983 02-09-2018 21:10:00 17.6 C 69 % 11.85 C
1984 02-09-2018 21:15:00 17.6 C 68 % 11.63 C
1985 02-09-2018 21:20:00 17.6 C 68 % 11.63 C
1986 02-09-2018 21:25:00 17.6 C 68 % 11.63 C
1987 02-09-2018 21:30:00 17.6 C 69 % 11.85 C
1988 02-09-2018 21:35:00 17.6 C 69 % 11.85 C
1989 02-09-2018 21:40:00 17.6 C 69 % 11.85 C
1990 02-09-2018 21:45:00 17.6 C 69 % 11.85 C
1991 02-09-2018 21:50:00 17.6 C 70 % 12.07 C
1992 02-09-2018 21:55:00 17.6 C 70 % 12.07 C
1993 02-09-2018 22:00:00 17.6 C 70 % 12.07 C
1994 02-09-2018 22:05:00 17.6 C 71 % 12.28 C
1995 02-09-2018 22:10:00 17.6 C 71 % 12.28 C
1996 02-09-2018 22:15:00 17.5 C 72 % 12.4 C
1997 02-09-2018 22:20:00 17.4 C 73 % 12.51 C
1998 02-09-2018 22:25:00 17.4 C 73 % 12.51 C
1999 02-09-2018 22:30:00 17.4 C 73 % 12.51 C
2000 02-09-2018 22:35:00 17.4 C 74 % 12.72 C
Sensor: Nr:Datum:Temp:Feuchte:Taupunkt:
Aussen-T/F 2001 02-09-2018 22:40:00 17.4 C 74 % 12.72 C
2002 02-09-2018 22:45:00 17.4 C 74 % 12.72 C
2003 02-09-2018 22:50:00 17.4 C 74 % 12.72 C
2004 02-09-2018 22:55:00 17.4 C 74 % 12.72 C
2005 02-09-2018 23:00:00 17.4 C 74 % 12.72 C
2006 02-09-2018 23:05:00 17.4 C 74 % 12.72 C
2007 02-09-2018 23:10:00 17.3 C 74 % 12.62 C
2008 02-09-2018 23:15:00 17.3 C 74 % 12.62 C
2009 02-09-2018 23:20:00 17.3 C 75 % 12.83 C
2010 02-09-2018 23:25:00 17.2 C 75 % 12.73 C
2011 02-09-2018 23:30:00 17.2 C 75 % 12.73 C
2012 02-09-2018 23:35:00 17.2 C 75 % 12.73 C
2013 02-09-2018 23:40:00 17.2 C 76 % 12.94 C
2014 02-09-2018 23:45:00 17.2 C 76 % 12.94 C
2015 02-09-2018 23:50:00 17.2 C 76 % 12.94 C
2016 02-09-2018 23:55:00 17.2 C 76 % 12.94 C
2017 03-09-2018 00:00:00 17.1 C 76 % 12.84 C
2018 03-09-2018 00:05:00 17.1 C 77 % 13.04 C
2019 03-09-2018 00:10:00 17.1 C 77 % 13.04 C
2020 03-09-2018 00:15:00 17 C 77 % 12.94 C
2021 03-09-2018 00:20:00 17 C 78 % 13.14 C
2022 03-09-2018 00:25:00 16.9 C 78 % 13.04 C
2023 03-09-2018 00:30:00 16.9 C 78 % 13.04 C
2024 03-09-2018 00:35:00 16.8 C 78 % 12.94 C
2025 03-09-2018 00:40:00 16.8 C 79 % 13.14 C
Sensor: Nr:Datum:Temp:Feuchte:Taupunkt:
Aussen-T/F 2026 03-09-2018 00:45:00 16.7 C 79 % 13.04 C
2027 03-09-2018 00:50:00 16.7 C 80 % 13.23 C
2028 03-09-2018 00:55:00 16.6 C 80 % 13.14 C
2029 03-09-2018 01:00:00 16.6 C 80 % 13.14 C
2030 03-09-2018 01:05:00 16.5 C 81 % 13.23 C
2031 03-09-2018 01:10:00 16.4 C 81 % 13.13 C
2032 03-09-2018 01:15:00 16.4 C 81 % 13.13 C
2033 03-09-2018 01:20:00 16.4 C 81 % 13.13 C
2034 03-09-2018 01:25:00 16.4 C 81 % 13.13 C
2035 03-09-2018 01:30:00 16.3 C 81 % 13.04 C
2036 03-09-2018 01:35:00 16.4 C 81 % 13.13 C
2037 03-09-2018 01:40:00 16.4 C 81 % 13.13 C
2038 03-09-2018 01:45:00 16.4 C 82 % 13.32 C
2039 03-09-2018 01:50:00 16.4 C 82 % 13.32 C
2040 03-09-2018 01:55:00 16.3 C 82 % 13.22 C
2041 03-09-2018 02:00:00 16.2 C 82 % 13.13 C
2042 03-09-2018 02:05:00 16.2 C 82 % 13.13 C
2043 03-09-2018 02:10:00 16.1 C 83 % 13.21 C
2044 03-09-2018 02:15:00 16.1 C 83 % 13.21 C
2045 03-09-2018 02:20:00 16.1 C 83 % 13.21 C
2046 03-09-2018 02:25:00 16.1 C 83 % 13.21 C
2047 03-09-2018 02:30:00 16.1 C 83 % 13.21 C
2048 03-09-2018 02:35:00 16.1 C 84 % 13.4 C
2049 03-09-2018 02:40:00 16 C 84 % 13.3 C
2050 03-09-2018 02:45:00 16 C 84 % 13.3 C
Sensor: Nr:Datum:Temp:Feuchte:Taupunkt:
Aussen-T/F 2051 03-09-2018 02:50:00 16 C 84 % 13.3 C
2052 03-09-2018 02:55:00 15.9 C 84 % 13.2 C
2053 03-09-2018 03:00:00 15.9 C 84 % 13.2 C
2054 03-09-2018 03:05:00 15.9 C 84 % 13.2 C
2055 03-09-2018 03:10:00 15.9 C 84 % 13.2 C
2056 03-09-2018 03:15:00 15.9 C 84 % 13.2 C
2057 03-09-2018 03:20:00 15.9 C 84 % 13.2 C
2058 03-09-2018 03:25:00 15.9 C 85 % 13.38 C
2059 03-09-2018 03:30:00 15.9 C 85 % 13.38 C
2060 03-09-2018 03:35:00 15.9 C 85 % 13.38 C
2061 03-09-2018 03:40:00 15.9 C 85 % 13.38 C
2062 03-09-2018 03:45:00 15.9 C 85 % 13.38 C
2063 03-09-2018 03:50:00 15.9 C 85 % 13.38 C
2064 03-09-2018 03:55:00 15.9 C 85 % 13.38 C
2065 03-09-2018 04:00:00 15.9 C 85 % 13.38 C
2066 03-09-2018 04:05:00 15.9 C 85 % 13.38 C
2067 03-09-2018 04:10:00 15.9 C 85 % 13.38 C
2068 03-09-2018 04:15:00 15.9 C 85 % 13.38 C
2069 03-09-2018 04:20:00 15.9 C 85 % 13.38 C
2070 03-09-2018 04:25:00 15.9 C 85 % 13.38 C
2071 03-09-2018 04:30:00 15.9 C 85 % 13.38 C
2072 03-09-2018 04:35:00 15.9 C 85 % 13.38 C
2073 03-09-2018 04:40:00 15.9 C 85 % 13.38 C
2074 03-09-2018 04:45:00 15.8 C 85 % 13.28 C
2075 03-09-2018 04:50:00 15.8 C 86 % 13.46 C
Sensor: Nr:Datum:Temp:Feuchte:Taupunkt:
Aussen-T/F 2076 03-09-2018 04:55:00 15.8 C 86 % 13.46 C
2077 03-09-2018 05:00:00 15.8 C 86 % 13.46 C
2078 03-09-2018 05:05:00 15.8 C 86 % 13.46 C
2079 03-09-2018 05:10:00 15.8 C 86 % 13.46 C
2080 03-09-2018 05:15:00 15.8 C 86 % 13.46 C
2081 03-09-2018 05:20:00 15.8 C 86 % 13.46 C
2082 03-09-2018 05:25:00 15.8 C 86 % 13.46 C
2083 03-09-2018 05:30:00 15.7 C 86 % 13.37 C
2084 03-09-2018 05:35:00 15.7 C 86 % 13.37 C
2085 03-09-2018 05:40:00 15.7 C 86 % 13.37 C
2086 03-09-2018 05:45:00 15.7 C 86 % 13.37 C
2087 03-09-2018 05:50:00 15.7 C 86 % 13.37 C
2088 03-09-2018 05:55:00 15.7 C 86 % 13.37 C
2089 03-09-2018 06:00:00 15.7 C 86 % 13.37 C
2090 03-09-2018 06:05:00 15.7 C 86 % 13.37 C
2091 03-09-2018 06:10:00 15.7 C 86 % 13.37 C
2092 03-09-2018 06:15:00 15.7 C 86 % 13.37 C
2093 03-09-2018 06:20:00 15.7 C 86 % 13.37 C
2094 03-09-2018 06:25:00 15.6 C 86 % 13.27 C
2095 03-09-2018 06:30:00 15.6 C 86 % 13.27 C
2096 03-09-2018 06:35:00 15.6 C 86 % 13.27 C
2097 03-09-2018 06:40:00 15.6 C 86 % 13.27 C
2098 03-09-2018 06:45:00 15.5 C 86 % 13.17 C
2099 03-09-2018 06:50:00 15.5 C 87 % 13.35 C
2100 03-09-2018 06:55:00 15.5 C 87 % 13.35 C
Sensor: Nr:Datum:Temp:Feuchte:Taupunkt:
Aussen-T/F 2101 03-09-2018 07:00:00 15.5 C 87 % 13.35 C
2102 03-09-2018 07:05:00 15.5 C 87 % 13.35 C
2103 03-09-2018 07:10:00 15.5 C 87 % 13.35 C
2104 03-09-2018 07:15:00 15.5 C 87 % 13.35 C
2105 03-09-2018 07:20:00 15.5 C 87 % 13.35 C
2106 03-09-2018 07:25:00 15.5 C 87 % 13.35 C
2107 03-09-2018 07:30:00 15.5 C 87 % 13.35 C
2108 03-09-2018 07:35:00 15.5 C 87 % 13.35 C
2109 03-09-2018 07:40:00 15.6 C 87 % 13.45 C
2110 03-09-2018 07:45:00 15.6 C 87 % 13.45 C
2111 03-09-2018 07:50:00 15.6 C 87 % 13.45 C
2112 03-09-2018 07:55:00 15.7 C 87 % 13.54 C
2113 03-09-2018 08:00:00 15.7 C 87 % 13.54 C
2114 03-09-2018 08:05:00 15.8 C 87 % 13.64 C
2115 03-09-2018 08:10:00 15.8 C 87 % 13.64 C
2116 03-09-2018 08:15:00 15.9 C 87 % 13.74 C
2117 03-09-2018 08:20:00 15.9 C 87 % 13.74 C
2118 03-09-2018 08:25:00 16 C 87 % 13.84 C
2119 03-09-2018 08:30:00 16.1 C 87 % 13.94 C
2120 03-09-2018 08:35:00 16.1 C 87 % 13.94 C
2121 03-09-2018 08:40:00 16.2 C 87 % 14.03 C
2122 03-09-2018 08:45:00 16.2 C 87 % 14.03 C
2123 03-09-2018 08:50:00 16.3 C 86 % 13.95 C
2124 03-09-2018 08:55:00 16.3 C 85 % 13.77 C
2125 03-09-2018 09:00:00 16.4 C 85 % 13.87 C
Sensor: Nr:Datum:Temp:Feuchte:Taupunkt:
Aussen-T/F 2126 03-09-2018 09:05:00 16.6 C 85 % 14.07 C
2127 03-09-2018 09:10:00 16.7 C 84 % 13.98 C
2128 03-09-2018 09:15:00 16.8 C 84 % 14.08 C
2129 03-09-2018 09:20:00 17 C 83 % 14.09 C
2130 03-09-2018 09:25:00 17.2 C 83 % 14.29 C
2131 03-09-2018 09:30:00 17.3 C 83 % 14.39 C
2132 03-09-2018 09:35:00 17.4 C 82 % 14.3 C
2133 03-09-2018 09:40:00 17.5 C 82 % 14.39 C
2134 03-09-2018 09:45:00 17.6 C 82 % 14.49 C
2135 03-09-2018 09:50:00 17.6 C 81 % 14.3 C
2136 03-09-2018 09:55:00 17.6 C 81 % 14.3 C
2137 03-09-2018 10:00:00 17.5 C 81 % 14.2 C
2138 03-09-2018 10:05:00 17.5 C 81 % 14.2 C
2139 03-09-2018 10:10:00 17.5 C 81 % 14.2 C
2140 03-09-2018 10:15:00 17.5 C 81 % 14.2 C
2141 03-09-2018 10:20:00 17.6 C 82 % 14.49 C
2142 03-09-2018 10:25:00 17.7 C 81 % 14.4 C
2143 03-09-2018 10:30:00 17.8 C 80 % 14.31 C
2144 03-09-2018 10:35:00 17.8 C 80 % 14.31 C
2145 03-09-2018 10:40:00 17.9 C 80 % 14.4 C
2146 03-09-2018 10:45:00 18 C 80 % 14.5 C
2147 03-09-2018 10:50:00 18 C 79 % 14.31 C
2148 03-09-2018 10:55:00 18.1 C 79 % 14.4 C
2149 03-09-2018 11:00:00 18.1 C 79 % 14.4 C
2150 03-09-2018 11:05:00 18.2 C 80 % 14.69 C
Sensor: Nr:Datum:Temp:Feuchte:Taupunkt:
Aussen-T/F 2151 03-09-2018 11:10:00 18.4 C 79 % 14.69 C
2152 03-09-2018 11:15:00 18.6 C 78 % 14.69 C
2153 03-09-2018 11:20:00 18.7 C 78 % 14.79 C
2154 03-09-2018 11:25:00 18.7 C 77 % 14.59 C
2155 03-09-2018 11:30:00 18.8 C 77 % 14.68 C
2156 03-09-2018 11:35:00 18.9 C 77 % 14.78 C
2157 03-09-2018 11:40:00 19 C 77 % 14.88 C
2158 03-09-2018 11:45:00 19.1 C 76 % 14.77 C
2159 03-09-2018 11:50:00 19.1 C 76 % 14.77 C
2160 03-09-2018 11:55:00 19.2 C 76 % 14.87 C
2161 03-09-2018 12:00:00 19.4 C 74 % 14.65 C
2162 03-09-2018 12:05:00 19.6 C 75 % 15.05 C
2163 03-09-2018 12:10:00 19.6 C 74 % 14.84 C
2164 03-09-2018 12:15:00 19.7 C 74 % 14.94 C
2165 03-09-2018 12:20:00 19.6 C 73 % 14.63 C
2166 03-09-2018 12:25:00 19.4 C 74 % 14.65 C
2167 03-09-2018 12:30:00 19.4 C 74 % 14.65 C
2168 03-09-2018 12:35:00 19.4 C 74 % 14.65 C
2169 03-09-2018 12:40:00 19.5 C 75 % 14.95 C
2170 03-09-2018 12:45:00 19.6 C 74 % 14.84 C
2171 03-09-2018 12:50:00 19.6 C 73 % 14.63 C
2172 03-09-2018 12:55:00 19.6 C 74 % 14.84 C
2173 03-09-2018 13:00:00 19.7 C 74 % 14.94 C
2174 03-09-2018 13:05:00 19.7 C 74 % 14.94 C
2175 03-09-2018 13:10:00 19.7 C 73 % 14.73 C
Sensor: Nr:Datum:Temp:Feuchte:Taupunkt:
Aussen-T/F 2176 03-09-2018 13:15:00 19.7 C 73 % 14.73 C
2177 03-09-2018 13:20:00 19.8 C 74 % 15.03 C
2178 03-09-2018 13:25:00 19.8 C 74 % 15.03 C
2179 03-09-2018 13:30:00 20 C 74 % 15.23 C
2180 03-09-2018 13:35:00 20.2 C 72 % 14.99 C
2181 03-09-2018 13:40:00 20.3 C 72 % 15.09 C
2182 03-09-2018 13:45:00 20.3 C 72 % 15.09 C
2183 03-09-2018 13:50:00 20.3 C 72 % 15.09 C
2184 03-09-2018 13:55:00 20.5 C 73 % 15.5 C
2185 03-09-2018 14:00:00 20.7 C 72 % 15.47 C
2186 03-09-2018 14:05:00 20.8 C 72 % 15.57 C
2187 03-09-2018 14:10:00 20.9 C 70 % 15.23 C
2188 03-09-2018 14:15:00 20.8 C 70 % 15.13 C
2189 03-09-2018 14:20:00 20.7 C 71 % 15.25 C
2190 03-09-2018 14:25:00 20.7 C 71 % 15.25 C
2191 03-09-2018 14:30:00 20.7 C 71 % 15.25 C
2192 03-09-2018 14:35:00 20.8 C 71 % 15.35 C
2193 03-09-2018 14:40:00 20.8 C 71 % 15.35 C
2194 03-09-2018 14:45:00 20.9 C 71 % 15.45 C
2195 03-09-2018 14:50:00 20.9 C 70 % 15.23 C
2196 03-09-2018 14:55:00 20.9 C 71 % 15.45 C
2197 03-09-2018 15:00:00 20.9 C 70 % 15.23 C
2198 03-09-2018 15:05:00 20.9 C 71 % 15.45 C
2199 03-09-2018 15:10:00 21 C 70 % 15.32 C
2200 03-09-2018 15:15:00 21 C 71 % 15.54 C
Sensor: Nr:Datum:Temp:Feuchte:Taupunkt:
Aussen-T/F 2201 03-09-2018 15:20:00 20.9 C 71 % 15.45 C
2202 03-09-2018 15:25:00 20.8 C 71 % 15.35 C
2203 03-09-2018 15:30:00 20.8 C 72 % 15.57 C
2204 03-09-2018 15:35:00 20.8 C 73 % 15.78 C
2205 03-09-2018 15:40:00 20.8 C 72 % 15.57 C
2206 03-09-2018 15:45:00 20.7 C 73 % 15.69 C
2207 03-09-2018 15:50:00 20.7 C 72 % 15.47 C
2208 03-09-2018 15:55:00 20.7 C 72 % 15.47 C
2209 03-09-2018 16:00:00 20.7 C 72 % 15.47 C
2210 03-09-2018 16:05:00 20.7 C 72 % 15.47 C
2211 03-09-2018 16:10:00 20.8 C 73 % 15.78 C
2212 03-09-2018 16:15:00 20.8 C 72 % 15.57 C
2213 03-09-2018 16:20:00 20.7 C 72 % 15.47 C
2214 03-09-2018 16:25:00 20.7 C 72 % 15.47 C
2215 03-09-2018 16:30:00 20.7 C 72 % 15.47 C
2216 03-09-2018 16:35:00 20.6 C 72 % 15.38 C
2217 03-09-2018 16:40:00 20.6 C 73 % 15.59 C
2218 03-09-2018 16:45:00 20.6 C 72 % 15.38 C
2219 03-09-2018 16:50:00 20.6 C 73 % 15.59 C
2220 03-09-2018 16:55:00 20.6 C 73 % 15.59 C
2221 03-09-2018 17:00:00 20.6 C 73 % 15.59 C
2222 03-09-2018 17:05:00 20.6 C 75 % 16.01 C
2223 03-09-2018 17:10:00 20.6 C 75 % 16.01 C
2224 03-09-2018 17:15:00 20.6 C 75 % 16.01 C
2225 03-09-2018 17:20:00 20.6 C 75 % 16.01 C
Sensor: Nr:Datum:Temp:Feuchte:Taupunkt:
Aussen-T/F 2226 03-09-2018 17:25:00 20.6 C 76 % 16.22 C
2227 03-09-2018 17:30:00 20.6 C 76 % 16.22 C
2228 03-09-2018 17:35:00 20.6 C 76 % 16.22 C
2229 03-09-2018 17:40:00 20.6 C 75 % 16.01 C
2230 03-09-2018 17:45:00 20.6 C 75 % 16.01 C
2231 03-09-2018 17:50:00 20.6 C 75 % 16.01 C
2232 03-09-2018 17:55:00 20.5 C 75 % 15.92 C
2233 03-09-2018 18:00:00 20.5 C 75 % 15.92 C
2234 03-09-2018 18:05:00 20.4 C 75 % 15.82 C
2235 03-09-2018 18:10:00 20.4 C 75 % 15.82 C
2236 03-09-2018 18:15:00 20.4 C 75 % 15.82 C
2237 03-09-2018 18:20:00 20.4 C 75 % 15.82 C
2238 03-09-2018 18:25:00 20.4 C 75 % 15.82 C
2239 03-09-2018 18:30:00 20.4 C 75 % 15.82 C
2240 03-09-2018 18:35:00 20.3 C 76 % 15.93 C
2241 03-09-2018 18:40:00 20.3 C 76 % 15.93 C
2242 03-09-2018 18:45:00 20.2 C 76 % 15.83 C
2243 03-09-2018 18:50:00 20.2 C 76 % 15.83 C
2244 03-09-2018 18:55:00 20.2 C 77 % 16.04 C
2245 03-09-2018 19:00:00 20.2 C 77 % 16.04 C
2246 03-09-2018 19:05:00 20.1 C 77 % 15.94 C
2247 03-09-2018 19:10:00 20.1 C 77 % 15.94 C
2248 03-09-2018 19:15:00 20.1 C 77 % 15.94 C
2249 03-09-2018 19:20:00 20 C 78 % 16.05 C
2250 03-09-2018 19:25:00 19.9 C 78 % 15.95 C
Sensor: Nr:Datum:Temp:Feuchte:Taupunkt:
Aussen-T/F 2251 03-09-2018 19:30:00 19.9 C 78 % 15.95 C
2252 03-09-2018 19:35:00 19.9 C 79 % 16.15 C
2253 03-09-2018 19:40:00 19.8 C 79 % 16.05 C
2254 03-09-2018 19:45:00 19.8 C 79 % 16.05 C
2255 03-09-2018 19:50:00 19.7 C 81 % 16.35 C
2256 03-09-2018 19:55:00 19.6 C 81 % 16.25 C
2257 03-09-2018 20:00:00 19.5 C 82 % 16.35 C
2258 03-09-2018 20:05:00 19.3 C 82 % 16.15 C
2259 03-09-2018 20:10:00 19.2 C 82 % 16.05 C
2260 03-09-2018 20:15:00 19.1 C 83 % 16.15 C
2261 03-09-2018 20:20:00 19 C 83 % 16.05 C
2262 03-09-2018 20:25:00 18.9 C 83 % 15.95 C
2263 03-09-2018 20:30:00 18.8 C 83 % 15.85 C
2264 03-09-2018 20:35:00 18.8 C 84 % 16.04 C
2265 03-09-2018 20:40:00 18.7 C 84 % 15.94 C
2266 03-09-2018 20:45:00 18.7 C 84 % 15.94 C
2267 03-09-2018 20:50:00 18.7 C 84 % 15.94 C
2268 03-09-2018 20:55:00 18.6 C 85 % 16.03 C
2269 03-09-2018 21:00:00 18.6 C 85 % 16.03 C
2270 03-09-2018 21:05:00 18.6 C 85 % 16.03 C
2271 03-09-2018 21:10:00 18.5 C 85 % 15.93 C
2272 03-09-2018 21:15:00 18.4 C 85 % 15.83 C
2273 03-09-2018 21:20:00 18.4 C 85 % 15.83 C
2274 03-09-2018 21:25:00 18.4 C 85 % 15.83 C
2275 03-09-2018 21:30:00 18.3 C 86 % 15.92 C
Sensor: Nr:Datum:Temp:Feuchte:Taupunkt:
Aussen-T/F 2276 03-09-2018 21:35:00 18.3 C 86 % 15.92 C
2277 03-09-2018 21:40:00 18.3 C 86 % 15.92 C
2278 03-09-2018 21:45:00 18.3 C 86 % 15.92 C
2279 03-09-2018 21:50:00 18.2 C 86 % 15.82 C
2280 03-09-2018 21:55:00 18.2 C 86 % 15.82 C
2281 03-09-2018 22:00:00 18.2 C 86 % 15.82 C
2282 03-09-2018 22:05:00 18.2 C 86 % 15.82 C
2283 03-09-2018 22:10:00 18.2 C 86 % 15.82 C
2284 03-09-2018 22:15:00 18.1 C 86 % 15.72 C
2285 03-09-2018 22:20:00 18.1 C 86 % 15.72 C
2286 03-09-2018 22:25:00 18.1 C 86 % 15.72 C
2287 03-09-2018 22:30:00 18 C 86 % 15.62 C
2288 03-09-2018 22:35:00 17.9 C 87 % 15.71 C
2289 03-09-2018 22:40:00 17.9 C 87 % 15.71 C
2290 03-09-2018 22:45:00 17.8 C 87 % 15.61 C
2291 03-09-2018 22:50:00 17.8 C 87 % 15.61 C
2292 03-09-2018 22:55:00 17.8 C 87 % 15.61 C
2293 03-09-2018 23:00:00 17.7 C 87 % 15.51 C
2294 03-09-2018 23:05:00 17.7 C 88 % 15.69 C
2295 03-09-2018 23:10:00 17.7 C 88 % 15.69 C
2296 03-09-2018 23:15:00 17.7 C 88 % 15.69 C
2297 03-09-2018 23:20:00 17.6 C 88 % 15.59 C
2298 03-09-2018 23:25:00 17.6 C 88 % 15.59 C
2299 03-09-2018 23:30:00 17.6 C 89 % 15.77 C
2300 03-09-2018 23:35:00 17.6 C 88 % 15.59 C
Sensor: Nr:Datum:Temp:Feuchte:Taupunkt:
Aussen-T/F 2301 03-09-2018 23:40:00 17.5 C 89 % 15.67 C
2302 03-09-2018 23:45:00 17.4 C 89 % 15.57 C
2303 03-09-2018 23:50:00 17.4 C 89 % 15.57 C
2304 03-09-2018 23:55:00 17.4 C 89 % 15.57 C
2305 04-09-2018 00:00:00 17.4 C 89 % 15.57 C
2306 04-09-2018 00:05:00 17.4 C 89 % 15.57 C
2307 04-09-2018 00:10:00 17.4 C 89 % 15.57 C
2308 04-09-2018 00:15:00 17.4 C 89 % 15.57 C
2309 04-09-2018 00:20:00 17.4 C 89 % 15.57 C
2310 04-09-2018 00:25:00 17.3 C 89 % 15.47 C
2311 04-09-2018 00:30:00 17.3 C 89 % 15.47 C
2312 04-09-2018 00:35:00 17.2 C 89 % 15.37 C
2313 04-09-2018 00:40:00 17.2 C 89 % 15.37 C
2314 04-09-2018 00:45:00 17.2 C 89 % 15.37 C
2315 04-09-2018 00:50:00 17.2 C 90 % 15.55 C
2316 04-09-2018 00:55:00 17.2 C 90 % 15.55 C
2317 04-09-2018 01:00:00 17.2 C 90 % 15.55 C
2318 04-09-2018 01:05:00 17.2 C 90 % 15.55 C
2319 04-09-2018 01:10:00 17.2 C 90 % 15.55 C
2320 04-09-2018 01:15:00 17.2 C 90 % 15.55 C
2321 04-09-2018 01:20:00 17.2 C 90 % 15.55 C
2322 04-09-2018 01:25:00 17.2 C 90 % 15.55 C
2323 04-09-2018 01:30:00 17.2 C 90 % 15.55 C
2324 04-09-2018 01:35:00 17.2 C 90 % 15.55 C
2325 04-09-2018 01:40:00 17.3 C 90 % 15.64 C
Sensor: Nr:Datum:Temp:Feuchte:Taupunkt:
Aussen-T/F 2326 04-09-2018 01:45:00 17.2 C 90 % 15.55 C
2327 04-09-2018 01:50:00 17.3 C 90 % 15.64 C
2328 04-09-2018 01:55:00 17.3 C 90 % 15.64 C
2329 04-09-2018 02:00:00 17.3 C 90 % 15.64 C
2330 04-09-2018 02:05:00 17.2 C 90 % 15.55 C
2331 04-09-2018 02:10:00 17.3 C 90 % 15.64 C
2332 04-09-2018 02:15:00 17.2 C 90 % 15.55 C
2333 04-09-2018 02:20:00 17.2 C 90 % 15.55 C
2334 04-09-2018 02:25:00 17.2 C 90 % 15.55 C
2335 04-09-2018 02:30:00 17.3 C 90 % 15.64 C
2336 04-09-2018 02:35:00 17.3 C 90 % 15.64 C
2337 04-09-2018 02:40:00 17.2 C 90 % 15.55 C
2338 04-09-2018 02:45:00 17.2 C 90 % 15.55 C
2339 04-09-2018 02:50:00 17.2 C 90 % 15.55 C
2340 04-09-2018 02:55:00 17.2 C 91 % 15.72 C
2341 04-09-2018 03:00:00 17.2 C 91 % 15.72 C
2342 04-09-2018 03:05:00 17.2 C 91 % 15.72 C
2343 04-09-2018 03:10:00 17.2 C 91 % 15.72 C
2344 04-09-2018 03:15:00 17.2 C 91 % 15.72 C
2345 04-09-2018 03:20:00 17.2 C 91 % 15.72 C
2346 04-09-2018 03:25:00 17.1 C 91 % 15.62 C
2347 04-09-2018 03:30:00 17.2 C 91 % 15.72 C
2348 04-09-2018 03:35:00 17.1 C 91 % 15.62 C
2349 04-09-2018 03:40:00 17.1 C 91 % 15.62 C
2350 04-09-2018 03:45:00 17.1 C 91 % 15.62 C
Sensor: Nr:Datum:Temp:Feuchte:Taupunkt:
Aussen-T/F 2351 04-09-2018 03:50:00 17.1 C 91 % 15.62 C
2352 04-09-2018 03:55:00 17.1 C 91 % 15.62 C
2353 04-09-2018 04:00:00 17.1 C 91 % 15.62 C
2354 04-09-2018 04:05:00 17.1 C 91 % 15.62 C
2355 04-09-2018 04:10:00 17.1 C 91 % 15.62 C
2356 04-09-2018 04:15:00 17.1 C 91 % 15.62 C
2357 04-09-2018 04:20:00 17.1 C 91 % 15.62 C
2358 04-09-2018 04:25:00 17.1 C 91 % 15.62 C
2359 04-09-2018 04:30:00 17.1 C 91 % 15.62 C
2360 04-09-2018 04:35:00 17.1 C 91 % 15.62 C
2361 04-09-2018 04:40:00 17.1 C 91 % 15.62 C
2362 04-09-2018 04:45:00 17 C 91 % 15.52 C
2363 04-09-2018 04:50:00 16.9 C 91 % 15.42 C
2364 04-09-2018 04:55:00 16.8 C 91 % 15.32 C
2365 04-09-2018 05:00:00 16.7 C 90 % 15.05 C
2366 04-09-2018 05:05:00 16.4 C 90 % 14.76 C
2367 04-09-2018 05:10:00 16.3 C 91 % 14.83 C
2368 04-09-2018 05:15:00 16.3 C 91 % 14.83 C
2369 04-09-2018 05:20:00 16.2 C 91 % 14.73 C
2370 04-09-2018 05:25:00 16.1 C 91 % 14.63 C
2371 04-09-2018 05:30:00 16.1 C 92 % 14.8 C
2372 04-09-2018 05:35:00 16.1 C 92 % 14.8 C
2373 04-09-2018 05:40:00 16 C 92 % 14.7 C
2374 04-09-2018 05:45:00 15.9 C 92 % 14.6 C
2375 04-09-2018 05:50:00 15.8 C 92 % 14.5 C
Sensor: Nr:Datum:Temp:Feuchte:Taupunkt:
Aussen-T/F 2376 04-09-2018 05:55:00 15.7 C 92 % 14.4 C
2377 04-09-2018 06:00:00 15.6 C 92 % 14.31 C
2378 04-09-2018 06:05:00 15.6 C 92 % 14.31 C
2379 04-09-2018 06:10:00 15.5 C 92 % 14.21 C
2380 04-09-2018 06:15:00 15.4 C 92 % 14.11 C
2381 04-09-2018 06:20:00 15.4 C 92 % 14.11 C
2382 04-09-2018 06:25:00 15.3 C 92 % 14.01 C
2383 04-09-2018 06:30:00 15.2 C 92 % 13.91 C
2384 04-09-2018 06:35:00 15.3 C 93 % 14.18 C
2385 04-09-2018 06:40:00 15.3 C 93 % 14.18 C
2386 04-09-2018 06:45:00 15.4 C 94 % 14.44 C
2387 04-09-2018 06:50:00 15.4 C 94 % 14.44 C
2388 04-09-2018 06:55:00 15.5 C 94 % 14.54 C
2389 04-09-2018 07:00:00 15.7 C 94 % 14.74 C
2390 04-09-2018 07:05:00 15.7 C 94 % 14.74 C
2391 04-09-2018 07:10:00 15.8 C 94 % 14.84 C
2392 04-09-2018 07:15:00 15.8 C 94 % 14.84 C
2393 04-09-2018 07:20:00 15.8 C 94 % 14.84 C
2394 04-09-2018 07:25:00 15.8 C 94 % 14.84 C
2395 04-09-2018 07:30:00 15.8 C 94 % 14.84 C
2396 04-09-2018 07:35:00 15.9 C 94 % 14.94 C
2397 04-09-2018 07:40:00 15.9 C 94 % 14.94 C
2398 04-09-2018 07:45:00 15.9 C 94 % 14.94 C
2399 04-09-2018 07:50:00 16 C 94 % 15.03 C
2400 04-09-2018 07:55:00 16.1 C 94 % 15.13 C
Sensor: Nr:Datum:Temp:Feuchte:Taupunkt:
Aussen-T/F 2401 04-09-2018 08:00:00 16.1 C 94 % 15.13 C
2402 04-09-2018 08:05:00 16.1 C 94 % 15.13 C
2403 04-09-2018 08:10:00 16.1 C 94 % 15.13 C
2404 04-09-2018 08:15:00 16.2 C 94 % 15.23 C
2405 04-09-2018 08:20:00 16.2 C 94 % 15.23 C
2406 04-09-2018 08:25:00 16.2 C 94 % 15.23 C
2407 04-09-2018 08:30:00 16.3 C 94 % 15.33 C
2408 04-09-2018 08:35:00 16.3 C 94 % 15.33 C
2409 04-09-2018 08:40:00 16.3 C 94 % 15.33 C
2410 04-09-2018 08:45:00 16.4 C 94 % 15.43 C
2411 04-09-2018 08:50:00 16.5 C 94 % 15.53 C
2412 04-09-2018 08:55:00 16.6 C 94 % 15.63 C
2413 04-09-2018 09:00:00 16.7 C 94 % 15.73 C
2414 04-09-2018 09:05:00 16.8 C 93 % 15.66 C
2415 04-09-2018 09:10:00 16.9 C 93 % 15.76 C
2416 04-09-2018 09:15:00 17.1 C 93 % 15.96 C
2417 04-09-2018 09:20:00 17.2 C 93 % 16.06 C
2418 04-09-2018 09:25:00 17.3 C 93 % 16.16 C
2419 04-09-2018 09:30:00 17.4 C 92 % 16.09 C
2420 04-09-2018 09:35:00 17.5 C 92 % 16.19 C
2421 04-09-2018 09:40:00 17.6 C 91 % 16.11 C
2422 04-09-2018 09:45:00 17.7 C 91 % 16.21 C
2423 04-09-2018 09:50:00 17.7 C 91 % 16.21 C
2424 04-09-2018 09:55:00 17.8 C 91 % 16.31 C
2425 04-09-2018 10:00:00 17.9 C 91 % 16.41 C
Sensor: Nr:Datum:Temp:Feuchte:Taupunkt:
Aussen-T/F 2426 04-09-2018 10:05:00 18 C 91 % 16.51 C
2427 04-09-2018 10:10:00 18.1 C 90 % 16.43 C
2428 04-09-2018 10:15:00 18.1 C 90 % 16.43 C
2429 04-09-2018 10:20:00 18.2 C 90 % 16.53 C
2430 04-09-2018 10:25:00 18.3 C 90 % 16.63 C
2431 04-09-2018 10:30:00 18.3 C 90 % 16.63 C
2432 04-09-2018 10:35:00 18.4 C 89 % 16.55 C
2433 04-09-2018 10:40:00 18.5 C 89 % 16.65 C
2434 04-09-2018 10:45:00 18.6 C 89 % 16.75 C
2435 04-09-2018 10:50:00 18.6 C 89 % 16.75 C
2436 04-09-2018 10:55:00 18.7 C 89 % 16.85 C
2437 04-09-2018 11:00:00 18.7 C 89 % 16.85 C
2438 04-09-2018 11:05:00 18.8 C 89 % 16.95 C
2439 04-09-2018 11:10:00 18.9 C 90 % 17.22 C
2440 04-09-2018 11:15:00 19.1 C 90 % 17.42 C
2441 04-09-2018 11:20:00 19.1 C 89 % 17.24 C
2442 04-09-2018 11:25:00 19.2 C 88 % 17.16 C
2443 04-09-2018 11:30:00 19.4 C 88 % 17.36 C
2444 04-09-2018 11:35:00 19.6 C 88 % 17.56 C
2445 04-09-2018 11:40:00 19.7 C 88 % 17.66 C
2446 04-09-2018 11:45:00 19.9 C 87 % 17.67 C
2447 04-09-2018 11:50:00 20.1 C 87 % 17.87 C
2448 04-09-2018 11:55:00 20.2 C 85 % 17.6 C
2449 04-09-2018 12:00:00 20.3 C 85 % 17.7 C
2450 04-09-2018 12:05:00 20.4 C 85 % 17.79 C
Sensor: Nr:Datum:Temp:Feuchte:Taupunkt:
Aussen-T/F 2451 04-09-2018 12:10:00 20.6 C 83 % 17.61 C
2452 04-09-2018 12:15:00 20.7 C 83 % 17.71 C
2453 04-09-2018 12:20:00 20.8 C 80 % 17.22 C
2454 04-09-2018 12:25:00 21.1 C 79 % 17.32 C
2455 04-09-2018 12:30:00 21.2 C 77 % 17.01 C
2456 04-09-2018 12:35:00 21.4 C 77 % 17.2 C
2457 04-09-2018 12:40:00 21.6 C 75 % 16.98 C
2458 04-09-2018 12:45:00 21.9 C 73 % 16.84 C
2459 04-09-2018 12:50:00 22.3 C 71 % 16.79 C
2460 04-09-2018 12:55:00 22.6 C 70 % 16.85 C
2461 04-09-2018 13:00:00 22.7 C 69 % 16.72 C
2462 04-09-2018 13:05:00 22.8 C 69 % 16.82 C
2463 04-09-2018 13:10:00 22.9 C 68 % 16.68 C
2464 04-09-2018 13:15:00 23.1 C 67 % 16.64 C
2465 04-09-2018 13:20:00 23.2 C 66 % 16.5 C
2466 04-09-2018 13:25:00 23.3 C 66 % 16.59 C
2467 04-09-2018 13:30:00 23.4 C 65 % 16.45 C
2468 04-09-2018 13:35:00 23.6 C 65 % 16.64 C
2469 04-09-2018 13:40:00 23.6 C 64 % 16.39 C
2470 04-09-2018 13:45:00 23.6 C 65 % 16.64 C
2471 04-09-2018 13:50:00 23.7 C 65 % 16.73 C
2472 04-09-2018 13:55:00 23.7 C 65 % 16.73 C
2473 04-09-2018 14:00:00 23.8 C 64 % 16.58 C
2474 04-09-2018 14:05:00 23.9 C 63 % 16.43 C
2475 04-09-2018 14:10:00 24.1 C 63 % 16.62 C
Sensor: Nr:Datum:Temp:Feuchte:Taupunkt:
Aussen-T/F 2476 04-09-2018 14:15:00 24.3 C 62 % 16.55 C
2477 04-09-2018 14:20:00 24.3 C 62 % 16.55 C
2478 04-09-2018 14:25:00 24.3 C 61 % 16.3 C
2479 04-09-2018 14:30:00 24.2 C 61 % 16.2 C
2480 04-09-2018 14:35:00 24.3 C 61 % 16.3 C
2481 04-09-2018 14:40:00 24.6 C 62 % 16.84 C
2482 04-09-2018 14:45:00 24.9 C 60 % 16.6 C
2483 04-09-2018 14:50:00 25.1 C 59 % 16.52 C
2484 04-09-2018 14:55:00 25.1 C 58 % 16.26 C
2485 04-09-2018 15:00:00 25.2 C 58 % 16.35 C
2486 04-09-2018 15:05:00 25.2 C 58 % 16.35 C
2487 04-09-2018 15:10:00 25.2 C 58 % 16.35 C
2488 04-09-2018 15:15:00 25.2 C 58 % 16.35 C
2489 04-09-2018 15:20:00 25.4 C 56 % 15.99 C
2490 04-09-2018 15:25:00 25.7 C 56 % 16.26 C
2491 04-09-2018 15:30:00 25.8 C 55 % 16.07 C
2492 04-09-2018 15:35:00 25.8 C 55 % 16.07 C
2493 04-09-2018 15:40:00 25.6 C 55 % 15.89 C
2494 04-09-2018 15:45:00 25.5 C 56 % 16.08 C
2495 04-09-2018 15:50:00 25.4 C 56 % 15.99 C
2496 04-09-2018 15:55:00 25.3 C 55 % 15.61 C
2497 04-09-2018 16:00:00 25.3 C 56 % 15.89 C
2498 04-09-2018 16:05:00 25.3 C 56 % 15.89 C
2499 04-09-2018 16:10:00 25.4 C 55 % 15.7 C
2500 04-09-2018 16:15:00 25.5 C 54 % 15.51 C
Sensor: Nr:Datum:Temp:Feuchte:Taupunkt:
Aussen-T/F 2501 04-09-2018 16:20:00 25.6 C 56 % 16.17 C
2502 04-09-2018 16:25:00 25.7 C 54 % 15.7 C
2503 04-09-2018 16:30:00 26 C 53 % 15.68 C
2504 04-09-2018 16:35:00 26.3 C 52 % 15.66 C
2505 04-09-2018 16:40:00 26.2 C 52 % 15.57 C
2506 04-09-2018 16:45:00 26.2 C 54 % 16.16 C
2507 04-09-2018 16:50:00 26.1 C 53 % 15.77 C
2508 04-09-2018 16:55:00 25.9 C 54 % 15.88 C
2509 04-09-2018 17:00:00 25.8 C 59 % 17.18 C
2510 04-09-2018 17:05:00 25.7 C 59 % 17.09 C
2511 04-09-2018 17:10:00 25.6 C 60 % 17.26 C
2512 04-09-2018 17:15:00 25.4 C 57 % 16.26 C
2513 04-09-2018 17:20:00 25.3 C 61 % 17.24 C
2514 04-09-2018 17:25:00 25.2 C 62 % 17.4 C
2515 04-09-2018 17:30:00 25.1 C 62 % 17.31 C
2516 04-09-2018 17:35:00 25 C 63 % 17.47 C
2517 04-09-2018 17:40:00 24.8 C 63 % 17.28 C
2518 04-09-2018 17:45:00 24.8 C 64 % 17.53 C
2519 04-09-2018 17:50:00 24.7 C 64 % 17.43 C
2520 04-09-2018 17:55:00 24.6 C 65 % 17.58 C
2521 04-09-2018 18:00:00 24.6 C 65 % 17.58 C
2522 04-09-2018 18:05:00 24.6 C 65 % 17.58 C
2523 04-09-2018 18:10:00 24.6 C 65 % 17.58 C
2524 04-09-2018 18:15:00 24.6 C 66 % 17.83 C
2525 04-09-2018 18:20:00 24.6 C 65 % 17.58 C
Sensor: Nr:Datum:Temp:Feuchte:Taupunkt:
Aussen-T/F 2526 04-09-2018 18:25:00 24.5 C 65 % 17.49 C
2527 04-09-2018 18:30:00 24.4 C 65 % 17.39 C
2528 04-09-2018 18:35:00 24.3 C 65 % 17.3 C
2529 04-09-2018 18:40:00 24.1 C 66 % 17.35 C
2530 04-09-2018 18:45:00 23.9 C 65 % 16.92 C
2531 04-09-2018 18:50:00 23.8 C 67 % 17.3 C
2532 04-09-2018 18:55:00 23.6 C 67 % 17.11 C
2533 04-09-2018 19:00:00 23.6 C 67 % 17.11 C
2534 04-09-2018 19:05:00 23.4 C 67 % 16.92 C
2535 04-09-2018 19:10:00 23.4 C 67 % 16.92 C
2536 04-09-2018 19:15:00 23.4 C 67 % 16.92 C
2537 04-09-2018 19:20:00 23.4 C 67 % 16.92 C
2538 04-09-2018 19:25:00 23.5 C 67 % 17.02 C
2539 04-09-2018 19:30:00 23.4 C 66 % 16.69 C
2540 04-09-2018 19:35:00 23.3 C 66 % 16.59 C
2541 04-09-2018 19:40:00 23.2 C 66 % 16.5 C
2542 04-09-2018 19:45:00 23.1 C 67 % 16.64 C
2543 04-09-2018 19:50:00 22.9 C 67 % 16.45 C
2544 04-09-2018 19:55:00 22.7 C 68 % 16.49 C
2545 04-09-2018 20:00:00 22.8 C 67 % 16.35 C
2546 04-09-2018 20:05:00 22.8 C 68 % 16.59 C
2547 04-09-2018 20:10:00 22.7 C 68 % 16.49 C
2548 04-09-2018 20:15:00 22.5 C 69 % 16.53 C
2549 04-09-2018 20:20:00 22.3 C 70 % 16.56 C
2550 04-09-2018 20:25:00 22.1 C 71 % 16.6 C
Sensor: Nr:Datum:Temp:Feuchte:Taupunkt:
Aussen-T/F 2551 04-09-2018 20:30:00 21.9 C 71 % 16.4 C
2552 04-09-2018 20:35:00 21.8 C 72 % 16.53 C
2553 04-09-2018 20:40:00 21.7 C 72 % 16.43 C
2554 04-09-2018 20:45:00 21.6 C 73 % 16.55 C
2555 04-09-2018 20:50:00 21.4 C 73 % 16.36 C
2556 04-09-2018 20:55:00 21.3 C 74 % 16.48 C
2557 04-09-2018 21:00:00 21.2 C 74 % 16.38 C
2558 04-09-2018 21:05:00 21.2 C 75 % 16.59 C
2559 04-09-2018 21:10:00 21.1 C 75 % 16.5 C
2560 04-09-2018 21:15:00 21 C 75 % 16.4 C
2561 04-09-2018 21:20:00 20.9 C 75 % 16.3 C
2562 04-09-2018 21:25:00 20.9 C 75 % 16.3 C
2563 04-09-2018 21:30:00 20.8 C 75 % 16.21 C
2564 04-09-2018 21:35:00 20.7 C 76 % 16.32 C
2565 04-09-2018 21:40:00 20.7 C 76 % 16.32 C
2566 04-09-2018 21:45:00 20.6 C 76 % 16.22 C
2567 04-09-2018 21:50:00 20.5 C 76 % 16.12 C
2568 04-09-2018 21:55:00 20.4 C 76 % 16.03 C
2569 04-09-2018 22:00:00 20.4 C 76 % 16.03 C
2570 04-09-2018 22:05:00 20.4 C 75 % 15.82 C
2571 04-09-2018 22:10:00 20.3 C 76 % 15.93 C
2572 04-09-2018 22:15:00 20.3 C 76 % 15.93 C
2573 04-09-2018 22:20:00 20.2 C 76 % 15.83 C
2574 04-09-2018 22:25:00 20.2 C 76 % 15.83 C
2575 04-09-2018 22:30:00 20.1 C 76 % 15.74 C
Sensor: Nr:Datum:Temp:Feuchte:Taupunkt:
Aussen-T/F 2576 04-09-2018 22:35:00 20.1 C 77 % 15.94 C
2577 04-09-2018 22:40:00 20.1 C 77 % 15.94 C
2578 04-09-2018 22:45:00 20 C 77 % 15.85 C
2579 04-09-2018 22:50:00 20 C 77 % 15.85 C
2580 04-09-2018 22:55:00 20 C 77 % 15.85 C
2581 04-09-2018 23:00:00 19.9 C 78 % 15.95 C
2582 04-09-2018 23:05:00 19.9 C 78 % 15.95 C
2583 04-09-2018 23:10:00 19.9 C 78 % 15.95 C
2584 04-09-2018 23:15:00 19.8 C 78 % 15.85 C
2585 04-09-2018 23:20:00 19.8 C 79 % 16.05 C
2586 04-09-2018 23:25:00 19.8 C 79 % 16.05 C
2587 04-09-2018 23:30:00 19.7 C 79 % 15.96 C
2588 04-09-2018 23:35:00 19.7 C 79 % 15.96 C
2589 04-09-2018 23:40:00 19.7 C 79 % 15.96 C
2590 04-09-2018 23:45:00 19.7 C 79 % 15.96 C
2591 04-09-2018 23:50:00 19.7 C 79 % 15.96 C
2592 04-09-2018 23:55:00 19.7 C 79 % 15.96 C
2593 05-09-2018 00:00:00 19.6 C 79 % 15.86 C
2594 05-09-2018 00:05:00 19.6 C 79 % 15.86 C
2595 05-09-2018 00:10:00 19.6 C 80 % 16.06 C
2596 05-09-2018 00:15:00 19.6 C 80 % 16.06 C
2597 05-09-2018 00:20:00 19.5 C 80 % 15.96 C
2598 05-09-2018 00:25:00 19.5 C 80 % 15.96 C
2599 05-09-2018 00:30:00 19.4 C 80 % 15.86 C
2600 05-09-2018 00:35:00 19.4 C 80 % 15.86 C
Sensor: Nr:Datum:Temp:Feuchte:Taupunkt:
Aussen-T/F 2601 05-09-2018 00:40:00 19.4 C 80 % 15.86 C
2602 05-09-2018 00:45:00 19.4 C 80 % 15.86 C
2603 05-09-2018 00:50:00 19.3 C 80 % 15.76 C
2604 05-09-2018 00:55:00 19.3 C 80 % 15.76 C
2605 05-09-2018 01:00:00 19.2 C 80 % 15.67 C
2606 05-09-2018 01:05:00 19.2 C 81 % 15.86 C
2607 05-09-2018 01:10:00 19.2 C 81 % 15.86 C
2608 05-09-2018 01:15:00 19.2 C 81 % 15.86 C
2609 05-09-2018 01:20:00 19.2 C 81 % 15.86 C
2610 05-09-2018 01:25:00 19.1 C 81 % 15.76 C
2611 05-09-2018 01:30:00 19.1 C 81 % 15.76 C
2612 05-09-2018 01:35:00 19.1 C 81 % 15.76 C
2613 05-09-2018 01:40:00 19.1 C 81 % 15.76 C
2614 05-09-2018 01:45:00 19.1 C 81 % 15.76 C
2615 05-09-2018 01:50:00 19 C 81 % 15.67 C
2616 05-09-2018 01:55:00 18.9 C 81 % 15.57 C
2617 05-09-2018 02:00:00 18.9 C 81 % 15.57 C
2618 05-09-2018 02:05:00 18.8 C 82 % 15.66 C
2619 05-09-2018 02:10:00 18.7 C 82 % 15.57 C
2620 05-09-2018 02:15:00 18.5 C 82 % 15.37 C
2621 05-09-2018 02:20:00 18.4 C 83 % 15.46 C
2622 05-09-2018 02:25:00 18.3 C 83 % 15.36 C
2623 05-09-2018 02:30:00 18.3 C 83 % 15.36 C
2624 05-09-2018 02:35:00 18.2 C 83 % 15.27 C
2625 05-09-2018 02:40:00 18.1 C 83 % 15.17 C
Sensor: Nr:Datum:Temp:Feuchte:Taupunkt:
Aussen-T/F 2626 05-09-2018 02:45:00 17.9 C 84 % 15.16 C
2627 05-09-2018 02:50:00 17.8 C 84 % 15.06 C
2628 05-09-2018 02:55:00 17.6 C 84 % 14.87 C
2629 05-09-2018 03:00:00 17.4 C 85 % 14.85 C
2630 05-09-2018 03:05:00 17.3 C 85 % 14.76 C
2631 05-09-2018 03:10:00 17.1 C 86 % 14.74 C
2632 05-09-2018 03:15:00 17.1 C 87 % 14.92 C
2633 05-09-2018 03:20:00 16.9 C 86 % 14.54 C
2634 05-09-2018 03:25:00 16.8 C 87 % 14.62 C
2635 05-09-2018 03:30:00 16.7 C 87 % 14.53 C
2636 05-09-2018 03:35:00 16.7 C 87 % 14.53 C
2637 05-09-2018 03:40:00 16.6 C 88 % 14.6 C
2638 05-09-2018 03:45:00 16.5 C 88 % 14.51 C
2639 05-09-2018 03:50:00 16.4 C 88 % 14.41 C
2640 05-09-2018 03:55:00 16.3 C 88 % 14.31 C
2641 05-09-2018 04:00:00 16.3 C 88 % 14.31 C
2642 05-09-2018 04:05:00 16.2 C 89 % 14.39 C
2643 05-09-2018 04:10:00 16.1 C 89 % 14.29 C
2644 05-09-2018 04:15:00 16 C 89 % 14.19 C
2645 05-09-2018 04:20:00 15.9 C 89 % 14.09 C
2646 05-09-2018 04:25:00 15.8 C 90 % 14.16 C
2647 05-09-2018 04:30:00 15.9 C 91 % 14.43 C
2648 05-09-2018 04:35:00 15.8 C 90 % 14.16 C
2649 05-09-2018 04:40:00 15.8 C 90 % 14.16 C
2650 05-09-2018 04:45:00 15.8 C 91 % 14.33 C
Sensor: Nr:Datum:Temp:Feuchte:Taupunkt:
Aussen-T/F 2651 05-09-2018 04:50:00 15.8 C 91 % 14.33 C
2652 05-09-2018 04:55:00 15.8 C 91 % 14.33 C
2653 05-09-2018 05:00:00 15.9 C 92 % 14.6 C
2654 05-09-2018 05:05:00 16 C 92 % 14.7 C
2655 05-09-2018 05:10:00 16.1 C 92 % 14.8 C
2656 05-09-2018 05:15:00 16.1 C 92 % 14.8 C
2657 05-09-2018 05:20:00 16.1 C 92 % 14.8 C
2658 05-09-2018 05:25:00 16.2 C 92 % 14.9 C
2659 05-09-2018 05:30:00 16.2 C 92 % 14.9 C
2660 05-09-2018 05:35:00 16.2 C 92 % 14.9 C
2661 05-09-2018 05:40:00 16.2 C 92 % 14.9 C
2662 05-09-2018 05:45:00 16.2 C 92 % 14.9 C
2663 05-09-2018 05:50:00 16.2 C 91 % 14.73 C
2664 05-09-2018 05:55:00 16.1 C 91 % 14.63 C
2665 05-09-2018 06:00:00 16.1 C 91 % 14.63 C
2666 05-09-2018 06:05:00 16.1 C 91 % 14.63 C
2667 05-09-2018 06:10:00 16 C 91 % 14.53 C
2668 05-09-2018 06:15:00 15.9 C 91 % 14.43 C
2669 05-09-2018 06:20:00 15.9 C 91 % 14.43 C
2670 05-09-2018 06:25:00 15.8 C 91 % 14.33 C
2671 05-09-2018 06:30:00 15.8 C 91 % 14.33 C
2672 05-09-2018 06:35:00 15.7 C 91 % 14.24 C
2673 05-09-2018 06:40:00 15.6 C 91 % 14.14 C
2674 05-09-2018 06:45:00 15.5 C 92 % 14.21 C
2675 05-09-2018 06:50:00 15.6 C 92 % 14.31 C
Sensor: Nr:Datum:Temp:Feuchte:Taupunkt:
Aussen-T/F 2676 05-09-2018 06:55:00 15.5 C 92 % 14.21 C
2677 05-09-2018 07:00:00 15.4 C 92 % 14.11 C
2678 05-09-2018 07:05:00 15.4 C 92 % 14.11 C
2679 05-09-2018 07:10:00 15.4 C 92 % 14.11 C
2680 05-09-2018 07:15:00 15.3 C 92 % 14.01 C
2681 05-09-2018 07:20:00 15.3 C 92 % 14.01 C
2682 05-09-2018 07:25:00 15.3 C 93 % 14.18 C
2683 05-09-2018 07:30:00 15.3 C 93 % 14.18 C
2684 05-09-2018 07:35:00 15.3 C 93 % 14.18 C
2685 05-09-2018 07:40:00 15.3 C 93 % 14.18 C
2686 05-09-2018 07:45:00 15.3 C 93 % 14.18 C
2687 05-09-2018 07:50:00 15.3 C 93 % 14.18 C
2688 05-09-2018 07:55:00 15.4 C 93 % 14.27 C
2689 05-09-2018 08:00:00 15.5 C 94 % 14.54 C
2690 05-09-2018 08:05:00 15.6 C 94 % 14.64 C
2691 05-09-2018 08:10:00 15.6 C 94 % 14.64 C
2692 05-09-2018 08:15:00 15.7 C 93 % 14.57 C
2693 05-09-2018 08:20:00 15.7 C 93 % 14.57 C
2694 05-09-2018 08:25:00 15.8 C 93 % 14.67 C
2695 05-09-2018 08:30:00 15.8 C 93 % 14.67 C
2696 05-09-2018 08:35:00 15.9 C 94 % 14.94 C
2697 05-09-2018 08:40:00 16 C 93 % 14.87 C
2698 05-09-2018 08:45:00 16 C 93 % 14.87 C
2699 05-09-2018 08:50:00 16.1 C 93 % 14.97 C
2700 05-09-2018 08:55:00 16.1 C 93 % 14.97 C
Sensor: Nr:Datum:Temp:Feuchte:Taupunkt:
Aussen-T/F 2701 05-09-2018 09:00:00 16.2 C 93 % 15.07 C
2702 05-09-2018 09:05:00 16.2 C 93 % 15.07 C
2703 05-09-2018 09:10:00 16.3 C 93 % 15.17 C
2704 05-09-2018 09:15:00 16.4 C 93 % 15.27 C
2705 05-09-2018 09:20:00 16.5 C 93 % 15.36 C
2706 05-09-2018 09:25:00 16.6 C 93 % 15.46 C
2707 05-09-2018 09:30:00 16.7 C 93 % 15.56 C
2708 05-09-2018 09:35:00 16.8 C 93 % 15.66 C
2709 05-09-2018 09:40:00 16.9 C 93 % 15.76 C
2710 05-09-2018 09:45:00 17 C 93 % 15.86 C
2711 05-09-2018 09:50:00 17.1 C 93 % 15.96 C
2712 05-09-2018 09:55:00 17.2 C 92 % 15.89 C
2713 05-09-2018 10:00:00 17.3 C 92 % 15.99 C
2714 05-09-2018 10:05:00 17.4 C 92 % 16.09 C
2715 05-09-2018 10:10:00 17.6 C 91 % 16.11 C
2716 05-09-2018 10:15:00 17.8 C 91 % 16.31 C
2717 05-09-2018 10:20:00 18 C 91 % 16.51 C
2718 05-09-2018 10:25:00 18.2 C 90 % 16.53 C
2719 05-09-2018 10:30:00 18.3 C 90 % 16.63 C
2720 05-09-2018 10:35:00 18.5 C 89 % 16.65 C
2721 05-09-2018 10:40:00 18.7 C 89 % 16.85 C
2722 05-09-2018 10:45:00 18.8 C 88 % 16.77 C
2723 05-09-2018 10:50:00 19 C 87 % 16.79 C
2724 05-09-2018 10:55:00 19.2 C 87 % 16.98 C
2725 05-09-2018 11:00:00 19.4 C 86 % 17 C
Sensor: Nr:Datum:Temp:Feuchte:Taupunkt:
Aussen-T/F 2726 05-09-2018 11:05:00 19.6 C 86 % 17.19 C
2727 05-09-2018 11:10:00 19.8 C 84 % 17.02 C
2728 05-09-2018 11:15:00 20 C 83 % 17.02 C
2729 05-09-2018 11:20:00 20.2 C 82 % 17.03 C
2730 05-09-2018 11:25:00 20.6 C 81 % 17.22 C
2731 05-09-2018 11:30:00 20.8 C 79 % 17.02 C
2732 05-09-2018 11:35:00 21.1 C 77 % 16.91 C
2733 05-09-2018 11:40:00 21.4 C 76 % 16.99 C
2734 05-09-2018 11:45:00 21.7 C 75 % 17.07 C
2735 05-09-2018 11:50:00 22 C 74 % 17.15 C
2736 05-09-2018 11:55:00 22.3 C 73 % 17.23 C
2737 05-09-2018 12:00:00 22.5 C 72 % 17.2 C
2738 05-09-2018 12:05:00 22.7 C 71 % 17.17 C
2739 05-09-2018 12:10:00 22.9 C 70 % 17.14 C
2740 05-09-2018 12:15:00 23.1 C 69 % 17.1 C
2741 05-09-2018 12:20:00 23.2 C 68 % 16.97 C
2742 05-09-2018 12:25:00 23.4 C 66 % 16.69 C
2743 05-09-2018 12:30:00 23.6 C 66 % 16.88 C
2744 05-09-2018 12:35:00 23.7 C 66 % 16.97 C
2745 05-09-2018 12:40:00 23.8 C 64 % 16.58 C
2746 05-09-2018 12:45:00 24.1 C 63 % 16.62 C
2747 05-09-2018 12:50:00 24.3 C 63 % 16.81 C
2748 05-09-2018 12:55:00 24.4 C 62 % 16.65 C
2749 05-09-2018 13:00:00 24.6 C 61 % 16.58 C
2750 05-09-2018 13:05:00 24.7 C 61 % 16.67 C
Sensor: Nr:Datum:Temp:Feuchte:Taupunkt:
Aussen-T/F 2751 05-09-2018 13:10:00 24.8 C 60 % 16.51 C
2752 05-09-2018 13:15:00 25.1 C 58 % 16.26 C
2753 05-09-2018 13:20:00 25.2 C 57 % 16.08 C
2754 05-09-2018 13:25:00 25.4 C 56 % 15.99 C
2755 05-09-2018 13:30:00 25.4 C 56 % 15.99 C
2756 05-09-2018 13:35:00 25.6 C 56 % 16.17 C
2757 05-09-2018 13:40:00 25.7 C 56 % 16.26 C
2758 05-09-2018 13:45:00 25.9 C 55 % 16.17 C
2759 05-09-2018 13:50:00 26.1 C 54 % 16.07 C
2760 05-09-2018 13:55:00 26.2 C 53 % 15.87 C
2761 05-09-2018 14:00:00 26.3 C 53 % 15.96 C
2762 05-09-2018 14:05:00 26.3 C 51 % 15.36 C
2763 05-09-2018 14:10:00 26.4 C 51 % 15.45 C
2764 05-09-2018 14:15:00 26.4 C 51 % 15.45 C
2765 05-09-2018 14:20:00 26.6 C 51 % 15.63 C
2766 05-09-2018 14:25:00 26.7 C 50 % 15.42 C
2767 05-09-2018 14:30:00 26.8 C 49 % 15.19 C
2768 05-09-2018 14:35:00 26.8 C 50 % 15.51 C
2769 05-09-2018 14:40:00 27 C 48 % 15.05 C
2770 05-09-2018 14:45:00 27.2 C 47 % 14.91 C
2771 05-09-2018 14:50:00 27.3 C 47 % 15 C
2772 05-09-2018 14:55:00 27.3 C 47 % 15 C
2773 05-09-2018 15:00:00 27.3 C 48 % 15.33 C
2774 05-09-2018 15:05:00 27.4 C 48 % 15.42 C
2775 05-09-2018 15:10:00 27.4 C 47 % 15.09 C
Sensor: Nr:Datum:Temp:Feuchte:Taupunkt:
Aussen-T/F 2776 05-09-2018 15:15:00 27.4 C 47 % 15.09 C
2777 05-09-2018 15:20:00 27.5 C 48 % 15.51 C
2778 05-09-2018 15:25:00 27.6 C 47 % 15.27 C
2779 05-09-2018 15:30:00 27.6 C 46 % 14.94 C
2780 05-09-2018 15:35:00 27.5 C 47 % 15.18 C
2781 05-09-2018 15:40:00 27.5 C 49 % 15.83 C
2782 05-09-2018 15:45:00 27.4 C 48 % 15.42 C
2783 05-09-2018 15:50:00 27.4 C 48 % 15.42 C
2784 05-09-2018 15:55:00 27.4 C 50 % 16.06 C
2785 05-09-2018 16:00:00 27.3 C 48 % 15.33 C
2786 05-09-2018 16:05:00 27.3 C 52 % 16.58 C
2787 05-09-2018 16:10:00 27.4 C 50 % 16.06 C
2788 05-09-2018 16:15:00 27.5 C 46 % 14.85 C
2789 05-09-2018 16:20:00 27.8 C 46 % 15.12 C
2790 05-09-2018 16:25:00 28 C 44 % 14.61 C
2791 05-09-2018 16:30:00 28.2 C 44 % 14.79 C
2792 05-09-2018 16:35:00 28.4 C 43 % 14.62 C
2793 05-09-2018 16:40:00 28.6 C 43 % 14.8 C
2794 05-09-2018 16:45:00 28.8 C 45 % 15.68 C
2795 05-09-2018 16:50:00 29.1 C 43 % 15.24 C
2796 05-09-2018 16:55:00 29.2 C 43 % 15.33 C
2797 05-09-2018 17:00:00 29.2 C 42 % 14.97 C
2798 05-09-2018 17:05:00 29.3 C 41 % 14.68 C
2799 05-09-2018 17:10:00 29.2 C 41 % 14.59 C
2800 05-09-2018 17:15:00 28.9 C 41 % 14.33 C
Sensor: Nr:Datum:Temp:Feuchte:Taupunkt:
Aussen-T/F 2801 05-09-2018 17:20:00 28.7 C 43 % 14.88 C
2802 05-09-2018 17:25:00 28.5 C 43 % 14.71 C
2803 05-09-2018 17:30:00 28.4 C 44 % 14.97 C
2804 05-09-2018 17:35:00 28.3 C 50 % 16.88 C
2805 05-09-2018 17:40:00 28.1 C 50 % 16.7 C
2806 05-09-2018 17:45:00 27.9 C 50 % 16.51 C
2807 05-09-2018 17:50:00 27.6 C 50 % 16.24 C
2808 05-09-2018 17:55:00 27.3 C 52 % 16.58 C
2809 05-09-2018 18:00:00 27.1 C 52 % 16.4 C
2810 05-09-2018 18:05:00 26.8 C 52 % 16.12 C
2811 05-09-2018 18:10:00 26.6 C 53 % 16.23 C
2812 05-09-2018 18:15:00 26.4 C 53 % 16.05 C
2813 05-09-2018 18:20:00 26.3 C 54 % 16.25 C
2814 05-09-2018 18:25:00 26.3 C 55 % 16.54 C
2815 05-09-2018 18:30:00 26.2 C 55 % 16.45 C
2816 05-09-2018 18:35:00 26.2 C 56 % 16.73 C
2817 05-09-2018 18:40:00 26.2 C 55 % 16.45 C
2818 05-09-2018 18:45:00 26.1 C 56 % 16.64 C
2819 05-09-2018 18:50:00 26 C 56 % 16.54 C
2820 05-09-2018 18:55:00 25.8 C 56 % 16.36 C
2821 05-09-2018 19:00:00 25.7 C 56 % 16.26 C
2822 05-09-2018 19:05:00 25.4 C 57 % 16.26 C
2823 05-09-2018 19:10:00 25.2 C 58 % 16.35 C
2824 05-09-2018 19:15:00 25 C 57 % 15.89 C
2825 05-09-2018 19:20:00 24.8 C 57 % 15.7 C
Sensor: Nr:Datum:Temp:Feuchte:Taupunkt:
Aussen-T/F 2826 05-09-2018 19:25:00 24.6 C 57 % 15.52 C
2827 05-09-2018 19:30:00 24.3 C 58 % 15.51 C
2828 05-09-2018 19:35:00 24.1 C 58 % 15.32 C
2829 05-09-2018 19:40:00 23.9 C 60 % 15.66 C
2830 05-09-2018 19:45:00 23.6 C 60 % 15.38 C
2831 05-09-2018 19:50:00 23.4 C 62 % 15.71 C
2832 05-09-2018 19:55:00 23.2 C 63 % 15.77 C
2833 05-09-2018 20:00:00 22.9 C 63 % 15.48 C
2834 05-09-2018 20:05:00 22.8 C 64 % 15.64 C
2835 05-09-2018 20:10:00 22.7 C 64 % 15.54 C
2836 05-09-2018 20:15:00 22.7 C 66 % 16.02 C
2837 05-09-2018 20:20:00 22.6 C 66 % 15.93 C
2838 05-09-2018 20:25:00 22.6 C 66 % 15.93 C
2839 05-09-2018 20:30:00 22.6 C 65 % 15.69 C
2840 05-09-2018 20:35:00 22.7 C 65 % 15.78 C
2841 05-09-2018 20:40:00 22.7 C 64 % 15.54 C
2842 05-09-2018 20:45:00 22.9 C 64 % 15.73 C
2843 05-09-2018 20:50:00 23 C 64 % 15.82 C
2844 05-09-2018 20:55:00 23.1 C 65 % 16.16 C
2845 05-09-2018 21:00:00 22.9 C 64 % 15.73 C
2846 05-09-2018 21:05:00 22.8 C 65 % 15.88 C
2847 05-09-2018 21:10:00 22.7 C 65 % 15.78 C
2848 05-09-2018 21:15:00 22.5 C 66 % 15.83 C
2849 05-09-2018 21:20:00 22.3 C 66 % 15.64 C
2850 05-09-2018 21:25:00 22.1 C 66 % 15.45 C
Sensor: Nr:Datum:Temp:Feuchte:Taupunkt:
Aussen-T/F 2851 05-09-2018 21:30:00 21.9 C 67 % 15.5 C
2852 05-09-2018 21:35:00 21.7 C 68 % 15.54 C
2853 05-09-2018 21:40:00 21.5 C 68 % 15.35 C
2854 05-09-2018 21:45:00 21.3 C 69 % 15.38 C
2855 05-09-2018 21:50:00 21.1 C 69 % 15.19 C
2856 05-09-2018 21:55:00 21 C 70 % 15.32 C
2857 05-09-2018 22:00:00 20.8 C 71 % 15.35 C
2858 05-09-2018 22:05:00 20.7 C 71 % 15.25 C
2859 05-09-2018 22:10:00 20.6 C 71 % 15.16 C
2860 05-09-2018 22:15:00 20.5 C 71 % 15.06 C
2861 05-09-2018 22:20:00 20.4 C 72 % 15.18 C
2862 05-09-2018 22:25:00 20.3 C 72 % 15.09 C
2863 05-09-2018 22:30:00 20.2 C 72 % 14.99 C
2864 05-09-2018 22:35:00 20.1 C 73 % 15.11 C
2865 05-09-2018 22:40:00 19.9 C 73 % 14.92 C
2866 05-09-2018 22:45:00 19.7 C 74 % 14.94 C
2867 05-09-2018 22:50:00 19.5 C 75 % 14.95 C
2868 05-09-2018 22:55:00 19.3 C 75 % 14.76 C
2869 05-09-2018 23:00:00 19.1 C 76 % 14.77 C
2870 05-09-2018 23:05:00 18.8 C 77 % 14.68 C
2871 05-09-2018 23:10:00 18.7 C 78 % 14.79 C
2872 05-09-2018 23:15:00 18.6 C 78 % 14.69 C
2873 05-09-2018 23:20:00 18.4 C 79 % 14.69 C
2874 05-09-2018 23:25:00 18.3 C 79 % 14.6 C
2875 05-09-2018 23:30:00 18.2 C 79 % 14.5 C
Sensor: Nr:Datum:Temp:Feuchte:Taupunkt:
Aussen-T/F 2876 05-09-2018 23:35:00 18.2 C 80 % 14.69 C
2877 05-09-2018 23:40:00 18.1 C 80 % 14.6 C
2878 05-09-2018 23:45:00 17.9 C 80 % 14.4 C
2879 05-09-2018 23:50:00 17.9 C 81 % 14.59 C
2880 05-09-2018 23:55:00 17.8 C 81 % 14.5 C
2881 06-09-2018 00:00:00 17.7 C 82 % 14.59 C
2882 06-09-2018 00:05:00 17.7 C 82 % 14.59 C
2883 06-09-2018 00:10:00 17.6 C 82 % 14.49 C
2884 06-09-2018 00:15:00 17.5 C 83 % 14.58 C
2885 06-09-2018 00:20:00 17.4 C 83 % 14.48 C
2886 06-09-2018 00:25:00 17.3 C 83 % 14.39 C
2887 06-09-2018 00:30:00 17.2 C 84 % 14.47 C
2888 06-09-2018 00:35:00 17.1 C 84 % 14.38 C
2889 06-09-2018 00:40:00 17 C 84 % 14.28 C
2890 06-09-2018 00:45:00 16.9 C 84 % 14.18 C
2891 06-09-2018 00:50:00 16.8 C 85 % 14.26 C
2892 06-09-2018 00:55:00 16.8 C 85 % 14.26 C
2893 06-09-2018 01:00:00 16.7 C 85 % 14.17 C
2894 06-09-2018 01:05:00 16.7 C 86 % 14.35 C
2895 06-09-2018 01:10:00 16.6 C 86 % 14.25 C
2896 06-09-2018 01:15:00 16.5 C 86 % 14.15 C
2897 06-09-2018 01:20:00 16.4 C 87 % 14.23 C
2898 06-09-2018 01:25:00 16.4 C 87 % 14.23 C
2899 06-09-2018 01:30:00 16.3 C 87 % 14.13 C
2900 06-09-2018 01:35:00 16.3 C 87 % 14.13 C
Sensor: Nr:Datum:Temp:Feuchte:Taupunkt:
Aussen-T/F 2901 06-09-2018 01:40:00 16.2 C 87 % 14.03 C
2902 06-09-2018 01:45:00 16.2 C 88 % 14.21 C
2903 06-09-2018 01:50:00 16.2 C 88 % 14.21 C
2904 06-09-2018 01:55:00 16.2 C 88 % 14.21 C
2905 06-09-2018 02:00:00 16.1 C 88 % 14.11 C
2906 06-09-2018 02:05:00 16.1 C 88 % 14.11 C
2907 06-09-2018 02:10:00 15.9 C 88 % 13.92 C
2908 06-09-2018 02:15:00 15.9 C 88 % 13.92 C
2909 06-09-2018 02:20:00 15.8 C 89 % 13.99 C
2910 06-09-2018 02:25:00 15.8 C 89 % 13.99 C
2911 06-09-2018 02:30:00 15.8 C 89 % 13.99 C
2912 06-09-2018 02:35:00 15.8 C 90 % 14.16 C
2913 06-09-2018 02:40:00 15.8 C 90 % 14.16 C
2914 06-09-2018 02:45:00 15.8 C 90 % 14.16 C
2915 06-09-2018 02:50:00 15.7 C 89 % 13.89 C
2916 06-09-2018 02:55:00 15.6 C 89 % 13.79 C
2917 06-09-2018 03:00:00 15.6 C 90 % 13.97 C
2918 06-09-2018 03:05:00 15.5 C 90 % 13.87 C
2919 06-09-2018 03:10:00 15.4 C 90 % 13.77 C
2920 06-09-2018 03:15:00 15.4 C 90 % 13.77 C
2921 06-09-2018 03:20:00 15.4 C 91 % 13.94 C
2922 06-09-2018 03:25:00 15.4 C 91 % 13.94 C
2923 06-09-2018 03:30:00 15.3 C 91 % 13.84 C
2924 06-09-2018 03:35:00 15.3 C 91 % 13.84 C
2925 06-09-2018 03:40:00 15.2 C 91 % 13.74 C
Sensor: Nr:Datum:Temp:Feuchte:Taupunkt:
Aussen-T/F 2926 06-09-2018 03:45:00 15.2 C 91 % 13.74 C
2927 06-09-2018 03:50:00 15.2 C 91 % 13.74 C
2928 06-09-2018 03:55:00 15.2 C 92 % 13.91 C
2929 06-09-2018 04:00:00 15.2 C 92 % 13.91 C
2930 06-09-2018 04:05:00 15.2 C 92 % 13.91 C
2931 06-09-2018 04:10:00 15.2 C 92 % 13.91 C
2932 06-09-2018 04:15:00 15.4 C 93 % 14.27 C
2933 06-09-2018 04:20:00 15.7 C 93 % 14.57 C
2934 06-09-2018 04:25:00 15.8 C 93 % 14.67 C
2935 06-09-2018 04:30:00 15.8 C 93 % 14.67 C
2936 06-09-2018 04:35:00 15.8 C 92 % 14.5 C
2937 06-09-2018 04:40:00 15.8 C 92 % 14.5 C
2938 06-09-2018 04:45:00 15.8 C 92 % 14.5 C
2939 06-09-2018 04:50:00 15.7 C 92 % 14.4 C
2940 06-09-2018 04:55:00 15.7 C 92 % 14.4 C
2941 06-09-2018 05:00:00 15.6 C 92 % 14.31 C
2942 06-09-2018 05:05:00 15.5 C 92 % 14.21 C
2943 06-09-2018 05:10:00 15.4 C 92 % 14.11 C
2944 06-09-2018 05:15:00 15.3 C 92 % 14.01 C
2945 06-09-2018 05:20:00 15.3 C 92 % 14.01 C
2946 06-09-2018 05:25:00 15.2 C 92 % 13.91 C
2947 06-09-2018 05:30:00 15.3 C 92 % 14.01 C
2948 06-09-2018 05:35:00 15.2 C 93 % 14.08 C
2949 06-09-2018 05:40:00 15.2 C 93 % 14.08 C
2950 06-09-2018 05:45:00 15.2 C 92 % 13.91 C
Sensor: Nr:Datum:Temp:Feuchte:Taupunkt:
Aussen-T/F 2951 06-09-2018 05:50:00 15.1 C 92 % 13.81 C
2952 06-09-2018 05:55:00 15 C 92 % 13.71 C
2953 06-09-2018 06:00:00 15 C 92 % 13.71 C
2954 06-09-2018 06:05:00 15 C 93 % 13.88 C
2955 06-09-2018 06:10:00 15.1 C 93 % 13.98 C
2956 06-09-2018 06:15:00 15.2 C 93 % 14.08 C
2957 06-09-2018 06:20:00 15.3 C 94 % 14.34 C
2958 06-09-2018 06:25:00 15.3 C 94 % 14.34 C
2959 06-09-2018 06:30:00 15.4 C 94 % 14.44 C
2960 06-09-2018 06:35:00 15.4 C 94 % 14.44 C
2961 06-09-2018 06:40:00 15.4 C 93 % 14.27 C
2962 06-09-2018 06:45:00 15.5 C 94 % 14.54 C
2963 06-09-2018 06:50:00 15.5 C 94 % 14.54 C
2964 06-09-2018 06:55:00 15.6 C 94 % 14.64 C
2965 06-09-2018 07:00:00 15.6 C 94 % 14.64 C
2966 06-09-2018 07:05:00 15.7 C 94 % 14.74 C
2967 06-09-2018 07:10:00 15.7 C 94 % 14.74 C
2968 06-09-2018 07:15:00 15.8 C 94 % 14.84 C
2969 06-09-2018 07:20:00 15.9 C 94 % 14.94 C
2970 06-09-2018 07:25:00 16.1 C 94 % 15.13 C
2971 06-09-2018 07:30:00 16.1 C 94 % 15.13 C
2972 06-09-2018 07:35:00 16.1 C 94 % 15.13 C
2973 06-09-2018 07:40:00 16.2 C 94 % 15.23 C
2974 06-09-2018 07:45:00 16.2 C 94 % 15.23 C
2975 06-09-2018 07:50:00 16.2 C 94 % 15.23 C
Sensor: Nr:Datum:Temp:Feuchte:Taupunkt:
Aussen-T/F 2976 06-09-2018 07:55:00 16.2 C 94 % 15.23 C
2977 06-09-2018 08:00:00 16.3 C 94 % 15.33 C
2978 06-09-2018 08:05:00 16.3 C 94 % 15.33 C
2979 06-09-2018 08:10:00 16.5 C 95 % 15.7 C
2980 06-09-2018 08:15:00 16.6 C 94 % 15.63 C
2981 06-09-2018 08:20:00 16.7 C 95 % 15.9 C
2982 06-09-2018 08:25:00 16.8 C 95 % 15.99 C
2983 06-09-2018 08:30:00 16.9 C 95 % 16.09 C
2984 06-09-2018 08:35:00 17.1 C 95 % 16.29 C
2985 06-09-2018 08:40:00 17.2 C 95 % 16.39 C
2986 06-09-2018 08:45:00 17.2 C 95 % 16.39 C
2987 06-09-2018 08:50:00 17.3 C 95 % 16.49 C
2988 06-09-2018 08:55:00 17.4 C 95 % 16.59 C
2989 06-09-2018 09:00:00 17.5 C 95 % 16.69 C
2990 06-09-2018 09:05:00 17.6 C 95 % 16.79 C
2991 06-09-2018 09:10:00 17.6 C 95 % 16.79 C
2992 06-09-2018 09:15:00 17.7 C 95 % 16.89 C
2993 06-09-2018 09:20:00 17.8 C 95 % 16.99 C
2994 06-09-2018 09:25:00 17.9 C 95 % 17.09 C
2995 06-09-2018 09:30:00 17.9 C 95 % 17.09 C
2996 06-09-2018 09:35:00 18 C 94 % 17.02 C
2997 06-09-2018 09:40:00 18.1 C 94 % 17.12 C
2998 06-09-2018 09:45:00 18.2 C 94 % 17.22 C
2999 06-09-2018 09:50:00 18.3 C 94 % 17.32 C
3000 06-09-2018 09:55:00 18.4 C 94 % 17.42 C
Sensor: Nr:Datum:Temp:Feuchte:Taupunkt:
Aussen-T/F 3001 06-09-2018 10:00:00 18.4 C 93 % 17.25 C
3002 06-09-2018 10:05:00 18.4 C 93 % 17.25 C
3003 06-09-2018 10:10:00 18.6 C 93 % 17.45 C
3004 06-09-2018 10:15:00 18.5 C 91 % 17 C
3005 06-09-2018 10:20:00 18.6 C 90 % 16.93 C
3006 06-09-2018 10:25:00 18.7 C 90 % 17.03 C
3007 06-09-2018 10:30:00 18.8 C 90 % 17.12 C
3008 06-09-2018 10:35:00 18.9 C 88 % 16.87 C
3009 06-09-2018 10:40:00 19 C 87 % 16.79 C
3010 06-09-2018 10:45:00 19.1 C 87 % 16.89 C
3011 06-09-2018 10:50:00 19.2 C 87 % 16.98 C
3012 06-09-2018 10:55:00 19.3 C 86 % 16.9 C
3013 06-09-2018 11:00:00 19.4 C 85 % 16.81 C
3014 06-09-2018 11:05:00 19.6 C 84 % 16.82 C
3015 06-09-2018 11:10:00 19.7 C 83 % 16.73 C
3016 06-09-2018 11:15:00 19.8 C 84 % 17.02 C
3017 06-09-2018 11:20:00 19.9 C 83 % 16.93 C
3018 06-09-2018 11:25:00 19.9 C 82 % 16.74 C
3019 06-09-2018 11:30:00 19.9 C 82 % 16.74 C
3020 06-09-2018 11:35:00 20 C 82 % 16.83 C
3021 06-09-2018 11:40:00 20.1 C 82 % 16.93 C
3022 06-09-2018 11:45:00 20.3 C 82 % 17.13 C
3023 06-09-2018 11:50:00 20.4 C 83 % 17.42 C
3024 06-09-2018 11:55:00 20.7 C 81 % 17.32 C
3025 06-09-2018 12:00:00 20.8 C 80 % 17.22 C
Sensor: Nr:Datum:Temp:Feuchte:Taupunkt:
Aussen-T/F 3026 06-09-2018 12:05:00 20.8 C 80 % 17.22 C
3027 06-09-2018 12:10:00 20.8 C 79 % 17.02 C
3028 06-09-2018 12:15:00 20.7 C 79 % 16.93 C
3029 06-09-2018 12:20:00 20.6 C 80 % 17.03 C
3030 06-09-2018 12:25:00 20.6 C 82 % 17.42 C
3031 06-09-2018 12:30:00 20.4 C 82 % 17.22 C
3032 06-09-2018 12:35:00 20.4 C 83 % 17.42 C
3033 06-09-2018 12:40:00 20.6 C 84 % 17.8 C
3034 06-09-2018 12:45:00 20.6 C 83 % 17.61 C
3035 06-09-2018 12:50:00 20.6 C 83 % 17.61 C
3036 06-09-2018 12:55:00 20.7 C 84 % 17.9 C
3037 06-09-2018 13:00:00 20.8 C 82 % 17.61 C
3038 06-09-2018 13:05:00 20.8 C 81 % 17.42 C
3039 06-09-2018 13:10:00 20.9 C 81 % 17.52 C
3040 06-09-2018 13:15:00 20.8 C 82 % 17.61 C
3041 06-09-2018 13:20:00 20.8 C 82 % 17.61 C
3042 06-09-2018 13:25:00 20.8 C 82 % 17.61 C
3043 06-09-2018 13:30:00 20.8 C 81 % 17.42 C
3044 06-09-2018 13:35:00 20.8 C 82 % 17.61 C
3045 06-09-2018 13:40:00 20.8 C 82 % 17.61 C
3046 06-09-2018 13:45:00 20.7 C 82 % 17.52 C
3047 06-09-2018 13:50:00 20.7 C 82 % 17.52 C
3048 06-09-2018 13:55:00 20.8 C 81 % 17.42 C
3049 06-09-2018 14:00:00 20.9 C 81 % 17.52 C
3050 06-09-2018 14:05:00 21.1 C 80 % 17.51 C
Sensor: Nr:Datum:Temp:Feuchte:Taupunkt:
Aussen-T/F 3051 06-09-2018 14:10:00 21.1 C 80 % 17.51 C
3052 06-09-2018 14:15:00 21.1 C 80 % 17.51 C
3053 06-09-2018 14:20:00 21.2 C 79 % 17.41 C
3054 06-09-2018 14:25:00 21.2 C 79 % 17.41 C
3055 06-09-2018 14:30:00 21.3 C 77 % 17.1 C
3056 06-09-2018 14:35:00 21.5 C 77 % 17.3 C
3057 06-09-2018 14:40:00 21.6 C 76 % 17.19 C
3058 06-09-2018 14:45:00 21.7 C 76 % 17.28 C
3059 06-09-2018 14:50:00 21.7 C 75 % 17.07 C
3060 06-09-2018 14:55:00 21.8 C 75 % 17.17 C
3061 06-09-2018 15:00:00 21.8 C 75 % 17.17 C
3062 06-09-2018 15:05:00 21.8 C 75 % 17.17 C
3063 06-09-2018 15:10:00 21.8 C 76 % 17.38 C
3064 06-09-2018 15:15:00 21.8 C 75 % 17.17 C
3065 06-09-2018 15:20:00 21.7 C 76 % 17.28 C
3066 06-09-2018 15:25:00 21.6 C 76 % 17.19 C
3067 06-09-2018 15:30:00 21.5 C 76 % 17.09 C
3068 06-09-2018 15:35:00 21.4 C 77 % 17.2 C
3069 06-09-2018 15:40:00 21.4 C 77 % 17.2 C
3070 06-09-2018 15:45:00 21.3 C 76 % 16.9 C
3071 06-09-2018 15:50:00 21.3 C 77 % 17.1 C
3072 06-09-2018 15:55:00 21.2 C 76 % 16.8 C
3073 06-09-2018 16:00:00 21.2 C 77 % 17.01 C
3074 06-09-2018 16:05:00 21.1 C 77 % 16.91 C
3075 06-09-2018 16:10:00 21.1 C 77 % 16.91 C
Sensor: Nr:Datum:Temp:Feuchte:Taupunkt:
Aussen-T/F 3076 06-09-2018 16:15:00 21.1 C 78 % 17.11 C
3077 06-09-2018 16:20:00 21.1 C 77 % 16.91 C
3078 06-09-2018 16:25:00 21.1 C 76 % 16.7 C
3079 06-09-2018 16:30:00 21.1 C 76 % 16.7 C
3080 06-09-2018 16:35:00 21.2 C 76 % 16.8 C
3081 06-09-2018 16:40:00 21.2 C 77 % 17.01 C
3082 06-09-2018 16:45:00 21.3 C 78 % 17.31 C
3083 06-09-2018 16:50:00 21.3 C 78 % 17.31 C
3084 06-09-2018 16:55:00 21.3 C 78 % 17.31 C
3085 06-09-2018 17:00:00 21.3 C 76 % 16.9 C
3086 06-09-2018 17:05:00 21.3 C 76 % 16.9 C
3087 06-09-2018 17:10:00 21.3 C 77 % 17.1 C
3088 06-09-2018 17:15:00 21.3 C 77 % 17.1 C
3089 06-09-2018 17:20:00 21.3 C 77 % 17.1 C
3090 06-09-2018 17:25:00 21.3 C 77 % 17.1 C
3091 06-09-2018 17:30:00 21.3 C 76 % 16.9 C
3092 06-09-2018 17:35:00 21.3 C 76 % 16.9 C
3093 06-09-2018 17:40:00 21.2 C 76 % 16.8 C
3094 06-09-2018 17:45:00 21.2 C 77 % 17.01 C
3095 06-09-2018 17:50:00 21.1 C 79 % 17.32 C
3096 06-09-2018 17:55:00 20.9 C 80 % 17.32 C
3097 06-09-2018 18:00:00 20.8 C 81 % 17.42 C
3098 06-09-2018 18:05:00 20.6 C 81 % 17.22 C
3099 06-09-2018 18:10:00 20.4 C 82 % 17.22 C
3100 06-09-2018 18:15:00 20.3 C 82 % 17.13 C
Sensor: Nr:Datum:Temp:Feuchte:Taupunkt:
Aussen-T/F 3101 06-09-2018 18:20:00 20.2 C 83 % 17.22 C
3102 06-09-2018 18:25:00 20.1 C 84 % 17.31 C
3103 06-09-2018 18:30:00 20 C 85 % 17.4 C
3104 06-09-2018 18:35:00 19.8 C 86 % 17.39 C
3105 06-09-2018 18:40:00 19.6 C 86 % 17.19 C
3106 06-09-2018 18:45:00 19.4 C 87 % 17.18 C
3107 06-09-2018 18:50:00 19.2 C 88 % 17.16 C
3108 06-09-2018 18:55:00 19.1 C 88 % 17.07 C
3109 06-09-2018 19:00:00 18.9 C 89 % 17.05 C
3110 06-09-2018 19:05:00 18.8 C 90 % 17.12 C
3111 06-09-2018 19:10:00 18.7 C 90 % 17.03 C
3112 06-09-2018 19:15:00 18.7 C 91 % 17.2 C
3113 06-09-2018 19:20:00 18.7 C 91 % 17.2 C
3114 06-09-2018 19:25:00 18.6 C 91 % 17.1 C
3115 06-09-2018 19:30:00 18.5 C 91 % 17 C
3116 06-09-2018 19:35:00 18.4 C 91 % 16.9 C
3117 06-09-2018 19:40:00 18.4 C 92 % 17.08 C
3118 06-09-2018 19:45:00 18.3 C 92 % 16.98 C
3119 06-09-2018 19:50:00 18.3 C 92 % 16.98 C
3120 06-09-2018 19:55:00 18.3 C 92 % 16.98 C
3121 06-09-2018 20:00:00 18.2 C 92 % 16.88 C
3122 06-09-2018 20:05:00 18.1 C 92 % 16.78 C
3123 06-09-2018 20:10:00 18.1 C 92 % 16.78 C
3124 06-09-2018 20:15:00 18.1 C 92 % 16.78 C
3125 06-09-2018 20:20:00 18 C 92 % 16.68 C
Sensor: Nr:Datum:Temp:Feuchte:Taupunkt:
Aussen-T/F 3126 06-09-2018 20:25:00 17.9 C 92 % 16.58 C
3127 06-09-2018 20:30:00 17.9 C 93 % 16.75 C
3128 06-09-2018 20:35:00 17.8 C 93 % 16.65 C
3129 06-09-2018 20:40:00 17.8 C 93 % 16.65 C
3130 06-09-2018 20:45:00 17.8 C 93 % 16.65 C
3131 06-09-2018 20:50:00 17.7 C 93 % 16.55 C
3132 06-09-2018 20:55:00 17.7 C 93 % 16.55 C
3133 06-09-2018 21:00:00 17.7 C 94 % 16.72 C
3134 06-09-2018 21:05:00 17.7 C 93 % 16.55 C
3135 06-09-2018 21:10:00 17.6 C 93 % 16.45 C
3136 06-09-2018 21:15:00 17.6 C 94 % 16.62 C
3137 06-09-2018 21:20:00 17.5 C 94 % 16.52 C
3138 06-09-2018 21:25:00 17.4 C 94 % 16.42 C
3139 06-09-2018 21:30:00 17.3 C 93 % 16.16 C
3140 06-09-2018 21:35:00 17.2 C 93 % 16.06 C
3141 06-09-2018 21:40:00 17.2 C 94 % 16.23 C
3142 06-09-2018 21:45:00 17.1 C 94 % 16.13 C
3143 06-09-2018 21:50:00 17.1 C 94 % 16.13 C
3144 06-09-2018 21:55:00 17 C 94 % 16.03 C
3145 06-09-2018 22:00:00 16.9 C 94 % 15.93 C
3146 06-09-2018 22:05:00 16.9 C 94 % 15.93 C
3147 06-09-2018 22:10:00 16.8 C 94 % 15.83 C
3148 06-09-2018 22:15:00 16.8 C 94 % 15.83 C
3149 06-09-2018 22:20:00 16.7 C 94 % 15.73 C
3150 06-09-2018 22:25:00 16.6 C 94 % 15.63 C
Sensor: Nr:Datum:Temp:Feuchte:Taupunkt:
Aussen-T/F 3151 06-09-2018 22:30:00 16.6 C 94 % 15.63 C
3152 06-09-2018 22:35:00 16.4 C 94 % 15.43 C
3153 06-09-2018 22:40:00 16.3 C 94 % 15.33 C
3154 06-09-2018 22:45:00 16.3 C 94 % 15.33 C
3155 06-09-2018 22:50:00 16.2 C 94 % 15.23 C
3156 06-09-2018 22:55:00 16.2 C 94 % 15.23 C
3157 06-09-2018 23:00:00 16.1 C 94 % 15.13 C
3158 06-09-2018 23:05:00 16.1 C 94 % 15.13 C
3159 06-09-2018 23:10:00 16 C 94 % 15.03 C
3160 06-09-2018 23:15:00 15.9 C 94 % 14.94 C
3161 06-09-2018 23:20:00 15.9 C 94 % 14.94 C
3162 06-09-2018 23:25:00 15.9 C 94 % 14.94 C
3163 06-09-2018 23:30:00 16 C 95 % 15.2 C
3164 06-09-2018 23:35:00 16.1 C 95 % 15.3 C
3165 06-09-2018 23:40:00 16.1 C 95 % 15.3 C
3166 06-09-2018 23:45:00 16.2 C 95 % 15.4 C
3167 06-09-2018 23:50:00 16.2 C 95 % 15.4 C
3168 06-09-2018 23:55:00 16.3 C 95 % 15.5 C
3169 07-09-2018 00:00:00 16.3 C 95 % 15.5 C
3170 07-09-2018 00:05:00 16.3 C 95 % 15.5 C
3171 07-09-2018 00:10:00 16.3 C 95 % 15.5 C
3172 07-09-2018 00:15:00 16.2 C 95 % 15.4 C
3173 07-09-2018 00:20:00 16.2 C 95 % 15.4 C
3174 07-09-2018 00:25:00 16.2 C 95 % 15.4 C
3175 07-09-2018 00:30:00 16.2 C 95 % 15.4 C
Sensor: Nr:Datum:Temp:Feuchte:Taupunkt:
Aussen-T/F 3176 07-09-2018 00:35:00 16.1 C 95 % 15.3 C
3177 07-09-2018 00:40:00 16.1 C 95 % 15.3 C
3178 07-09-2018 00:45:00 16.1 C 95 % 15.3 C
3179 07-09-2018 00:50:00 16.1 C 95 % 15.3 C
3180 07-09-2018 00:55:00 16.2 C 95 % 15.4 C
3181 07-09-2018 01:00:00 16.1 C 95 % 15.3 C
3182 07-09-2018 01:05:00 16.1 C 95 % 15.3 C
3183 07-09-2018 01:10:00 16.1 C 95 % 15.3 C
3184 07-09-2018 01:15:00 16.1 C 95 % 15.3 C
3185 07-09-2018 01:20:00 16.2 C 95 % 15.4 C
3186 07-09-2018 01:25:00 16.2 C 95 % 15.4 C
3187 07-09-2018 01:30:00 16.2 C 95 % 15.4 C
3188 07-09-2018 01:35:00 16.1 C 95 % 15.3 C
3189 07-09-2018 01:40:00 15.9 C 95 % 15.1 C
3190 07-09-2018 01:45:00 15.8 C 95 % 15 C
3191 07-09-2018 01:50:00 15.7 C 95 % 14.9 C
3192 07-09-2018 01:55:00 15.6 C 95 % 14.8 C
3193 07-09-2018 02:00:00 15.5 C 95 % 14.7 C
3194 07-09-2018 02:05:00 15.4 C 95 % 14.6 C
3195 07-09-2018 02:10:00 15.4 C 95 % 14.6 C
3196 07-09-2018 02:15:00 15.4 C 95 % 14.6 C
3197 07-09-2018 02:20:00 15.4 C 95 % 14.6 C
3198 07-09-2018 02:25:00 15.4 C 95 % 14.6 C
3199 07-09-2018 02:30:00 15.4 C 95 % 14.6 C
3200 07-09-2018 02:35:00 15.4 C 95 % 14.6 C
Sensor: Nr:Datum:Temp:Feuchte:Taupunkt:
Aussen-T/F 3201 07-09-2018 02:40:00 15.4 C 95 % 14.6 C
3202 07-09-2018 02:45:00 15.4 C 95 % 14.6 C
3203 07-09-2018 02:50:00 15.4 C 95 % 14.6 C
3204 07-09-2018 02:55:00 15.4 C 95 % 14.6 C
3205 07-09-2018 03:00:00 15.4 C 95 % 14.6 C
3206 07-09-2018 03:05:00 15.4 C 95 % 14.6 C
3207 07-09-2018 03:10:00 15.4 C 95 % 14.6 C
3208 07-09-2018 03:15:00 15.4 C 95 % 14.6 C
3209 07-09-2018 03:20:00 15.4 C 95 % 14.6 C
3210 07-09-2018 03:25:00 15.4 C 95 % 14.6 C
3211 07-09-2018 03:30:00 15.4 C 96 % 14.77 C
3212 07-09-2018 03:35:00 15.4 C 96 % 14.77 C
3213 07-09-2018 03:40:00 15.4 C 95 % 14.6 C
3214 07-09-2018 03:45:00 15.4 C 95 % 14.6 C
3215 07-09-2018 03:50:00 15.4 C 95 % 14.6 C
3216 07-09-2018 03:55:00 15.3 C 95 % 14.5 C
3217 07-09-2018 04:00:00 15.3 C 95 % 14.5 C
3218 07-09-2018 04:05:00 15.3 C 95 % 14.5 C
3219 07-09-2018 04:10:00 15.3 C 95 % 14.5 C
3220 07-09-2018 04:15:00 15.3 C 95 % 14.5 C
3221 07-09-2018 04:20:00 15.3 C 95 % 14.5 C
3222 07-09-2018 04:25:00 15.2 C 95 % 14.4 C
3223 07-09-2018 04:30:00 15.2 C 95 % 14.4 C
3224 07-09-2018 04:35:00 15.2 C 95 % 14.4 C
3225 07-09-2018 04:40:00 15.3 C 95 % 14.5 C
Sensor: Nr:Datum:Temp:Feuchte:Taupunkt:
Aussen-T/F 3226 07-09-2018 04:45:00 15.3 C 95 % 14.5 C
3227 07-09-2018 04:50:00 15.3 C 95 % 14.5 C
3228 07-09-2018 04:55:00 15.3 C 95 % 14.5 C
3229 07-09-2018 05:00:00 15.3 C 95 % 14.5 C
3230 07-09-2018 05:05:00 15.3 C 95 % 14.5 C
3231 07-09-2018 05:10:00 15.3 C 95 % 14.5 C
3232 07-09-2018 05:15:00 15.3 C 95 % 14.5 C
3233 07-09-2018 05:20:00 15.3 C 95 % 14.5 C
3234 07-09-2018 05:25:00 15.3 C 95 % 14.5 C
3235 07-09-2018 05:30:00 15.3 C 95 % 14.5 C
3236 07-09-2018 05:35:00 15.3 C 95 % 14.5 C
3237 07-09-2018 05:40:00 15.3 C 95 % 14.5 C
3238 07-09-2018 05:45:00 15.3 C 95 % 14.5 C
3239 07-09-2018 05:50:00 15.2 C 95 % 14.4 C
3240 07-09-2018 05:55:00 14.9 C 95 % 14.11 C
3241 07-09-2018 06:00:00 14.7 C 94 % 13.74 C
3242 07-09-2018 06:05:00 14.6 C 94 % 13.65 C
3243 07-09-2018 06:10:00 14.4 C 94 % 13.45 C
3244 07-09-2018 06:15:00 14.3 C 95 % 13.51 C
3245 07-09-2018 06:20:00 14.2 C 95 % 13.41 C
3246 07-09-2018 06:25:00 14.1 C 94 % 13.15 C
3247 07-09-2018 06:30:00 13.9 C 94 % 12.95 C
3248 07-09-2018 06:35:00 13.8 C 94 % 12.85 C
3249 07-09-2018 06:40:00 13.7 C 94 % 12.75 C
3250 07-09-2018 06:45:00 13.7 C 95 % 12.91 C
Sensor: Nr:Datum:Temp:Feuchte:Taupunkt:
Aussen-T/F 3251 07-09-2018 06:50:00 13.7 C 95 % 12.91 C
3252 07-09-2018 06:55:00 13.7 C 95 % 12.91 C
3253 07-09-2018 07:00:00 13.7 C 95 % 12.91 C
3254 07-09-2018 07:05:00 13.7 C 95 % 12.91 C
3255 07-09-2018 07:10:00 13.7 C 95 % 12.91 C
3256 07-09-2018 07:15:00 13.7 C 95 % 12.91 C
3257 07-09-2018 07:20:00 13.8 C 95 % 13.01 C
3258 07-09-2018 07:25:00 13.8 C 95 % 13.01 C
3259 07-09-2018 07:30:00 13.8 C 95 % 13.01 C
3260 07-09-2018 07:35:00 13.9 C 95 % 13.11 C
3261 07-09-2018 07:40:00 13.9 C 96 % 13.27 C
3262 07-09-2018 07:45:00 14.1 C 96 % 13.47 C
3263 07-09-2018 07:50:00 14.2 C 96 % 13.57 C
3264 07-09-2018 07:55:00 14.2 C 96 % 13.57 C
3265 07-09-2018 08:00:00 14.3 C 96 % 13.67 C
3266 07-09-2018 08:05:00 14.4 C 96 % 13.77 C
3267 07-09-2018 08:10:00 14.5 C 96 % 13.87 C
3268 07-09-2018 08:15:00 14.6 C 96 % 13.97 C
3269 07-09-2018 08:20:00 14.7 C 96 % 14.07 C
3270 07-09-2018 08:25:00 14.8 C 96 % 14.17 C
3271 07-09-2018 08:30:00 14.8 C 96 % 14.17 C
3272 07-09-2018 08:35:00 14.8 C 96 % 14.17 C
3273 07-09-2018 08:40:00 14.9 C 96 % 14.27 C
3274 07-09-2018 08:45:00 14.9 C 96 % 14.27 C
3275 07-09-2018 08:50:00 15 C 96 % 14.37 C
Sensor: Nr:Datum:Temp:Feuchte:Taupunkt:
Aussen-T/F 3276 07-09-2018 08:55:00 15.1 C 96 % 14.47 C
3277 07-09-2018 09:00:00 15.1 C 96 % 14.47 C
3278 07-09-2018 09:05:00 15.1 C 96 % 14.47 C
3279 07-09-2018 09:10:00 15.2 C 96 % 14.57 C
3280 07-09-2018 09:15:00 15.2 C 96 % 14.57 C
3281 07-09-2018 09:20:00 15.2 C 96 % 14.57 C
3282 07-09-2018 09:25:00 15.3 C 96 % 14.67 C
3283 07-09-2018 09:30:00 15.3 C 96 % 14.67 C
3284 07-09-2018 09:35:00 15.5 C 96 % 14.86 C
3285 07-09-2018 09:40:00 15.7 C 96 % 15.06 C
3286 07-09-2018 09:45:00 15.8 C 96 % 15.16 C
3287 07-09-2018 09:50:00 16 C 96 % 15.36 C
3288 07-09-2018 09:55:00 16.2 C 96 % 15.56 C
3289 07-09-2018 10:00:00 16.2 C 94 % 15.23 C
3290 07-09-2018 10:05:00 16.3 C 93 % 15.17 C
3291 07-09-2018 10:10:00 16.4 C 92 % 15.1 C
3292 07-09-2018 10:15:00 16.7 C 90 % 15.05 C
3293 07-09-2018 10:20:00 16.8 C 89 % 14.98 C
3294 07-09-2018 10:25:00 17 C 87 % 14.82 C
3295 07-09-2018 10:30:00 17.2 C 85 % 14.66 C
3296 07-09-2018 10:35:00 17.3 C 84 % 14.57 C
3297 07-09-2018 10:40:00 17.4 C 83 % 14.48 C
3298 07-09-2018 10:45:00 17.6 C 82 % 14.49 C
3299 07-09-2018 10:50:00 17.8 C 82 % 14.69 C
3300 07-09-2018 10:55:00 17.9 C 80 % 14.4 C
Sensor: Nr:Datum:Temp:Feuchte:Taupunkt:
Aussen-T/F 3301 07-09-2018 11:00:00 18.1 C 79 % 14.4 C
3302 07-09-2018 11:05:00 18.1 C 76 % 13.81 C
3303 07-09-2018 11:10:00 18.1 C 77 % 14.01 C
3304 07-09-2018 11:15:00 18.1 C 75 % 13.6 C
3305 07-09-2018 11:20:00 18.2 C 75 % 13.7 C
3306 07-09-2018 11:25:00 18.3 C 74 % 13.59 C
3307 07-09-2018 11:30:00 18.4 C 74 % 13.68 C
3308 07-09-2018 11:35:00 18.6 C 75 % 14.08 C
3309 07-09-2018 11:40:00 18.7 C 73 % 13.76 C
3310 07-09-2018 11:45:00 18.8 C 74 % 14.07 C
3311 07-09-2018 11:50:00 18.9 C 73 % 13.96 C
3312 07-09-2018 11:55:00 19.1 C 73 % 14.15 C
3313 07-09-2018 12:00:00 19.2 C 71 % 13.82 C
3314 07-09-2018 12:05:00 19.3 C 71 % 13.91 C
3315 07-09-2018 12:10:00 19.3 C 71 % 13.91 C
3316 07-09-2018 12:15:00 19.4 C 70 % 13.79 C
3317 07-09-2018 12:20:00 19.3 C 71 % 13.91 C
3318 07-09-2018 12:25:00 19.3 C 71 % 13.91 C
3319 07-09-2018 12:30:00 19.2 C 71 % 13.82 C
3320 07-09-2018 12:35:00 19 C 71 % 13.63 C
3321 07-09-2018 12:40:00 18.8 C 72 % 13.65 C
3322 07-09-2018 12:45:00 18.7 C 73 % 13.76 C
3323 07-09-2018 12:50:00 18.6 C 74 % 13.88 C
3324 07-09-2018 12:55:00 18.4 C 74 % 13.68 C
3325 07-09-2018 13:00:00 18.4 C 74 % 13.68 C
Sensor: Nr:Datum:Temp:Feuchte:Taupunkt:
Aussen-T/F 3326 07-09-2018 13:05:00 18.4 C 75 % 13.89 C
3327 07-09-2018 13:10:00 18.5 C 75 % 13.99 C
3328 07-09-2018 13:15:00 18.6 C 75 % 14.08 C
3329 07-09-2018 13:20:00 18.6 C 75 % 14.08 C
3330 07-09-2018 13:25:00 18.8 C 74 % 14.07 C
3331 07-09-2018 13:30:00 18.8 C 74 % 14.07 C
3332 07-09-2018 13:35:00 18.7 C 74 % 13.97 C
3333 07-09-2018 13:40:00 18.7 C 74 % 13.97 C
3334 07-09-2018 13:45:00 18.7 C 74 % 13.97 C
3335 07-09-2018 13:50:00 18.8 C 74 % 14.07 C
3336 07-09-2018 13:55:00 18.9 C 75 % 14.37 C
3337 07-09-2018 14:00:00 19.1 C 73 % 14.15 C
3338 07-09-2018 14:05:00 19.2 C 72 % 14.03 C
3339 07-09-2018 14:10:00 19.3 C 73 % 14.34 C
3340 07-09-2018 14:15:00 19.4 C 72 % 14.22 C
3341 07-09-2018 14:20:00 19.4 C 72 % 14.22 C
3342 07-09-2018 14:25:00 19.4 C 72 % 14.22 C
3343 07-09-2018 14:30:00 19.3 C 72 % 14.13 C
3344 07-09-2018 14:35:00 19.3 C 72 % 14.13 C
3345 07-09-2018 14:40:00 19.3 C 72 % 14.13 C
3346 07-09-2018 14:45:00 19.3 C 71 % 13.91 C
3347 07-09-2018 14:50:00 19.6 C 71 % 14.2 C
3348 07-09-2018 14:55:00 19.7 C 70 % 14.08 C
3349 07-09-2018 15:00:00 19.7 C 70 % 14.08 C
3350 07-09-2018 15:05:00 19.7 C 71 % 14.3 C
Sensor: Nr:Datum:Temp:Feuchte:Taupunkt:
Aussen-T/F 3351 07-09-2018 15:10:00 19.6 C 71 % 14.2 C
3352 07-09-2018 15:15:00 19.5 C 71 % 14.1 C
3353 07-09-2018 15:20:00 19.4 C 72 % 14.22 C
3354 07-09-2018 15:25:00 19.3 C 72 % 14.13 C
3355 07-09-2018 15:30:00 19.2 C 73 % 14.25 C
3356 07-09-2018 15:35:00 18.9 C 77 % 14.78 C
3357 07-09-2018 15:40:00 18.7 C 79 % 14.99 C
3358 07-09-2018 15:45:00 18.7 C 80 % 15.18 C
3359 07-09-2018 15:50:00 18.6 C 79 % 14.89 C
3360 07-09-2018 15:55:00 18.4 C 79 % 14.69 C
3361 07-09-2018 16:00:00 18.4 C 80 % 14.89 C
3362 07-09-2018 16:05:00 18.2 C 79 % 14.5 C
3363 07-09-2018 16:10:00 17.8 C 79 % 14.11 C
3364 07-09-2018 16:15:00 17.4 C 80 % 13.92 C
3365 07-09-2018 16:20:00 17.1 C 82 % 14 C
3366 07-09-2018 16:25:00 16.5 C 83 % 13.6 C
3367 07-09-2018 16:30:00 16.2 C 84 % 13.5 C
3368 07-09-2018 16:35:00 16 C 85 % 13.48 C
3369 07-09-2018 16:40:00 15.9 C 85 % 13.38 C
3370 07-09-2018 16:45:00 15.8 C 86 % 13.46 C
3371 07-09-2018 16:50:00 15.7 C 87 % 13.54 C
3372 07-09-2018 16:55:00 15.6 C 88 % 13.62 C
3373 07-09-2018 17:00:00 15.6 C 88 % 13.62 C
3374 07-09-2018 17:05:00 15.6 C 90 % 13.97 C
3375 07-09-2018 17:10:00 15.6 C 90 % 13.97 C
Sensor: Nr:Datum:Temp:Feuchte:Taupunkt:
Aussen-T/F 3376 07-09-2018 17:15:00 15.5 C 89 % 13.7 C
3377 07-09-2018 17:20:00 15.5 C 89 % 13.7 C
3378 07-09-2018 17:25:00 15.6 C 87 % 13.45 C
3379 07-09-2018 17:30:00 15.6 C 87 % 13.45 C
3380 07-09-2018 17:35:00 15.7 C 88 % 13.72 C
3381 07-09-2018 17:40:00 15.8 C 85 % 13.28 C
3382 07-09-2018 17:45:00 16 C 85 % 13.48 C
3383 07-09-2018 17:50:00 16.2 C 84 % 13.5 C
3384 07-09-2018 17:55:00 16.3 C 84 % 13.59 C
3385 07-09-2018 18:00:00 16.3 C 83 % 13.41 C
3386 07-09-2018 18:05:00 16.3 C 82 % 13.22 C
3387 07-09-2018 18:10:00 16.3 C 83 % 13.41 C
3388 07-09-2018 18:15:00 16.4 C 86 % 14.05 C
3389 07-09-2018 18:20:00 16.5 C 86 % 14.15 C
3390 07-09-2018 18:25:00 16.6 C 87 % 14.43 C
3391 07-09-2018 18:30:00 16.5 C 86 % 14.15 C
3392 07-09-2018 18:35:00 16.4 C 87 % 14.23 C
3393 07-09-2018 18:40:00 16.3 C 87 % 14.13 C
3394 07-09-2018 18:45:00 16.3 C 87 % 14.13 C
3395 07-09-2018 18:50:00 16.2 C 88 % 14.21 C
3396 07-09-2018 18:55:00 16.1 C 86 % 13.76 C
3397 07-09-2018 19:00:00 16 C 88 % 14.01 C
3398 07-09-2018 19:05:00 16 C 88 % 14.01 C
3399 07-09-2018 19:10:00 16.2 C 89 % 14.39 C
3400 07-09-2018 19:15:00 16.4 C 90 % 14.76 C
Sensor: Nr:Datum:Temp:Feuchte:Taupunkt:
Aussen-T/F 3401 07-09-2018 19:20:00 16.6 C 87 % 14.43 C
3402 07-09-2018 19:25:00 16.5 C 79 % 12.85 C
3403 07-09-2018 19:30:00 16.4 C 75 % 11.96 C
3404 07-09-2018 19:35:00 16.4 C 78 % 12.56 C
3405 07-09-2018 19:40:00 16.3 C 78 % 12.46 C
3406 07-09-2018 19:45:00 15.9 C 78 % 12.07 C
3407 07-09-2018 19:50:00 15.6 C 79 % 11.97 C
3408 07-09-2018 19:55:00 15.3 C 80 % 11.87 C
3409 07-09-2018 20:00:00 15.1 C 81 % 11.87 C
3410 07-09-2018 20:05:00 14.8 C 81 % 11.57 C
3411 07-09-2018 20:10:00 14.4 C 81 % 11.18 C
3412 07-09-2018 20:15:00 14.2 C 82 % 11.17 C
3413 07-09-2018 20:20:00 13.9 C 82 % 10.88 C
3414 07-09-2018 20:25:00 13.8 C 84 % 11.15 C
3415 07-09-2018 20:30:00 13.6 C 84 % 10.95 C
3416 07-09-2018 20:35:00 13.4 C 84 % 10.75 C
3417 07-09-2018 20:40:00 13.2 C 84 % 10.56 C
3418 07-09-2018 20:45:00 13.2 C 85 % 10.74 C
3419 07-09-2018 20:50:00 13.1 C 84 % 10.46 C
3420 07-09-2018 20:55:00 12.9 C 84 % 10.26 C
3421 07-09-2018 21:00:00 12.8 C 84 % 10.17 C
3422 07-09-2018 21:05:00 12.8 C 84 % 10.17 C
3423 07-09-2018 21:10:00 12.7 C 84 % 10.07 C
3424 07-09-2018 21:15:00 12.7 C 84 % 10.07 C
3425 07-09-2018 21:20:00 12.7 C 84 % 10.07 C
Sensor: Nr:Datum:Temp:Feuchte:Taupunkt:
Aussen-T/F 3426 07-09-2018 21:25:00 12.7 C 84 % 10.07 C
3427 07-09-2018 21:30:00 12.6 C 85 % 10.15 C
3428 07-09-2018 21:35:00 12.6 C 84 % 9.97 C
3429 07-09-2018 21:40:00 12.4 C 85 % 9.95 C
3430 07-09-2018 21:45:00 12.4 C 85 % 9.95 C
3431 07-09-2018 21:50:00 12.3 C 86 % 10.03 C
3432 07-09-2018 21:55:00 12.3 C 86 % 10.03 C
3433 07-09-2018 22:00:00 12.2 C 86 % 9.93 C
3434 07-09-2018 22:05:00 12.2 C 86 % 9.93 C
3435 07-09-2018 22:10:00 12.1 C 86 % 9.83 C
3436 07-09-2018 22:15:00 12 C 86 % 9.73 C
3437 07-09-2018 22:20:00 11.9 C 87 % 9.81 C
3438 07-09-2018 22:25:00 11.8 C 87 % 9.71 C
3439 07-09-2018 22:30:00 11.8 C 87 % 9.71 C
3440 07-09-2018 22:35:00 11.7 C 87 % 9.61 C
3441 07-09-2018 22:40:00 11.7 C 87 % 9.61 C
3442 07-09-2018 22:45:00 11.6 C 88 % 9.68 C
3443 07-09-2018 22:50:00 11.5 C 87 % 9.41 C
3444 07-09-2018 22:55:00 11.4 C 87 % 9.32 C
3445 07-09-2018 23:00:00 11.3 C 88 % 9.39 C
3446 07-09-2018 23:05:00 11.3 C 88 % 9.39 C
3447 07-09-2018 23:10:00 11.2 C 88 % 9.29 C
3448 07-09-2018 23:15:00 11.2 C 88 % 9.29 C
3449 07-09-2018 23:20:00 11.1 C 88 % 9.19 C
3450 07-09-2018 23:25:00 11 C 88 % 9.09 C
Sensor: Nr:Datum:Temp:Feuchte:Taupunkt:
Aussen-T/F 3451 07-09-2018 23:30:00 10.9 C 88 % 8.99 C
3452 07-09-2018 23:35:00 10.8 C 88 % 8.89 C
3453 07-09-2018 23:40:00 10.7 C 88 % 8.8 C
3454 07-09-2018 23:45:00 10.6 C 88 % 8.7 C
3455 07-09-2018 23:50:00 10.4 C 88 % 8.5 C
3456 07-09-2018 23:55:00 10.3 C 89 % 8.57 C
3457 08-09-2018 00:00:00 10.2 C 89 % 8.47 C
3458 08-09-2018 00:05:00 10.1 C 89 % 8.37 C
3459 08-09-2018 00:10:00 10.1 C 89 % 8.37 C
3460 08-09-2018 00:15:00 9.9 C 89 % 8.17 C
3461 08-09-2018 00:20:00 9.9 C 89 % 8.17 C
3462 08-09-2018 00:25:00 9.8 C 90 % 8.24 C
3463 08-09-2018 00:30:00 9.8 C 90 % 8.24 C
3464 08-09-2018 00:35:00 9.7 C 90 % 8.14 C
3465 08-09-2018 00:40:00 9.7 C 90 % 8.14 C
3466 08-09-2018 00:45:00 9.7 C 90 % 8.14 C
3467 08-09-2018 00:50:00 9.6 C 90 % 8.04 C
3468 08-09-2018 00:55:00 9.6 C 90 % 8.04 C
3469 08-09-2018 01:00:00 9.6 C 90 % 8.04 C
3470 08-09-2018 01:05:00 9.5 C 91 % 8.11 C
3471 08-09-2018 01:10:00 9.5 C 91 % 8.11 C
3472 08-09-2018 01:15:00 9.5 C 91 % 8.11 C
3473 08-09-2018 01:20:00 9.4 C 91 % 8.01 C
3474 08-09-2018 01:25:00 9.4 C 91 % 8.01 C
3475 08-09-2018 01:30:00 9.4 C 91 % 8.01 C
Sensor: Nr:Datum:Temp:Feuchte:Taupunkt:
Aussen-T/F 3476 08-09-2018 01:35:00 9.4 C 91 % 8.01 C
3477 08-09-2018 01:40:00 9.4 C 91 % 8.01 C
3478 08-09-2018 01:45:00 9.4 C 91 % 8.01 C
3479 08-09-2018 01:50:00 9.3 C 91 % 7.91 C
3480 08-09-2018 01:55:00 9.4 C 92 % 8.17 C
3481 08-09-2018 02:00:00 9.3 C 92 % 8.07 C
3482 08-09-2018 02:05:00 9.3 C 92 % 8.07 C
3483 08-09-2018 02:10:00 9.3 C 92 % 8.07 C
3484 08-09-2018 02:15:00 9.3 C 92 % 8.07 C
3485 08-09-2018 02:20:00 9.3 C 92 % 8.07 C
3486 08-09-2018 02:25:00 9.3 C 92 % 8.07 C
3487 08-09-2018 02:30:00 9.3 C 92 % 8.07 C
3488 08-09-2018 02:35:00 9.3 C 92 % 8.07 C
3489 08-09-2018 02:40:00 9.2 C 92 % 7.97 C
3490 08-09-2018 02:45:00 9.2 C 92 % 7.97 C
3491 08-09-2018 02:50:00 9.2 C 92 % 7.97 C
3492 08-09-2018 02:55:00 9.1 C 92 % 7.87 C
3493 08-09-2018 03:00:00 9.1 C 92 % 7.87 C
3494 08-09-2018 03:05:00 9 C 92 % 7.77 C
3495 08-09-2018 03:10:00 8.9 C 92 % 7.67 C
3496 08-09-2018 03:15:00 8.9 C 93 % 7.83 C
3497 08-09-2018 03:20:00 8.8 C 93 % 7.73 C
3498 08-09-2018 03:25:00 8.8 C 93 % 7.73 C
3499 08-09-2018 03:30:00 8.8 C 93 % 7.73 C
3500 08-09-2018 03:35:00 8.8 C 93 % 7.73 C
Sensor: Nr:Datum:Temp:Feuchte:Taupunkt:
Aussen-T/F 3501 08-09-2018 03:40:00 8.7 C 93 % 7.63 C
3502 08-09-2018 03:45:00 8.7 C 93 % 7.63 C
3503 08-09-2018 03:50:00 8.5 C 92 % 7.28 C
3504 08-09-2018 03:55:00 8.4 C 93 % 7.34 C
3505 08-09-2018 04:00:00 8.3 C 93 % 7.24 C
3506 08-09-2018 04:05:00 8.3 C 93 % 7.24 C
3507 08-09-2018 04:10:00 8.2 C 93 % 7.14 C
3508 08-09-2018 04:15:00 8.1 C 93 % 7.04 C
3509 08-09-2018 04:20:00 8.1 C 93 % 7.04 C
3510 08-09-2018 04:25:00 8 C 93 % 6.94 C
3511 08-09-2018 04:30:00 7.9 C 93 % 6.84 C
3512 08-09-2018 04:35:00 7.9 C 93 % 6.84 C
3513 08-09-2018 04:40:00 7.8 C 93 % 6.74 C
3514 08-09-2018 04:45:00 7.8 C 93 % 6.74 C
3515 08-09-2018 04:50:00 7.8 C 93 % 6.74 C
3516 08-09-2018 04:55:00 7.8 C 94 % 6.9 C
3517 08-09-2018 05:00:00 7.9 C 94 % 7 C
3518 08-09-2018 05:05:00 8 C 94 % 7.09 C
3519 08-09-2018 05:10:00 7.8 C 93 % 6.74 C
3520 08-09-2018 05:15:00 7.7 C 93 % 6.64 C
3521 08-09-2018 05:20:00 7.7 C 94 % 6.8 C
3522 08-09-2018 05:25:00 7.7 C 94 % 6.8 C
3523 08-09-2018 05:30:00 7.6 C 93 % 6.54 C
3524 08-09-2018 05:35:00 7.4 C 93 % 6.34 C
3525 08-09-2018 05:40:00 7.4 C 94 % 6.5 C
Sensor: Nr:Datum:Temp:Feuchte:Taupunkt:
Aussen-T/F 3526 08-09-2018 05:45:00 7.5 C 94 % 6.6 C
3527 08-09-2018 05:50:00 7.5 C 94 % 6.6 C
3528 08-09-2018 05:55:00 7.4 C 94 % 6.5 C
3529 08-09-2018 06:00:00 7.5 C 94 % 6.6 C
3530 08-09-2018 06:05:00 7.6 C 95 % 6.85 C
3531 08-09-2018 06:10:00 7.7 C 95 % 6.95 C
3532 08-09-2018 06:15:00 7.8 C 95 % 7.05 C
3533 08-09-2018 06:20:00 7.8 C 94 % 6.9 C
3534 08-09-2018 06:25:00 7.6 C 94 % 6.7 C
3535 08-09-2018 06:30:00 7.4 C 94 % 6.5 C
3536 08-09-2018 06:35:00 7.3 C 94 % 6.4 C
3537 08-09-2018 06:40:00 7.2 C 94 % 6.3 C
3538 08-09-2018 06:45:00 7.1 C 94 % 6.2 C
3539 08-09-2018 06:50:00 7 C 94 % 6.1 C
3540 08-09-2018 06:55:00 6.9 C 94 % 6 C
3541 08-09-2018 07:00:00 6.9 C 94 % 6 C
3542 08-09-2018 07:05:00 6.8 C 94 % 5.9 C
3543 08-09-2018 07:10:00 6.8 C 94 % 5.9 C
3544 08-09-2018 07:15:00 6.8 C 94 % 5.9 C
3545 08-09-2018 07:20:00 6.8 C 94 % 5.9 C
3546 08-09-2018 07:25:00 6.8 C 94 % 5.9 C
3547 08-09-2018 07:30:00 6.8 C 94 % 5.9 C
3548 08-09-2018 07:35:00 6.8 C 94 % 5.9 C
3549 08-09-2018 07:40:00 6.8 C 94 % 5.9 C
3550 08-09-2018 07:45:00 6.8 C 94 % 5.9 C
Sensor: Nr:Datum:Temp:Feuchte:Taupunkt:
Aussen-T/F 3551 08-09-2018 07:50:00 6.8 C 95 % 6.06 C
3552 08-09-2018 07:55:00 6.8 C 95 % 6.06 C
3553 08-09-2018 08:00:00 6.9 C 95 % 6.16 C
3554 08-09-2018 08:05:00 6.9 C 95 % 6.16 C
3555 08-09-2018 08:10:00 6.9 C 95 % 6.16 C
3556 08-09-2018 08:15:00 7 C 95 % 6.26 C
3557 08-09-2018 08:20:00 7 C 95 % 6.26 C
3558 08-09-2018 08:25:00 7.1 C 95 % 6.35 C
3559 08-09-2018 08:30:00 7.2 C 95 % 6.45 C
3560 08-09-2018 08:35:00 7.2 C 95 % 6.45 C
3561 08-09-2018 08:40:00 7.3 C 95 % 6.55 C
3562 08-09-2018 08:45:00 7.3 C 95 % 6.55 C
3563 08-09-2018 08:50:00 7.3 C 95 % 6.55 C
3564 08-09-2018 08:55:00 7.4 C 95 % 6.65 C
3565 08-09-2018 09:00:00 7.5 C 95 % 6.75 C
3566 08-09-2018 09:05:00 7.5 C 95 % 6.75 C
3567 08-09-2018 09:10:00 7.6 C 95 % 6.85 C
3568 08-09-2018 09:15:00 7.6 C 95 % 6.85 C
3569 08-09-2018 09:20:00 7.6 C 95 % 6.85 C
3570 08-09-2018 09:25:00 7.7 C 95 % 6.95 C
3571 08-09-2018 09:30:00 7.8 C 95 % 7.05 C
3572 08-09-2018 09:35:00 7.9 C 95 % 7.15 C
3573 08-09-2018 09:40:00 8.1 C 96 % 7.5 C
3574 08-09-2018 09:45:00 8.2 C 96 % 7.6 C
3575 08-09-2018 09:50:00 8.4 C 96 % 7.8 C
Sensor: Nr:Datum:Temp:Feuchte:Taupunkt:
Aussen-T/F 3576 08-09-2018 09:55:00 8.7 C 96 % 8.1 C
3577 08-09-2018 10:00:00 8.9 C 96 % 8.3 C
3578 08-09-2018 10:05:00 9.2 C 96 % 8.6 C
3579 08-09-2018 10:10:00 9.4 C 96 % 8.8 C
3580 08-09-2018 10:15:00 9.7 C 96 % 9.09 C
3581 08-09-2018 10:20:00 9.9 C 96 % 9.29 C
3582 08-09-2018 10:25:00 10.1 C 96 % 9.49 C
3583 08-09-2018 10:30:00 10.3 C 96 % 9.69 C
3584 08-09-2018 10:35:00 10.4 C 96 % 9.79 C
3585 08-09-2018 10:40:00 10.7 C 95 % 9.93 C
3586 08-09-2018 10:45:00 10.9 C 94 % 9.97 C
3587 08-09-2018 10:50:00 11.2 C 94 % 10.27 C
3588 08-09-2018 10:55:00 11.6 C 92 % 10.35 C
3589 08-09-2018 11:00:00 12 C 90 % 10.41 C
3590 08-09-2018 11:05:00 12.4 C 88 % 10.47 C
3591 08-09-2018 11:10:00 12.7 C 87 % 10.59 C
3592 08-09-2018 11:15:00 13.1 C 85 % 10.64 C
3593 08-09-2018 11:20:00 13.4 C 80 % 10.02 C
3594 08-09-2018 11:25:00 14 C 78 % 10.23 C
3595 08-09-2018 11:30:00 14.3 C 76 % 10.13 C
3596 08-09-2018 11:35:00 14.7 C 74 % 10.12 C
3597 08-09-2018 11:40:00 15 C 71 % 9.79 C
3598 08-09-2018 11:45:00 15.2 C 71 % 9.98 C
3599 08-09-2018 11:50:00 15.3 C 70 % 9.87 C
3600 08-09-2018 11:55:00 15.5 C 68 % 9.63 C
Sensor: Nr:Datum:Temp:Feuchte:Taupunkt:
Aussen-T/F 3601 08-09-2018 12:00:00 15.7 C 67 % 9.6 C
3602 08-09-2018 12:05:00 15.8 C 66 % 9.47 C
3603 08-09-2018 12:10:00 15.9 C 66 % 9.56 C
3604 08-09-2018 12:15:00 16.1 C 65 % 9.53 C
3605 08-09-2018 12:20:00 16.2 C 65 % 9.62 C
3606 08-09-2018 12:25:00 16.3 C 63 % 9.25 C
3607 08-09-2018 12:30:00 16.3 C 62 % 9.01 C
3608 08-09-2018 12:35:00 16.4 C 62 % 9.11 C
3609 08-09-2018 12:40:00 16.4 C 64 % 9.58 C
3610 08-09-2018 12:45:00 16.6 C 62 % 9.3 C
3611 08-09-2018 12:50:00 16.6 C 62 % 9.3 C
3612 08-09-2018 12:55:00 16.7 C 62 % 9.39 C
3613 08-09-2018 13:00:00 16.7 C 63 % 9.63 C
3614 08-09-2018 13:05:00 16.9 C 62 % 9.58 C
3615 08-09-2018 13:10:00 17.1 C 60 % 9.28 C
3616 08-09-2018 13:15:00 17.2 C 60 % 9.37 C
3617 08-09-2018 13:20:00 17.2 C 60 % 9.37 C
3618 08-09-2018 13:25:00 17.2 C 61 % 9.62 C
3619 08-09-2018 13:30:00 17.3 C 61 % 9.71 C
3620 08-09-2018 13:35:00 17.4 C 60 % 9.56 C
3621 08-09-2018 13:40:00 17.5 C 61 % 9.9 C
3622 08-09-2018 13:45:00 17.7 C 61 % 10.09 C
3623 08-09-2018 13:50:00 17.8 C 58 % 9.43 C
3624 08-09-2018 13:55:00 17.9 C 59 % 9.78 C
3625 08-09-2018 14:00:00 18.1 C 59 % 9.97 C
Sensor: Nr:Datum:Temp:Feuchte:Taupunkt:
Aussen-T/F 3626 08-09-2018 14:05:00 18.2 C 58 % 9.81 C
3627 08-09-2018 14:10:00 18.3 C 57 % 9.64 C
3628 08-09-2018 14:15:00 18.4 C 57 % 9.74 C
3629 08-09-2018 14:20:00 18.6 C 56 % 9.66 C
3630 08-09-2018 14:25:00 18.6 C 56 % 9.66 C
3631 08-09-2018 14:30:00 18.6 C 55 % 9.39 C
3632 08-09-2018 14:35:00 18.7 C 56 % 9.75 C
3633 08-09-2018 14:40:00 18.8 C 56 % 9.84 C
3634 08-09-2018 14:45:00 18.9 C 56 % 9.94 C
3635 08-09-2018 14:50:00 19.2 C 57 % 10.48 C
3636 08-09-2018 14:55:00 19.2 C 53 % 9.4 C
3637 08-09-2018 15:00:00 19.2 C 53 % 9.4 C
3638 08-09-2018 15:05:00 19.2 C 53 % 9.4 C
3639 08-09-2018 15:10:00 19.3 C 53 % 9.49 C
3640 08-09-2018 15:15:00 19.4 C 53 % 9.58 C
3641 08-09-2018 15:20:00 19.6 C 52 % 9.48 C
3642 08-09-2018 15:25:00 19.7 C 52 % 9.58 C
3643 08-09-2018 15:30:00 19.8 C 52 % 9.67 C
3644 08-09-2018 15:35:00 19.9 C 51 % 9.47 C
3645 08-09-2018 15:40:00 20.1 C 51 % 9.66 C
3646 08-09-2018 15:45:00 20.2 C 51 % 9.75 C
3647 08-09-2018 15:50:00 20.3 C 50 % 9.54 C
3648 08-09-2018 15:55:00 20.3 C 50 % 9.54 C
3649 08-09-2018 16:00:00 20.4 C 51 % 9.93 C
3650 08-09-2018 16:05:00 20.5 C 49 % 9.43 C
Sensor: Nr:Datum:Temp:Feuchte:Taupunkt:
Aussen-T/F 3651 08-09-2018 16:10:00 20.6 C 50 % 9.82 C
3652 08-09-2018 16:15:00 20.6 C 50 % 9.82 C
3653 08-09-2018 16:20:00 20.8 C 49 % 9.7 C
3654 08-09-2018 16:25:00 20.9 C 49 % 9.79 C
3655 08-09-2018 16:30:00 21 C 49 % 9.89 C
3656 08-09-2018 16:35:00 21.2 C 49 % 10.07 C
3657 08-09-2018 16:40:00 21.4 C 47 % 9.63 C
3658 08-09-2018 16:45:00 21.7 C 48 % 10.22 C
3659 08-09-2018 16:50:00 21.9 C 47 % 10.09 C
3660 08-09-2018 16:55:00 22.1 C 46 % 9.95 C
3661 08-09-2018 17:00:00 22.4 C 46 % 10.22 C
3662 08-09-2018 17:05:00 22.7 C 44 % 9.83 C
3663 08-09-2018 17:10:00 22.8 C 43 % 9.58 C
3664 08-09-2018 17:15:00 23.1 C 45 % 10.53 C
3665 08-09-2018 17:20:00 23.3 C 44 % 10.37 C
3666 08-09-2018 17:25:00 23.4 C 43 % 10.12 C
3667 08-09-2018 17:30:00 23.1 C 42 % 9.5 C
3668 08-09-2018 17:35:00 22.5 C 44 % 9.65 C
3669 08-09-2018 17:40:00 22.2 C 46 % 10.04 C
3670 08-09-2018 17:45:00 21.9 C 47 % 10.09 C
3671 08-09-2018 17:50:00 21.7 C 47 % 9.9 C
3672 08-09-2018 17:55:00 21.5 C 47 % 9.72 C
3673 08-09-2018 18:00:00 21.4 C 50 % 10.55 C
3674 08-09-2018 18:05:00 21.3 C 51 % 10.76 C
3675 08-09-2018 18:10:00 21.2 C 51 % 10.67 C
Sensor: Nr:Datum:Temp:Feuchte:Taupunkt:
Aussen-T/F 3676 08-09-2018 18:15:00 21.1 C 51 % 10.58 C
3677 08-09-2018 18:20:00 21.1 C 51 % 10.58 C
3678 08-09-2018 18:25:00 21.1 C 53 % 11.15 C
3679 08-09-2018 18:30:00 21.1 C 53 % 11.15 C
3680 08-09-2018 18:35:00 21.1 C 54 % 11.44 C
3681 08-09-2018 18:40:00 21.2 C 54 % 11.53 C
3682 08-09-2018 18:45:00 21.2 C 51 % 10.67 C
3683 08-09-2018 18:50:00 21.1 C 53 % 11.15 C
3684 08-09-2018 18:55:00 20.9 C 55 % 11.53 C
3685 08-09-2018 19:00:00 20.7 C 56 % 11.61 C
3686 08-09-2018 19:05:00 20.4 C 56 % 11.33 C
3687 08-09-2018 19:10:00 20.1 C 58 % 11.58 C
3688 08-09-2018 19:15:00 19.7 C 59 % 11.47 C
3689 08-09-2018 19:20:00 19.4 C 60 % 11.44 C
3690 08-09-2018 19:25:00 19.2 C 61 % 11.5 C
3691 08-09-2018 19:30:00 18.9 C 61 % 11.22 C
3692 08-09-2018 19:35:00 18.6 C 62 % 11.18 C
3693 08-09-2018 19:40:00 18.3 C 64 % 11.38 C
3694 08-09-2018 19:45:00 18.1 C 64 % 11.19 C
3695 08-09-2018 19:50:00 17.7 C 65 % 11.04 C
3696 08-09-2018 19:55:00 17.6 C 66 % 11.18 C
3697 08-09-2018 20:00:00 17.3 C 67 % 11.12 C
3698 08-09-2018 20:05:00 17.2 C 67 % 11.02 C
3699 08-09-2018 20:10:00 17 C 68 % 11.06 C
3700 08-09-2018 20:15:00 16.9 C 69 % 11.18 C
Sensor: Nr:Datum:Temp:Feuchte:Taupunkt:
Aussen-T/F 3701 08-09-2018 20:20:00 16.8 C 69 % 11.09 C
3702 08-09-2018 20:25:00 16.7 C 69 % 10.99 C
3703 08-09-2018 20:30:00 16.6 C 70 % 11.11 C
3704 08-09-2018 20:35:00 16.6 C 70 % 11.11 C
3705 08-09-2018 20:40:00 16.5 C 71 % 11.23 C
3706 08-09-2018 20:45:00 16.4 C 71 % 11.13 C
3707 08-09-2018 20:50:00 16.4 C 70 % 10.92 C
3708 08-09-2018 20:55:00 16.3 C 70 % 10.82 C
3709 08-09-2018 21:00:00 16.3 C 71 % 11.04 C
3710 08-09-2018 21:05:00 16.2 C 71 % 10.94 C
3711 08-09-2018 21:10:00 16.2 C 72 % 11.15 C
3712 08-09-2018 21:15:00 16.1 C 72 % 11.06 C
3713 08-09-2018 21:20:00 16 C 72 % 10.96 C
3714 08-09-2018 21:25:00 15.9 C 72 % 10.86 C
3715 08-09-2018 21:30:00 15.9 C 72 % 10.86 C
3716 08-09-2018 21:35:00 15.8 C 73 % 10.97 C
3717 08-09-2018 21:40:00 15.8 C 73 % 10.97 C
3718 08-09-2018 21:45:00 15.7 C 73 % 10.88 C
3719 08-09-2018 21:50:00 15.7 C 73 % 10.88 C
3720 08-09-2018 21:55:00 15.6 C 74 % 10.99 C
3721 08-09-2018 22:00:00 15.6 C 74 % 10.99 C
3722 08-09-2018 22:05:00 15.5 C 75 % 11.09 C
3723 08-09-2018 22:10:00 15.5 C 74 % 10.89 C
3724 08-09-2018 22:15:00 15.4 C 74 % 10.79 C
3725 08-09-2018 22:20:00 15.4 C 74 % 10.79 C
Sensor: Nr:Datum:Temp:Feuchte:Taupunkt:
Aussen-T/F 3726 08-09-2018 22:25:00 15.4 C 74 % 10.79 C
3727 08-09-2018 22:30:00 15.4 C 75 % 11 C
3728 08-09-2018 22:35:00 15.3 C 75 % 10.9 C
3729 08-09-2018 22:40:00 15.3 C 75 % 10.9 C
3730 08-09-2018 22:45:00 15.2 C 75 % 10.8 C
3731 08-09-2018 22:50:00 15.2 C 76 % 11 C
3732 08-09-2018 22:55:00 15.2 C 75 % 10.8 C
3733 08-09-2018 23:00:00 15.1 C 76 % 10.9 C
3734 08-09-2018 23:05:00 15 C 76 % 10.81 C
3735 08-09-2018 23:10:00 14.8 C 77 % 10.81 C
3736 08-09-2018 23:15:00 14.7 C 76 % 10.52 C
3737 08-09-2018 23:20:00 14.7 C 77 % 10.71 C
3738 08-09-2018 23:25:00 14.6 C 77 % 10.62 C
3739 08-09-2018 23:30:00 14.6 C 77 % 10.62 C
3740 08-09-2018 23:35:00 14.6 C 77 % 10.62 C
3741 08-09-2018 23:40:00 14.7 C 77 % 10.71 C
3742 08-09-2018 23:45:00 14.7 C 77 % 10.71 C
3743 08-09-2018 23:50:00 14.8 C 77 % 10.81 C
3744 08-09-2018 23:55:00 14.9 C 77 % 10.91 C
3745 09-09-2018 00:00:00 14.9 C 77 % 10.91 C
3746 09-09-2018 00:05:00 14.8 C 78 % 11 C
3747 09-09-2018 00:10:00 14.8 C 78 % 11 C
3748 09-09-2018 00:15:00 14.7 C 78 % 10.91 C
3749 09-09-2018 00:20:00 14.6 C 78 % 10.81 C
3750 09-09-2018 00:25:00 14.4 C 78 % 10.62 C
Sensor: Nr:Datum:Temp:Feuchte:Taupunkt:
Aussen-T/F 3751 09-09-2018 00:30:00 14.3 C 79 % 10.71 C
3752 09-09-2018 00:35:00 14.2 C 79 % 10.61 C
3753 09-09-2018 00:40:00 14.1 C 79 % 10.52 C
3754 09-09-2018 00:45:00 14 C 80 % 10.61 C
3755 09-09-2018 00:50:00 13.8 C 80 % 10.41 C
3756 09-09-2018 00:55:00 13.7 C 80 % 10.32 C
3757 09-09-2018 01:00:00 13.6 C 80 % 10.22 C
3758 09-09-2018 01:05:00 13.4 C 80 % 10.02 C
3759 09-09-2018 01:10:00 13.4 C 81 % 10.21 C
3760 09-09-2018 01:15:00 13.5 C 82 % 10.49 C
3761 09-09-2018 01:20:00 13.6 C 82 % 10.59 C
3762 09-09-2018 01:25:00 13.7 C 81 % 10.5 C
3763 09-09-2018 01:30:00 13.7 C 81 % 10.5 C
3764 09-09-2018 01:35:00 13.7 C 81 % 10.5 C
3765 09-09-2018 01:40:00 13.6 C 81 % 10.4 C
3766 09-09-2018 01:45:00 13.4 C 81 % 10.21 C
3767 09-09-2018 01:50:00 13.3 C 81 % 10.11 C
3768 09-09-2018 01:55:00 13.2 C 82 % 10.2 C
3769 09-09-2018 02:00:00 13.1 C 82 % 10.1 C
3770 09-09-2018 02:05:00 12.9 C 82 % 9.9 C
3771 09-09-2018 02:10:00 12.9 C 83 % 10.09 C
3772 09-09-2018 02:15:00 12.8 C 83 % 9.99 C
3773 09-09-2018 02:20:00 12.7 C 83 % 9.89 C
3774 09-09-2018 02:25:00 12.6 C 83 % 9.79 C
3775 09-09-2018 02:30:00 12.4 C 83 % 9.6 C
Sensor: Nr:Datum:Temp:Feuchte:Taupunkt:
Aussen-T/F 3776 09-09-2018 02:35:00 12.3 C 83 % 9.5 C
3777 09-09-2018 02:40:00 12.2 C 84 % 9.58 C
3778 09-09-2018 02:45:00 12.1 C 85 % 9.66 C
3779 09-09-2018 02:50:00 12.1 C 85 % 9.66 C
3780 09-09-2018 02:55:00 12.1 C 86 % 9.83 C
3781 09-09-2018 03:00:00 12.2 C 86 % 9.93 C
3782 09-09-2018 03:05:00 12.1 C 86 % 9.83 C
3783 09-09-2018 03:10:00 12.1 C 86 % 9.83 C
3784 09-09-2018 03:15:00 12 C 86 % 9.73 C
3785 09-09-2018 03:20:00 11.9 C 86 % 9.64 C
3786 09-09-2018 03:25:00 11.9 C 86 % 9.64 C
3787 09-09-2018 03:30:00 11.8 C 86 % 9.54 C
3788 09-09-2018 03:35:00 11.7 C 87 % 9.61 C
3789 09-09-2018 03:40:00 11.7 C 87 % 9.61 C
3790 09-09-2018 03:45:00 11.6 C 87 % 9.51 C
3791 09-09-2018 03:50:00 11.5 C 87 % 9.41 C
3792 09-09-2018 03:55:00 11.4 C 87 % 9.32 C
3793 09-09-2018 04:00:00 11.4 C 87 % 9.32 C
3794 09-09-2018 04:05:00 11.3 C 87 % 9.22 C
3795 09-09-2018 04:10:00 11.2 C 88 % 9.29 C
3796 09-09-2018 04:15:00 11.1 C 88 % 9.19 C
3797 09-09-2018 04:20:00 11.1 C 88 % 9.19 C
3798 09-09-2018 04:25:00 11.1 C 89 % 9.36 C
3799 09-09-2018 04:30:00 11.1 C 89 % 9.36 C
3800 09-09-2018 04:35:00 11.1 C 89 % 9.36 C
Sensor: Nr:Datum:Temp:Feuchte:Taupunkt:
Aussen-T/F 3801 09-09-2018 04:40:00 11.1 C 89 % 9.36 C
3802 09-09-2018 04:45:00 11.1 C 89 % 9.36 C
3803 09-09-2018 04:50:00 11.2 C 89 % 9.46 C
3804 09-09-2018 04:55:00 11.1 C 89 % 9.36 C
3805 09-09-2018 05:00:00 11 C 88 % 9.09 C
3806 09-09-2018 05:05:00 10.9 C 88 % 8.99 C
3807 09-09-2018 05:10:00 10.8 C 89 % 9.06 C
3808 09-09-2018 05:15:00 10.8 C 90 % 9.23 C
3809 09-09-2018 05:20:00 10.9 C 90 % 9.33 C
3810 09-09-2018 05:25:00 10.9 C 90 % 9.33 C
3811 09-09-2018 05:30:00 10.9 C 90 % 9.33 C
3812 09-09-2018 05:35:00 11 C 90 % 9.42 C
3813 09-09-2018 05:40:00 11.1 C 91 % 9.69 C
3814 09-09-2018 05:45:00 11.2 C 91 % 9.79 C
3815 09-09-2018 05:50:00 11.2 C 91 % 9.79 C
3816 09-09-2018 05:55:00 11.2 C 91 % 9.79 C
3817 09-09-2018 06:00:00 11.3 C 90 % 9.72 C
3818 09-09-2018 06:05:00 11.3 C 90 % 9.72 C
3819 09-09-2018 06:10:00 11.3 C 90 % 9.72 C
3820 09-09-2018 06:15:00 11.3 C 90 % 9.72 C
3821 09-09-2018 06:20:00 11.3 C 90 % 9.72 C
3822 09-09-2018 06:25:00 11.4 C 90 % 9.82 C
3823 09-09-2018 06:30:00 11.3 C 90 % 9.72 C
3824 09-09-2018 06:35:00 11.4 C 90 % 9.82 C
3825 09-09-2018 06:40:00 11.4 C 90 % 9.82 C
Sensor: Nr:Datum:Temp:Feuchte:Taupunkt:
Aussen-T/F 3826 09-09-2018 06:45:00 11.4 C 90 % 9.82 C
3827 09-09-2018 06:50:00 11.5 C 90 % 9.92 C
3828 09-09-2018 06:55:00 11.6 C 90 % 10.02 C
3829 09-09-2018 07:00:00 11.6 C 90 % 10.02 C
3830 09-09-2018 07:05:00 11.6 C 90 % 10.02 C
3831 09-09-2018 07:10:00 11.6 C 90 % 10.02 C
3832 09-09-2018 07:15:00 11.6 C 90 % 10.02 C
3833 09-09-2018 07:20:00 11.6 C 90 % 10.02 C
3834 09-09-2018 07:25:00 11.5 C 90 % 9.92 C
3835 09-09-2018 07:30:00 11.5 C 90 % 9.92 C
3836 09-09-2018 07:35:00 11.5 C 90 % 9.92 C
3837 09-09-2018 07:40:00 11.5 C 90 % 9.92 C
3838 09-09-2018 07:45:00 11.5 C 90 % 9.92 C
3839 09-09-2018 07:50:00 11.6 C 90 % 10.02 C
3840 09-09-2018 07:55:00 11.7 C 90 % 10.12 C
3841 09-09-2018 08:00:00 11.7 C 90 % 10.12 C
3842 09-09-2018 08:05:00 11.8 C 90 % 10.21 C
3843 09-09-2018 08:10:00 11.9 C 90 % 10.31 C
3844 09-09-2018 08:15:00 11.9 C 90 % 10.31 C
3845 09-09-2018 08:20:00 12.1 C 90 % 10.51 C
3846 09-09-2018 08:25:00 12.2 C 90 % 10.61 C
3847 09-09-2018 08:30:00 12.3 C 90 % 10.71 C
3848 09-09-2018 08:35:00 12.4 C 89 % 10.64 C
3849 09-09-2018 08:40:00 12.6 C 89 % 10.84 C
3850 09-09-2018 08:45:00 12.7 C 88 % 10.77 C
Sensor: Nr:Datum:Temp:Feuchte:Taupunkt:
Aussen-T/F 3851 09-09-2018 08:50:00 12.8 C 88 % 10.86 C
3852 09-09-2018 08:55:00 12.9 C 87 % 10.79 C
3853 09-09-2018 09:00:00 13.2 C 87 % 11.09 C
3854 09-09-2018 09:05:00 13.3 C 87 % 11.18 C
3855 09-09-2018 09:10:00 13.4 C 86 % 11.11 C
3856 09-09-2018 09:15:00 13.6 C 84 % 10.95 C
3857 09-09-2018 09:20:00 13.8 C 84 % 11.15 C
3858 09-09-2018 09:25:00 13.9 C 84 % 11.24 C
3859 09-09-2018 09:30:00 14.1 C 84 % 11.44 C
3860 09-09-2018 09:35:00 14.2 C 83 % 11.36 C
3861 09-09-2018 09:40:00 14.4 C 82 % 11.37 C
3862 09-09-2018 09:45:00 14.6 C 82 % 11.56 C
3863 09-09-2018 09:50:00 14.6 C 81 % 11.38 C
3864 09-09-2018 09:55:00 14.8 C 81 % 11.57 C
3865 09-09-2018 10:00:00 14.9 C 80 % 11.48 C
3866 09-09-2018 10:05:00 15 C 80 % 11.58 C
3867 09-09-2018 10:10:00 15.1 C 80 % 11.68 C
3868 09-09-2018 10:15:00 15.2 C 80 % 11.78 C
3869 09-09-2018 10:20:00 15.3 C 79 % 11.68 C
3870 09-09-2018 10:25:00 15.4 C 80 % 11.97 C
3871 09-09-2018 10:30:00 15.6 C 80 % 12.16 C
3872 09-09-2018 10:35:00 15.8 C 80 % 12.36 C
3873 09-09-2018 10:40:00 16.2 C 78 % 12.36 C
3874 09-09-2018 10:45:00 16.6 C 77 % 12.55 C
3875 09-09-2018 10:50:00 16.9 C 77 % 12.84 C
Sensor: Nr:Datum:Temp:Feuchte:Taupunkt:
Aussen-T/F 3876 09-09-2018 10:55:00 17.2 C 73 % 12.32 C
3877 09-09-2018 11:00:00 17.5 C 71 % 12.19 C
3878 09-09-2018 11:05:00 17.8 C 71 % 12.47 C
3879 09-09-2018 11:10:00 18 C 70 % 12.45 C
3880 09-09-2018 11:15:00